<?xml version="1.0" encoding="UTF-8" standalone="no" ?><gpx xmlns="http://www.topografix.com/GPX/1/1" xmlns:gpxx="http://www.garmin.com/xmlschemas/GpxExtensions/v3" xmlns:wptx1="http://www.garmin.com/xmlschemas/WaypointExtension/v1" xmlns:gpxtpx="http://www.garmin.com/xmlschemas/TrackPointExtension/v1" creator="Dakota 20" version="1.1" xmlns:xsi="http://www.w3.org/2001/XMLSchema-instance" xsi:schemaLocation="http://www.topografix.com/GPX/1/1 http://www.topografix.com/GPX/1/1/gpx.xsd http://www.garmin.com/xmlschemas/GpxExtensions/v3 http://www8.garmin.com/xmlschemas/GpxExtensionsv3.xsd http://www.garmin.com/xmlschemas/WaypointExtension/v1 http://www8.garmin.com/xmlschemas/WaypointExtensionv1.xsd http://www.garmin.com/xmlschemas/TrackPointExtension/v1 http://www.garmin.com/xmlschemas/TrackPointExtensionv1.xsd"><metadata><link href="http://www.garmin.com"><text>Garmin International</text></link><time>2014-06-11T17:06:09Z</time></metadata><trk><name>Current Track: 11 JUN 2014 10:17</name><extensions><gpxx:TrackExtension><gpxx:DisplayColor>Cyan</gpxx:DisplayColor></gpxx:TrackExtension></extensions><trkseg><trkpt lat="51.7458498850" lon="-2.0115322061"><ele>131.36</ele><time>2014-06-11T09:17:45Z</time></trkpt><trkpt lat="51.7458519805" lon="-2.0115189627"><ele>131.36</ele><time>2014-06-11T09:18:05Z</time></trkpt><trkpt lat="51.7458374798" lon="-2.0115539152"><ele>131.36</ele><time>2014-06-11T09:18:27Z</time></trkpt><trkpt lat="51.7457656469" lon="-2.0114647318"><ele>130.88</ele><time>2014-06-11T09:18:41Z</time></trkpt><trkpt lat="51.7457472067" lon="-2.0114411786"><ele>131.36</ele><time>2014-06-11T09:18:44Z</time></trkpt><trkpt lat="51.7457167804" lon="-2.0113622211"><ele>130.88</ele><time>2014-06-11T09:18:48Z</time></trkpt><trkpt lat="51.7456555087" lon="-2.0112487301"><ele>131.36</ele><time>2014-06-11T09:18:59Z</time></trkpt><trkpt lat="51.7456053011" lon="-2.0112126879"><ele>131.84</ele><time>2014-06-11T09:19:02Z</time></trkpt><trkpt lat="51.7454230785" lon="-2.0112392586"><ele>131.84</ele><time>2014-06-11T09:19:18Z</time></trkpt><trkpt lat="51.7454347294" lon="-2.0113945752"><ele>131.84</ele><time>2014-06-11T09:19:25Z</time></trkpt><trkpt lat="51.7454318795" lon="-2.0114789810"><ele>131.84</ele><time>2014-06-11T09:19:29Z</time></trkpt><trkpt lat="51.7454216536" lon="-2.0115374029"><ele>131.84</ele><time>2014-06-11T09:19:34Z</time></trkpt><trkpt lat="51.7454269342" lon="-2.0115752891"><ele>131.84</ele><time>2014-06-11T09:19:36Z</time></trkpt><trkpt lat="51.7454159539" lon="-2.0116355550"><ele>131.36</ele><time>2014-06-11T09:19:40Z</time></trkpt><trkpt lat="51.7453871202" lon="-2.0118521433"><ele>131.84</ele><time>2014-06-11T09:19:54Z</time></trkpt><trkpt lat="51.7453857791" lon="-2.0119147561"><ele>131.84</ele><time>2014-06-11T09:19:58Z</time></trkpt><trkpt lat="51.7453669198" lon="-2.0120721683"><ele>132.80</ele><time>2014-06-11T09:20:09Z</time></trkpt><trkpt lat="51.7453468032" lon="-2.0121455938"><ele>132.80</ele><time>2014-06-11T09:20:15Z</time></trkpt><trkpt lat="51.7453505751" lon="-2.0120999962"><ele>132.32</ele><time>2014-06-11T09:20:23Z</time></trkpt><trkpt lat="51.7453718651" lon="-2.0120961405"><ele>132.80</ele><time>2014-06-11T09:20:35Z</time></trkpt><trkpt lat="51.7453738768" lon="-2.0121095516"><ele>132.80</ele><time>2014-06-11T09:20:36Z</time></trkpt><trkpt lat="51.7453790735" lon="-2.0122101344"><ele>132.80</ele><time>2014-06-11T09:20:43Z</time></trkpt><trkpt lat="51.7453822587" lon="-2.0122952946"><ele>133.28</ele><time>2014-06-11T09:20:49Z</time></trkpt><trkpt lat="51.7453887966" lon="-2.0125030819"><ele>134.24</ele><time>2014-06-11T09:21:03Z</time></trkpt><trkpt lat="51.7453891318" lon="-2.0125260483"><ele>134.24</ele><time>2014-06-11T09:21:05Z</time></trkpt><trkpt lat="51.7453971785" lon="-2.0126252901"><ele>135.20</ele><time>2014-06-11T09:21:14Z</time></trkpt><trkpt lat="51.7454396747" lon="-2.0128856320"><ele>136.16</ele><time>2014-06-11T09:21:28Z</time></trkpt><trkpt lat="51.7454328015" lon="-2.0129966084"><ele>136.16</ele><time>2014-06-11T09:21:34Z</time></trkpt><trkpt lat="51.7453886289" lon="-2.0132302959"><ele>137.13</ele><time>2014-06-11T09:21:45Z</time></trkpt><trkpt lat="51.7453810852" lon="-2.0133685973"><ele>138.09</ele><time>2014-06-11T09:21:56Z</time></trkpt><trkpt lat="51.7453784030" lon="-2.0135639794"><ele>139.53</ele><time>2014-06-11T09:22:06Z</time></trkpt><trkpt lat="51.7453696020" lon="-2.0137556735"><ele>140.01</ele><time>2014-06-11T09:22:17Z</time></trkpt><trkpt lat="51.7453703564" lon="-2.0139183663"><ele>140.97</ele><time>2014-06-11T09:22:26Z</time></trkpt><trkpt lat="51.7453338113" lon="-2.0140497107"><ele>141.93</ele><time>2014-06-11T09:22:33Z</time></trkpt><trkpt lat="51.7453442048" lon="-2.0142311789"><ele>142.89</ele><time>2014-06-11T09:22:43Z</time></trkpt><trkpt lat="51.7453579511" lon="-2.0143793710"><ele>143.37</ele><time>2014-06-11T09:22:50Z</time></trkpt><trkpt lat="51.7453599628" lon="-2.0144618489"><ele>143.85</ele><time>2014-06-11T09:22:54Z</time></trkpt><trkpt lat="51.7453758046" lon="-2.0145296585"><ele>144.34</ele><time>2014-06-11T09:22:59Z</time></trkpt><trkpt lat="51.7453591246" lon="-2.0148583129"><ele>145.30</ele><time>2014-06-11T09:23:14Z</time></trkpt><trkpt lat="51.7453502398" lon="-2.0148730651"><ele>145.78</ele><time>2014-06-11T09:23:15Z</time></trkpt><trkpt lat="51.7453269381" lon="-2.0149837062"><ele>146.26</ele><time>2014-06-11T09:23:23Z</time></trkpt><trkpt lat="51.7453273572" lon="-2.0150574669"><ele>146.74</ele><time>2014-06-11T09:23:27Z</time></trkpt><trkpt lat="51.7453204002" lon="-2.0151140448"><ele>147.22</ele><time>2014-06-11T09:23:31Z</time></trkpt><trkpt lat="51.7453168798" lon="-2.0152445510"><ele>147.22</ele><time>2014-06-11T09:23:36Z</time></trkpt><trkpt lat="51.7453183886" lon="-2.0153101813"><ele>147.70</ele><time>2014-06-11T09:23:41Z</time></trkpt><trkpt lat="51.7453279439" lon="-2.0154570322"><ele>147.70</ele><time>2014-06-11T09:23:49Z</time></trkpt><trkpt lat="51.7453437857" lon="-2.0157383289"><ele>149.62</ele><time>2014-06-11T09:24:04Z</time></trkpt><trkpt lat="51.7453365773" lon="-2.0158985071"><ele>149.62</ele><time>2014-06-11T09:24:13Z</time></trkpt><trkpt lat="51.7453772295" lon="-2.0160634629"><ele>150.10</ele><time>2014-06-11T09:24:22Z</time></trkpt><trkpt lat="51.7454333045" lon="-2.0162725076"><ele>150.58</ele><time>2014-06-11T09:24:36Z</time></trkpt><trkpt lat="51.7454323824" lon="-2.0162773691"><ele>151.06</ele><time>2014-06-11T09:24:43Z</time></trkpt><trkpt lat="51.7454709392" lon="-2.0164048579"><ele>150.58</ele><time>2014-06-11T09:24:54Z</time></trkpt><trkpt lat="51.7454835959" lon="-2.0164579991"><ele>150.58</ele><time>2014-06-11T09:24:59Z</time></trkpt><trkpt lat="51.7454896308" lon="-2.0165133197"><ele>150.58</ele><time>2014-06-11T09:25:03Z</time></trkpt><trkpt lat="51.7455303669" lon="-2.0167583227"><ele>151.06</ele><time>2014-06-11T09:25:18Z</time></trkpt><trkpt lat="51.7455536686" lon="-2.0168094523"><ele>151.54</ele><time>2014-06-11T09:25:21Z</time></trkpt><trkpt lat="51.7456001043" lon="-2.0169221889"><ele>151.54</ele><time>2014-06-11T09:25:32Z</time></trkpt><trkpt lat="51.7456120905" lon="-2.0169338398"><ele>151.54</ele><time>2014-06-11T09:25:33Z</time></trkpt><trkpt lat="51.7456521560" lon="-2.0170186646"><ele>151.06</ele><time>2014-06-11T09:25:39Z</time></trkpt><trkpt lat="51.7456643935" lon="-2.0170438103"><ele>151.06</ele><time>2014-06-11T09:25:41Z</time></trkpt><trkpt lat="51.7457106616" lon="-2.0171604026"><ele>150.10</ele><time>2014-06-11T09:25:49Z</time></trkpt><trkpt lat="51.7457314488" lon="-2.0172711276"><ele>150.10</ele><time>2014-06-11T09:25:56Z</time></trkpt><trkpt lat="51.7457454465" lon="-2.0173238497"><ele>149.62</ele><time>2014-06-11T09:25:59Z</time></trkpt><trkpt lat="51.7457699217" lon="-2.0174252708"><ele>149.62</ele><time>2014-06-11T09:26:06Z</time></trkpt><trkpt lat="51.7457802314" lon="-2.0174929127"><ele>149.14</ele><time>2014-06-11T09:26:09Z</time></trkpt><trkpt lat="51.7457441892" lon="-2.0176378358"><ele>149.14</ele><time>2014-06-11T09:26:17Z</time></trkpt><trkpt lat="51.7457442731" lon="-2.0176977664"><ele>148.66</ele><time>2014-06-11T09:26:20Z</time></trkpt><trkpt lat="51.7457457818" lon="-2.0178472996"><ele>148.66</ele><time>2014-06-11T09:26:28Z</time></trkpt><trkpt lat="51.7457604501" lon="-2.0179753751"><ele>148.66</ele><time>2014-06-11T09:26:36Z</time></trkpt><trkpt lat="51.7457454465" lon="-2.0181114133"><ele>148.18</ele><time>2014-06-11T09:26:44Z</time></trkpt><trkpt lat="51.7457405850" lon="-2.0181612018"><ele>148.18</ele><time>2014-06-11T09:26:47Z</time></trkpt><trkpt lat="51.7457172833" lon="-2.0182727650"><ele>148.66</ele><time>2014-06-11T09:26:54Z</time></trkpt><trkpt lat="51.7457114998" lon="-2.0183238946"><ele>148.18</ele><time>2014-06-11T09:26:57Z</time></trkpt><trkpt lat="51.7457168642" lon="-2.0184369665"><ele>148.66</ele><time>2014-06-11T09:27:04Z</time></trkpt><trkpt lat="51.7456911318" lon="-2.0186724979"><ele>148.18</ele><time>2014-06-11T09:27:16Z</time></trkpt><trkpt lat="51.7456936464" lon="-2.0187284052"><ele>148.66</ele><time>2014-06-11T09:27:19Z</time></trkpt><trkpt lat="51.7457179539" lon="-2.0188623480"><ele>148.66</ele><time>2014-06-11T09:27:26Z</time></trkpt><trkpt lat="51.7456971668" lon="-2.0190088637"><ele>149.14</ele><time>2014-06-11T09:27:34Z</time></trkpt><trkpt lat="51.7457194626" lon="-2.0192500111"><ele>149.62</ele><time>2014-06-11T09:27:48Z</time></trkpt><trkpt lat="51.7457473744" lon="-2.0194573794"><ele>150.58</ele><time>2014-06-11T09:28:03Z</time></trkpt><trkpt lat="51.7457484640" lon="-2.0194963552"><ele>150.58</ele><time>2014-06-11T09:28:06Z</time></trkpt><trkpt lat="51.7457695026" lon="-2.0196281187"><ele>151.06</ele><time>2014-06-11T09:28:15Z</time></trkpt><trkpt lat="51.7457695026" lon="-2.0196614787"><ele>152.51</ele><time>2014-06-11T09:28:17Z</time></trkpt><trkpt lat="51.7457746156" lon="-2.0197273605"><ele>152.51</ele><time>2014-06-11T09:28:22Z</time></trkpt><trkpt lat="51.7458071373" lon="-2.0199044701"><ele>153.47</ele><time>2014-06-11T09:28:34Z</time></trkpt><trkpt lat="51.7458250746" lon="-2.0200849324"><ele>154.43</ele><time>2014-06-11T09:28:47Z</time></trkpt><trkpt lat="51.7458544113" lon="-2.0201699249"><ele>154.91</ele><time>2014-06-11T09:28:54Z</time></trkpt><trkpt lat="51.7458741926" lon="-2.0203441847"><ele>155.39</ele><time>2014-06-11T09:29:05Z</time></trkpt><trkpt lat="51.7458633799" lon="-2.0204691589"><ele>156.35</ele><time>2014-06-11T09:29:11Z</time></trkpt><trkpt lat="51.7458534054" lon="-2.0205521397"><ele>156.35</ele><time>2014-06-11T09:29:16Z</time></trkpt><trkpt lat="51.7459153477" lon="-2.0207858272"><ele>157.31</ele><time>2014-06-11T09:29:33Z</time></trkpt><trkpt lat="51.7459181137" lon="-2.0207799599"><ele>157.31</ele><time>2014-06-11T09:29:56Z</time></trkpt><trkpt lat="51.7459207121" lon="-2.0208039321"><ele>156.83</ele><time>2014-06-11T09:30:14Z</time></trkpt><trkpt lat="51.7459515575" lon="-2.0208092127"><ele>157.31</ele><time>2014-06-11T09:30:32Z</time></trkpt><trkpt lat="51.7459316086" lon="-2.0208229590"><ele>157.79</ele><time>2014-06-11T09:30:50Z</time></trkpt><trkpt lat="51.7459180299" lon="-2.0208207797"><ele>157.79</ele><time>2014-06-11T09:31:12Z</time></trkpt><trkpt lat="51.7459073849" lon="-2.0208209474"><ele>157.79</ele><time>2014-06-11T09:31:31Z</time></trkpt><trkpt lat="51.7459117435" lon="-2.0208999049"><ele>158.27</ele><time>2014-06-11T09:31:51Z</time></trkpt><trkpt lat="51.7459117435" lon="-2.0209370367"><ele>158.27</ele><time>2014-06-11T09:31:53Z</time></trkpt><trkpt lat="51.7459226400" lon="-2.0210525393"><ele>158.27</ele><time>2014-06-11T09:31:59Z</time></trkpt><trkpt lat="51.7459668126" lon="-2.0211914275"><ele>158.75</ele><time>2014-06-11T09:32:11Z</time></trkpt><trkpt lat="51.7460297607" lon="-2.0213459898"><ele>159.24</ele><time>2014-06-11T09:32:23Z</time></trkpt><trkpt lat="51.7460332811" lon="-2.0215154719"><ele>159.72</ele><time>2014-06-11T09:32:33Z</time></trkpt><trkpt lat="51.7460358795" lon="-2.0216271188"><ele>159.72</ele><time>2014-06-11T09:32:39Z</time></trkpt><trkpt lat="51.7460468598" lon="-2.0216813497"><ele>160.20</ele><time>2014-06-11T09:32:43Z</time></trkpt><trkpt lat="51.7460504640" lon="-2.0217748918"><ele>160.68</ele><time>2014-06-11T09:32:49Z</time></trkpt><trkpt lat="51.7460511345" lon="-2.0218890533"><ele>161.16</ele><time>2014-06-11T09:32:56Z</time></trkpt><trkpt lat="51.7460777890" lon="-2.0220547635"><ele>160.68</ele><time>2014-06-11T09:33:08Z</time></trkpt><trkpt lat="51.7460966483" lon="-2.0221511554"><ele>161.16</ele><time>2014-06-11T09:33:14Z</time></trkpt><trkpt lat="51.7461108137" lon="-2.0221898798"><ele>161.16</ele><time>2014-06-11T09:33:17Z</time></trkpt><trkpt lat="51.7461073771" lon="-2.0222483017"><ele>161.64</ele><time>2014-06-11T09:33:21Z</time></trkpt><trkpt lat="51.7461079638" lon="-2.0223446935"><ele>162.12</ele><time>2014-06-11T09:33:27Z</time></trkpt><trkpt lat="51.7461240571" lon="-2.0224035345"><ele>161.64</ele><time>2014-06-11T09:33:31Z</time></trkpt><trkpt lat="51.7461424135" lon="-2.0224590227"><ele>162.12</ele><time>2014-06-11T09:33:35Z</time></trkpt><trkpt lat="51.7461494543" lon="-2.0226309355"><ele>162.12</ele><time>2014-06-11T09:33:48Z</time></trkpt><trkpt lat="51.7461503763" lon="-2.0227351226"><ele>162.12</ele><time>2014-06-11T09:33:54Z</time></trkpt><trkpt lat="51.7461736780" lon="-2.0228635333"><ele>162.60</ele><time>2014-06-11T09:34:03Z</time></trkpt><trkpt lat="51.7461795453" lon="-2.0229453407"><ele>162.60</ele><time>2014-06-11T09:34:08Z</time></trkpt><trkpt lat="51.7462020926" lon="-2.0231020823"><ele>162.12</ele><time>2014-06-11T09:34:19Z</time></trkpt><trkpt lat="51.7462013382" lon="-2.0231763460"><ele>162.12</ele><time>2014-06-11T09:34:24Z</time></trkpt><trkpt lat="51.7462147493" lon="-2.0232283976"><ele>162.12</ele><time>2014-06-11T09:34:28Z</time></trkpt><trkpt lat="51.7462295014" lon="-2.0233110432"><ele>161.64</ele><time>2014-06-11T09:34:34Z</time></trkpt><trkpt lat="51.7462622747" lon="-2.0235468261"><ele>161.64</ele><time>2014-06-11T09:34:50Z</time></trkpt><trkpt lat="51.7462750990" lon="-2.0236174017"><ele>161.16</ele><time>2014-06-11T09:34:55Z</time></trkpt><trkpt lat="51.7462766077" lon="-2.0236948505"><ele>161.16</ele><time>2014-06-11T09:35:00Z</time></trkpt><trkpt lat="51.7462875042" lon="-2.0237802621"><ele>161.16</ele><time>2014-06-11T09:35:06Z</time></trkpt><trkpt lat="51.7462978978" lon="-2.0238505863"><ele>161.16</ele><time>2014-06-11T09:35:11Z</time></trkpt><trkpt lat="51.7462941259" lon="-2.0239306334"><ele>161.16</ele><time>2014-06-11T09:35:17Z</time></trkpt><trkpt lat="51.7463071179" lon="-2.0239958446"><ele>161.16</ele><time>2014-06-11T09:35:22Z</time></trkpt><trkpt lat="51.7463271506" lon="-2.0240871236"><ele>161.16</ele><time>2014-06-11T09:35:27Z</time></trkpt><trkpt lat="51.7463623546" lon="-2.0242559351"><ele>161.16</ele><time>2014-06-11T09:35:38Z</time></trkpt><trkpt lat="51.7463843152" lon="-2.0243629720"><ele>161.16</ele><time>2014-06-11T09:35:44Z</time></trkpt><trkpt lat="51.7464048509" lon="-2.0245539118"><ele>162.12</ele><time>2014-06-11T09:35:59Z</time></trkpt><trkpt lat="51.7464137357" lon="-2.0246131718"><ele>161.64</ele><time>2014-06-11T09:36:03Z</time></trkpt><trkpt lat="51.7464295775" lon="-2.0246888604"><ele>162.12</ele><time>2014-06-11T09:36:07Z</time></trkpt><trkpt lat="51.7464130651" lon="-2.0248098113"><ele>162.12</ele><time>2014-06-11T09:36:14Z</time></trkpt><trkpt lat="51.7464558966" lon="-2.0249714144"><ele>162.12</ele><time>2014-06-11T09:36:25Z</time></trkpt><trkpt lat="51.7464871611" lon="-2.0251237135"><ele>163.08</ele><time>2014-06-11T09:36:35Z</time></trkpt><trkpt lat="51.7464934476" lon="-2.0251731668"><ele>162.60</ele><time>2014-06-11T09:36:39Z</time></trkpt><trkpt lat="51.7465315852" lon="-2.0253688004"><ele>163.08</ele><time>2014-06-11T09:36:52Z</time></trkpt><trkpt lat="51.7465372849" lon="-2.0254149009"><ele>162.60</ele><time>2014-06-11T09:36:56Z</time></trkpt><trkpt lat="51.7465548869" lon="-2.0255674515"><ele>162.60</ele><time>2014-06-11T09:37:06Z</time></trkpt><trkpt lat="51.7465681303" lon="-2.0256466605"><ele>163.08</ele><time>2014-06-11T09:37:11Z</time></trkpt><trkpt lat="51.7465754226" lon="-2.0257214271"><ele>162.60</ele><time>2014-06-11T09:37:16Z</time></trkpt><trkpt lat="51.7465824634" lon="-2.0257959422"><ele>163.08</ele><time>2014-06-11T09:37:21Z</time></trkpt><trkpt lat="51.7465960421" lon="-2.0258839522"><ele>163.56</ele><time>2014-06-11T09:37:27Z</time></trkpt><trkpt lat="51.7466067709" lon="-2.0259566233"><ele>163.08</ele><time>2014-06-11T09:37:32Z</time></trkpt><trkpt lat="51.7466283124" lon="-2.0261378400"><ele>163.56</ele><time>2014-06-11T09:37:46Z</time></trkpt><trkpt lat="51.7466314975" lon="-2.0261765644"><ele>163.56</ele><time>2014-06-11T09:37:49Z</time></trkpt><trkpt lat="51.7466517817" lon="-2.0262737945"><ele>163.56</ele><time>2014-06-11T09:37:54Z</time></trkpt><trkpt lat="51.7466577329" lon="-2.0263293665"><ele>164.04</ele><time>2014-06-11T09:37:58Z</time></trkpt><trkpt lat="51.7466800287" lon="-2.0264354814"><ele>164.52</ele><time>2014-06-11T09:38:06Z</time></trkpt><trkpt lat="51.7466909252" lon="-2.0265135169"><ele>165.00</ele><time>2014-06-11T09:38:11Z</time></trkpt><trkpt lat="51.7466991395" lon="-2.0266488846"><ele>165.48</ele><time>2014-06-11T09:38:20Z</time></trkpt><trkpt lat="51.7467008159" lon="-2.0266934764"><ele>165.00</ele><time>2014-06-11T09:38:23Z</time></trkpt><trkpt lat="51.7467318289" lon="-2.0268600248"><ele>166.45</ele><time>2014-06-11T09:38:34Z</time></trkpt><trkpt lat="51.7467505205" lon="-2.0269932132"><ele>166.45</ele><time>2014-06-11T09:38:43Z</time></trkpt><trkpt lat="51.7467764206" lon="-2.0271159243"><ele>166.93</ele><time>2014-06-11T09:38:51Z</time></trkpt><trkpt lat="51.7467765044" lon="-2.0271303412"><ele>167.89</ele><time>2014-06-11T09:38:52Z</time></trkpt><trkpt lat="51.7467827071" lon="-2.0272030961"><ele>167.89</ele><time>2014-06-11T09:38:57Z</time></trkpt><trkpt lat="51.7467910890" lon="-2.0272724982"><ele>167.89</ele><time>2014-06-11T09:39:02Z</time></trkpt><trkpt lat="51.7468196712" lon="-2.0274227019"><ele>168.85</ele><time>2014-06-11T09:39:13Z</time></trkpt><trkpt lat="51.7468394525" lon="-2.0275098737"><ele>169.33</ele><time>2014-06-11T09:39:19Z</time></trkpt><trkpt lat="51.7468530312" lon="-2.0275662839"><ele>169.33</ele><time>2014-06-11T09:39:22Z</time></trkpt><trkpt lat="51.7468632571" lon="-2.0276665315"><ele>169.81</ele><time>2014-06-11T09:39:29Z</time></trkpt><trkpt lat="51.7468777578" lon="-2.0277221873"><ele>169.81</ele><time>2014-06-11T09:39:33Z</time></trkpt><trkpt lat="51.7469196673" lon="-2.0278324932"><ele>170.77</ele><time>2014-06-11T09:39:45Z</time></trkpt><trkpt lat="51.7469112016" lon="-2.0278317388"><ele>170.29</ele><time>2014-06-11T09:40:09Z</time></trkpt><trkpt lat="51.7469031550" lon="-2.0278311521"><ele>170.29</ele><time>2014-06-11T09:40:39Z</time></trkpt><trkpt lat="51.7468983773" lon="-2.0278283861"><ele>170.29</ele><time>2014-06-11T09:41:08Z</time></trkpt><trkpt lat="51.7468964495" lon="-2.0278265420"><ele>169.81</ele><time>2014-06-11T09:41:36Z</time></trkpt><trkpt lat="51.7469102796" lon="-2.0278729778"><ele>169.81</ele><time>2014-06-11T09:42:07Z</time></trkpt><trkpt lat="51.7469810229" lon="-2.0280607324"><ele>170.29</ele><time>2014-06-11T09:42:21Z</time></trkpt><trkpt lat="51.7469936796" lon="-2.0280807652"><ele>170.29</ele><time>2014-06-11T09:42:23Z</time></trkpt><trkpt lat="51.7470359243" lon="-2.0282585453"><ele>171.25</ele><time>2014-06-11T09:42:38Z</time></trkpt><trkpt lat="51.7470381875" lon="-2.0282780752"><ele>170.77</ele><time>2014-06-11T09:42:39Z</time></trkpt><trkpt lat="51.7470587231" lon="-2.0283209905"><ele>170.77</ele><time>2014-06-11T09:42:43Z</time></trkpt><trkpt lat="51.7470894009" lon="-2.0283876266"><ele>171.25</ele><time>2014-06-11T09:42:50Z</time></trkpt><trkpt lat="51.7471251916" lon="-2.0285245031"><ele>171.25</ele><time>2014-06-11T09:43:02Z</time></trkpt><trkpt lat="51.7471779138" lon="-2.0286011137"><ele>172.21</ele><time>2014-06-11T09:43:16Z</time></trkpt><trkpt lat="51.7471864633" lon="-2.0286512375"><ele>172.21</ele><time>2014-06-11T09:43:26Z</time></trkpt><trkpt lat="51.7471994553" lon="-2.0287078153"><ele>172.21</ele><time>2014-06-11T09:43:39Z</time></trkpt><trkpt lat="51.7472015508" lon="-2.0288109966"><ele>172.69</ele><time>2014-06-11T09:43:48Z</time></trkpt><trkpt lat="51.7472077534" lon="-2.0288232341"><ele>172.21</ele><time>2014-06-11T09:43:49Z</time></trkpt><trkpt lat="51.7472276185" lon="-2.0289539918"><ele>173.17</ele><time>2014-06-11T09:43:58Z</time></trkpt><trkpt lat="51.7472678516" lon="-2.0290037803"><ele>172.69</ele><time>2014-06-11T09:44:03Z</time></trkpt><trkpt lat="51.7473240942" lon="-2.0291206241"><ele>173.66</ele><time>2014-06-11T09:44:12Z</time></trkpt><trkpt lat="51.7473306321" lon="-2.0292033534"><ele>173.66</ele><time>2014-06-11T09:44:17Z</time></trkpt><trkpt lat="51.7473703623" lon="-2.0292927884"><ele>173.17</ele><time>2014-06-11T09:44:23Z</time></trkpt><trkpt lat="51.7474628147" lon="-2.0294604264"><ele>174.14</ele><time>2014-06-11T09:44:36Z</time></trkpt><trkpt lat="51.7474851105" lon="-2.0295131486"><ele>174.14</ele><time>2014-06-11T09:44:40Z</time></trkpt><trkpt lat="51.7475177161" lon="-2.0296058524"><ele>174.14</ele><time>2014-06-11T09:44:46Z</time></trkpt><trkpt lat="51.7475872021" lon="-2.0298092812"><ele>174.14</ele><time>2014-06-11T09:45:00Z</time></trkpt><trkpt lat="51.7475902196" lon="-2.0298278891"><ele>174.14</ele><time>2014-06-11T09:45:01Z</time></trkpt><trkpt lat="51.7476074025" lon="-2.0298588183"><ele>174.14</ele><time>2014-06-11T09:45:03Z</time></trkpt><trkpt lat="51.7476609629" lon="-2.0299666934"><ele>174.14</ele><time>2014-06-11T09:45:10Z</time></trkpt><trkpt lat="51.7477077339" lon="-2.0300243609"><ele>173.66</ele><time>2014-06-11T09:45:15Z</time></trkpt><trkpt lat="51.7477136850" lon="-2.0300609060"><ele>174.14</ele><time>2014-06-11T09:45:18Z</time></trkpt><trkpt lat="51.7478047963" lon="-2.0301878080"><ele>173.17</ele><time>2014-06-11T09:45:29Z</time></trkpt><trkpt lat="51.7479048762" lon="-2.0303431246"><ele>173.66</ele><time>2014-06-11T09:45:41Z</time></trkpt><trkpt lat="51.7479443550" lon="-2.0304250997"><ele>172.69</ele><time>2014-06-11T09:45:47Z</time></trkpt><trkpt lat="51.7479660641" lon="-2.0304946695"><ele>172.69</ele><time>2014-06-11T09:45:51Z</time></trkpt><trkpt lat="51.7479809839" lon="-2.0305658318"><ele>172.69</ele><time>2014-06-11T09:45:56Z</time></trkpt><trkpt lat="51.7480270006" lon="-2.0306346472"><ele>172.21</ele><time>2014-06-11T09:46:03Z</time></trkpt><trkpt lat="51.7480737716" lon="-2.0307083242"><ele>171.73</ele><time>2014-06-11T09:46:10Z</time></trkpt><trkpt lat="51.7481157649" lon="-2.0307792351"><ele>170.77</ele><time>2014-06-11T09:46:15Z</time></trkpt><trkpt lat="51.7481316067" lon="-2.0308099966"><ele>170.77</ele><time>2014-06-11T09:46:17Z</time></trkpt><trkpt lat="51.7482011765" lon="-2.0309312828"><ele>169.81</ele><time>2014-06-11T09:46:29Z</time></trkpt><trkpt lat="51.7482328601" lon="-2.0310106594"><ele>169.33</ele><time>2014-06-11T09:46:36Z</time></trkpt><trkpt lat="51.7482706625" lon="-2.0310757030"><ele>169.33</ele><time>2014-06-11T09:46:41Z</time></trkpt><trkpt lat="51.7483756039" lon="-2.0312263258"><ele>167.41</ele><time>2014-06-11T09:46:56Z</time></trkpt><trkpt lat="51.7484605126" lon="-2.0313013438"><ele>166.93</ele><time>2014-06-11T09:47:06Z</time></trkpt><trkpt lat="51.7485349439" lon="-2.0313739311"><ele>166.93</ele><time>2014-06-11T09:47:13Z</time></trkpt><trkpt lat="51.7486166675" lon="-2.0314847399"><ele>165.96</ele><time>2014-06-11T09:47:24Z</time></trkpt><trkpt lat="51.7487382889" lon="-2.0316561498"><ele>165.96</ele><time>2014-06-11T09:47:39Z</time></trkpt><trkpt lat="51.7487549689" lon="-2.0316554792"><ele>166.45</ele><time>2014-06-11T09:47:55Z</time></trkpt><trkpt lat="51.7487635184" lon="-2.0316765178"><ele>166.93</ele><time>2014-06-11T09:48:14Z</time></trkpt><trkpt lat="51.7487768456" lon="-2.0316759311"><ele>169.81</ele><time>2014-06-11T09:48:27Z</time></trkpt><trkpt lat="51.7487768456" lon="-2.0316755958"><ele>166.45</ele><time>2014-06-11T09:48:28Z</time></trkpt><trkpt lat="51.7487768456" lon="-2.0316751767"><ele>166.93</ele><time>2014-06-11T09:48:34Z</time></trkpt><trkpt lat="51.7487759236" lon="-2.0316935331"><ele>166.45</ele><time>2014-06-11T09:48:39Z</time></trkpt><trkpt lat="51.7487636022" lon="-2.0317486860"><ele>165.48</ele><time>2014-06-11T09:49:03Z</time></trkpt><trkpt lat="51.7487493530" lon="-2.0317304973"><ele>166.45</ele><time>2014-06-11T09:49:29Z</time></trkpt><trkpt lat="51.7487580702" lon="-2.0317164157"><ele>162.12</ele><time>2014-06-11T09:49:32Z</time></trkpt><trkpt lat="51.7487579864" lon="-2.0317159127"><ele>169.81</ele><time>2014-06-11T09:49:33Z</time></trkpt><trkpt lat="51.7487581540" lon="-2.0317154098"><ele>166.45</ele><time>2014-06-11T09:49:34Z</time></trkpt><trkpt lat="51.7487823777" lon="-2.0317070279"><ele>166.45</ele><time>2014-06-11T09:49:49Z</time></trkpt><trkpt lat="51.7487945314" lon="-2.0316993166"><ele>165.96</ele><time>2014-06-11T09:49:51Z</time></trkpt><trkpt lat="51.7488081101" lon="-2.0316801220"><ele>165.96</ele><time>2014-06-11T09:50:15Z</time></trkpt><trkpt lat="51.7488121334" lon="-2.0316989813"><ele>165.96</ele><time>2014-06-11T09:50:36Z</time></trkpt><trkpt lat="51.7488164920" lon="-2.0316886716"><ele>165.96</ele><time>2014-06-11T09:50:56Z</time></trkpt><trkpt lat="51.7488006502" lon="-2.0316847321"><ele>165.00</ele><time>2014-06-11T09:51:14Z</time></trkpt><trkpt lat="51.7487941124" lon="-2.0316592511"><ele>164.04</ele><time>2014-06-11T09:51:23Z</time></trkpt><trkpt lat="51.7487933580" lon="-2.0316534676"><ele>167.41</ele><time>2014-06-11T09:51:24Z</time></trkpt><trkpt lat="51.7487930227" lon="-2.0316491090"><ele>163.08</ele><time>2014-06-11T09:51:25Z</time></trkpt><trkpt lat="51.7487959564" lon="-2.0316374581"><ele>166.93</ele><time>2014-06-11T09:51:26Z</time></trkpt><trkpt lat="51.7487983871" lon="-2.0316260587"><ele>167.41</ele><time>2014-06-11T09:51:27Z</time></trkpt><trkpt lat="51.7487992253" lon="-2.0316207781"><ele>163.08</ele><time>2014-06-11T09:51:28Z</time></trkpt><trkpt lat="51.7488049250" lon="-2.0316040143"><ele>165.96</ele><time>2014-06-11T09:51:29Z</time></trkpt><trkpt lat="51.7488071043" lon="-2.0315983146"><ele>163.08</ele><time>2014-06-11T09:51:30Z</time></trkpt><trkpt lat="51.7488112953" lon="-2.0315869991"><ele>166.45</ele><time>2014-06-11T09:51:31Z</time></trkpt><trkpt lat="51.7488171626" lon="-2.0315711573"><ele>164.52</ele><time>2014-06-11T09:51:32Z</time></trkpt><trkpt lat="51.7488213535" lon="-2.0315599255"><ele>165.96</ele><time>2014-06-11T09:51:33Z</time></trkpt><trkpt lat="51.7488255445" lon="-2.0315486100"><ele>164.04</ele><time>2014-06-11T09:51:34Z</time></trkpt><trkpt lat="51.7488501873" lon="-2.0314776991"><ele>164.04</ele><time>2014-06-11T09:51:42Z</time></trkpt><trkpt lat="51.7488555517" lon="-2.0314518828"><ele>165.00</ele><time>2014-06-11T09:51:44Z</time></trkpt><trkpt lat="51.7489318270" lon="-2.0314560737"><ele>160.68</ele><time>2014-06-11T09:51:58Z</time></trkpt><trkpt lat="51.7489444837" lon="-2.0314475242"><ele>164.04</ele><time>2014-06-11T09:52:00Z</time></trkpt><trkpt lat="51.7489542905" lon="-2.0314368792"><ele>164.04</ele><time>2014-06-11T09:52:01Z</time></trkpt><trkpt lat="51.7490008101" lon="-2.0313505456"><ele>161.16</ele><time>2014-06-11T09:52:15Z</time></trkpt><trkpt lat="51.7491216771" lon="-2.0311575104"><ele>163.08</ele><time>2014-06-11T09:52:36Z</time></trkpt><trkpt lat="51.7491730582" lon="-2.0310898684"><ele>162.12</ele><time>2014-06-11T09:52:47Z</time></trkpt><trkpt lat="51.7491806857" lon="-2.0310786366"><ele>165.00</ele><time>2014-06-11T09:52:48Z</time></trkpt><trkpt lat="51.7491865531" lon="-2.0310665667"><ele>161.16</ele><time>2014-06-11T09:52:49Z</time></trkpt><trkpt lat="51.7492839508" lon="-2.0309151057"><ele>161.16</ele><time>2014-06-11T09:53:09Z</time></trkpt><trkpt lat="51.7492862977" lon="-2.0309025329"><ele>165.00</ele><time>2014-06-11T09:53:12Z</time></trkpt><trkpt lat="51.7492903210" lon="-2.0308987610"><ele>161.16</ele><time>2014-06-11T09:53:13Z</time></trkpt><trkpt lat="51.7493624054" lon="-2.0307966694"><ele>161.16</ele><time>2014-06-11T09:53:33Z</time></trkpt><trkpt lat="51.7493886407" lon="-2.0307441149"><ele>158.27</ele><time>2014-06-11T09:53:38Z</time></trkpt><trkpt lat="51.7493963521" lon="-2.0307414327"><ele>163.56</ele><time>2014-06-11T09:53:39Z</time></trkpt><trkpt lat="51.7494029738" lon="-2.0307364035"><ele>160.20</ele><time>2014-06-11T09:53:40Z</time></trkpt><trkpt lat="51.7494800873" lon="-2.0306120999"><ele>158.75</ele><time>2014-06-11T09:54:01Z</time></trkpt><trkpt lat="51.7495790776" lon="-2.0304707810"><ele>159.24</ele><time>2014-06-11T09:54:24Z</time></trkpt><trkpt lat="51.7496110126" lon="-2.0304376725"><ele>156.35</ele><time>2014-06-11T09:54:31Z</time></trkpt><trkpt lat="51.7496183887" lon="-2.0304305479"><ele>159.72</ele><time>2014-06-11T09:54:32Z</time></trkpt><trkpt lat="51.7496250104" lon="-2.0303303003"><ele>161.16</ele><time>2014-06-11T09:54:48Z</time></trkpt><trkpt lat="51.7496288661" lon="-2.0303204935"><ele>157.31</ele><time>2014-06-11T09:54:49Z</time></trkpt><trkpt lat="51.7496807501" lon="-2.0302519295"><ele>161.64</ele><time>2014-06-11T09:54:59Z</time></trkpt><trkpt lat="51.7496947479" lon="-2.0302362554"><ele>158.27</ele><time>2014-06-11T09:55:03Z</time></trkpt><trkpt lat="51.7498244159" lon="-2.0301410370"><ele>158.75</ele><time>2014-06-11T09:55:25Z</time></trkpt><trkpt lat="51.7498706002" lon="-2.0301060844"><ele>159.72</ele><time>2014-06-11T09:55:33Z</time></trkpt><trkpt lat="51.7499661539" lon="-2.0299199224"><ele>158.27</ele><time>2014-06-11T09:55:52Z</time></trkpt><trkpt lat="51.7500074767" lon="-2.0298654400"><ele>153.95</ele><time>2014-06-11T09:56:01Z</time></trkpt><trkpt lat="51.7500160262" lon="-2.0298386179"><ele>157.79</ele><time>2014-06-11T09:56:03Z</time></trkpt><trkpt lat="51.7500305269" lon="-2.0298143104"><ele>152.99</ele><time>2014-06-11T09:56:07Z</time></trkpt><trkpt lat="51.7500346340" lon="-2.0298091136"><ele>160.20</ele><time>2014-06-11T09:56:08Z</time></trkpt><trkpt lat="51.7500485480" lon="-2.0297892485"><ele>156.83</ele><time>2014-06-11T09:56:11Z</time></trkpt><trkpt lat="51.7501731031" lon="-2.0296011586"><ele>156.35</ele><time>2014-06-11T09:56:35Z</time></trkpt><trkpt lat="51.7502609454" lon="-2.0294864941"><ele>155.39</ele><time>2014-06-11T09:56:56Z</time></trkpt><trkpt lat="51.7503706645" lon="-2.0293482766"><ele>154.43</ele><time>2014-06-11T09:57:16Z</time></trkpt><trkpt lat="51.7505015898" lon="-2.0291931275"><ele>153.95</ele><time>2014-06-11T09:57:38Z</time></trkpt><trkpt lat="51.7506110575" lon="-2.0290192030"><ele>152.99</ele><time>2014-06-11T09:58:02Z</time></trkpt><trkpt lat="51.7507069465" lon="-2.0288643055"><ele>151.06</ele><time>2014-06-11T09:58:23Z</time></trkpt><trkpt lat="51.7508272268" lon="-2.0287610404"><ele>151.54</ele><time>2014-06-11T09:58:44Z</time></trkpt><trkpt lat="51.7509065196" lon="-2.0286911353"><ele>151.06</ele><time>2014-06-11T09:59:02Z</time></trkpt><trkpt lat="51.7509069387" lon="-2.0286895428"><ele>147.70</ele><time>2014-06-11T09:59:04Z</time></trkpt><trkpt lat="51.7509070225" lon="-2.0286891237"><ele>151.54</ele><time>2014-06-11T09:59:05Z</time></trkpt><trkpt lat="51.7509637680" lon="-2.0286445320"><ele>146.74</ele><time>2014-06-11T09:59:15Z</time></trkpt><trkpt lat="51.7509685457" lon="-2.0286459569"><ele>150.58</ele><time>2014-06-11T09:59:16Z</time></trkpt><trkpt lat="51.7509926017" lon="-2.0287087373"><ele>150.58</ele><time>2014-06-11T09:59:35Z</time></trkpt><trkpt lat="51.7509915121" lon="-2.0287139341"><ele>150.58</ele><time>2014-06-11T09:59:45Z</time></trkpt><trkpt lat="51.7509914283" lon="-2.0287151076"><ele>147.70</ele><time>2014-06-11T09:59:51Z</time></trkpt><trkpt lat="51.7509929370" lon="-2.0287146885"><ele>152.99</ele><time>2014-06-11T09:59:52Z</time></trkpt><trkpt lat="51.7509933561" lon="-2.0287147723"><ele>148.18</ele><time>2014-06-11T09:59:53Z</time></trkpt><trkpt lat="51.7510113772" lon="-2.0287115872"><ele>153.95</ele><time>2014-06-11T09:59:55Z</time></trkpt><trkpt lat="51.7510179989" lon="-2.0287089050"><ele>147.70</ele><time>2014-06-11T09:59:56Z</time></trkpt><trkpt lat="51.7510229442" lon="-2.0287127607"><ele>151.06</ele><time>2014-06-11T09:59:57Z</time></trkpt><trkpt lat="51.7510362715" lon="-2.0287253335"><ele>146.74</ele><time>2014-06-11T09:59:59Z</time></trkpt><trkpt lat="51.7510432284" lon="-2.0287345536"><ele>151.54</ele><time>2014-06-11T10:00:00Z</time></trkpt><trkpt lat="51.7510853894" lon="-2.0287472103"><ele>148.66</ele><time>2014-06-11T10:00:15Z</time></trkpt><trkpt lat="51.7510988843" lon="-2.0287517365"><ele>153.47</ele><time>2014-06-11T10:00:17Z</time></trkpt><trkpt lat="51.7511044163" lon="-2.0287565980"><ele>149.62</ele><time>2014-06-11T10:00:18Z</time></trkpt><trkpt lat="51.7511656042" lon="-2.0287632197"><ele>153.47</ele><time>2014-06-11T10:00:26Z</time></trkpt><trkpt lat="51.7511718906" lon="-2.0287669078"><ele>150.58</ele><time>2014-06-11T10:00:27Z</time></trkpt><trkpt lat="51.7512994632" lon="-2.0288182050"><ele>152.51</ele><time>2014-06-11T10:00:47Z</time></trkpt><trkpt lat="51.7513372656" lon="-2.0288302749"><ele>149.14</ele><time>2014-06-11T10:00:54Z</time></trkpt><trkpt lat="51.7513426300" lon="-2.0288265031"><ele>152.51</ele><time>2014-06-11T10:00:55Z</time></trkpt><trkpt lat="51.7513401993" lon="-2.0287844259"><ele>148.66</ele><time>2014-06-11T10:01:09Z</time></trkpt><trkpt lat="51.7513395287" lon="-2.0287840068"><ele>152.99</ele><time>2014-06-11T10:01:11Z</time></trkpt><trkpt lat="51.7512163986" lon="-2.0287267584"><ele>149.62</ele><time>2014-06-11T10:01:23Z</time></trkpt><trkpt lat="51.7511444818" lon="-2.0287093241"><ele>149.14</ele><time>2014-06-11T10:01:29Z</time></trkpt><trkpt lat="51.7509559728" lon="-2.0286399219"><ele>150.10</ele><time>2014-06-11T10:01:47Z</time></trkpt><trkpt lat="51.7509469204" lon="-2.0286426879"><ele>150.10</ele><time>2014-06-11T10:01:51Z</time></trkpt><trkpt lat="51.7509474233" lon="-2.0286433585"><ele>146.74</ele><time>2014-06-11T10:01:54Z</time></trkpt><trkpt lat="51.7509474233" lon="-2.0286441967"><ele>150.58</ele><time>2014-06-11T10:01:55Z</time></trkpt><trkpt lat="51.7509541288" lon="-2.0286561828"><ele>151.06</ele><time>2014-06-11T10:02:18Z</time></trkpt><trkpt lat="51.7509459984" lon="-2.0286519919"><ele>151.06</ele><time>2014-06-11T10:02:36Z</time></trkpt><trkpt lat="51.7509438191" lon="-2.0286394190"><ele>150.58</ele><time>2014-06-11T10:02:50Z</time></trkpt><trkpt lat="51.7509428971" lon="-2.0286370721"><ele>152.03</ele><time>2014-06-11T10:02:55Z</time></trkpt><trkpt lat="51.7508818768" lon="-2.0284297038"><ele>152.03</ele><time>2014-06-11T10:03:16Z</time></trkpt><trkpt lat="51.7508633528" lon="-2.0284063183"><ele>146.26</ele><time>2014-06-11T10:03:19Z</time></trkpt><trkpt lat="51.7508593295" lon="-2.0283961762"><ele>151.54</ele><time>2014-06-11T10:03:20Z</time></trkpt><trkpt lat="51.7508444935" lon="-2.0283397660"><ele>148.18</ele><time>2014-06-11T10:03:24Z</time></trkpt><trkpt lat="51.7508403026" lon="-2.0283237565"><ele>152.03</ele><time>2014-06-11T10:03:25Z</time></trkpt><trkpt lat="51.7508358601" lon="-2.0283122733"><ele>147.70</ele><time>2014-06-11T10:03:26Z</time></trkpt><trkpt lat="51.7508309986" lon="-2.0283012930"><ele>152.51</ele><time>2014-06-11T10:03:27Z</time></trkpt><trkpt lat="51.7508180067" lon="-2.0282328967"><ele>147.70</ele><time>2014-06-11T10:03:32Z</time></trkpt><trkpt lat="51.7508153245" lon="-2.0282198209"><ele>152.99</ele><time>2014-06-11T10:03:33Z</time></trkpt><trkpt lat="51.7507959623" lon="-2.0281699486"><ele>148.66</ele><time>2014-06-11T10:03:37Z</time></trkpt><trkpt lat="51.7507905141" lon="-2.0281598065"><ele>153.95</ele><time>2014-06-11T10:03:38Z</time></trkpt><trkpt lat="51.7507816292" lon="-2.0281358343"><ele>150.58</ele><time>2014-06-11T10:03:40Z</time></trkpt><trkpt lat="51.7507776897" lon="-2.0281203277"><ele>151.54</ele><time>2014-06-11T10:03:41Z</time></trkpt><trkpt lat="51.7507731635" lon="-2.0280834474"><ele>154.43</ele><time>2014-06-11T10:03:43Z</time></trkpt><trkpt lat="51.7507616803" lon="-2.0279754885"><ele>153.95</ele><time>2014-06-11T10:03:50Z</time></trkpt><trkpt lat="51.7507496104" lon="-2.0279421285"><ele>158.27</ele><time>2014-06-11T10:03:53Z</time></trkpt><trkpt lat="51.7507472634" lon="-2.0279328246"><ele>155.87</ele><time>2014-06-11T10:03:54Z</time></trkpt><trkpt lat="51.7507411446" lon="-2.0279112831"><ele>154.43</ele><time>2014-06-11T10:03:56Z</time></trkpt><trkpt lat="51.7507241294" lon="-2.0278509334"><ele>159.72</ele><time>2014-06-11T10:04:02Z</time></trkpt><trkpt lat="51.7507194355" lon="-2.0278376900"><ele>153.95</ele><time>2014-06-11T10:04:03Z</time></trkpt><trkpt lat="51.7507045157" lon="-2.0277974568"><ele>155.39</ele><time>2014-06-11T10:04:06Z</time></trkpt><trkpt lat="51.7506962176" lon="-2.0277717244"><ele>156.35</ele><time>2014-06-11T10:04:08Z</time></trkpt><trkpt lat="51.7506883387" lon="-2.0277290605"><ele>157.79</ele><time>2014-06-11T10:04:11Z</time></trkpt><trkpt lat="51.7506845668" lon="-2.0277169906"><ele>154.91</ele><time>2014-06-11T10:04:12Z</time></trkpt><trkpt lat="51.7506765202" lon="-2.0276884921"><ele>155.87</ele><time>2014-06-11T10:04:31Z</time></trkpt><trkpt lat="51.7506862432" lon="-2.0276818704"><ele>156.83</ele><time>2014-06-11T10:04:54Z</time></trkpt><trkpt lat="51.7506843992" lon="-2.0276756678"><ele>156.35</ele><time>2014-06-11T10:05:12Z</time></trkpt><trkpt lat="51.7506975587" lon="-2.0277112909"><ele>155.39</ele><time>2014-06-11T10:05:28Z</time></trkpt><trkpt lat="51.7506974749" lon="-2.0277381130"><ele>159.72</ele><time>2014-06-11T10:05:42Z</time></trkpt><trkpt lat="51.7506957985" lon="-2.0277453214"><ele>153.95</ele><time>2014-06-11T10:05:43Z</time></trkpt><trkpt lat="51.7507191841" lon="-2.0278770011"><ele>154.43</ele><time>2014-06-11T10:05:55Z</time></trkpt><trkpt lat="51.7507802881" lon="-2.0280392747"><ele>151.06</ele><time>2014-06-11T10:06:13Z</time></trkpt><trkpt lat="51.7507807072" lon="-2.0280391909"><ele>152.51</ele><time>2014-06-11T10:06:14Z</time></trkpt><trkpt lat="51.7507809587" lon="-2.0280384365"><ele>157.79</ele><time>2014-06-11T10:06:15Z</time></trkpt><trkpt lat="51.7507810425" lon="-2.0280380175"><ele>152.03</ele><time>2014-06-11T10:06:16Z</time></trkpt><trkpt lat="51.7507802043" lon="-2.0280415379"><ele>155.39</ele><time>2014-06-11T10:06:19Z</time></trkpt><trkpt lat="51.7507792823" lon="-2.0280404482"><ele>151.54</ele><time>2014-06-11T10:06:27Z</time></trkpt><trkpt lat="51.7507792823" lon="-2.0280398615"><ele>152.51</ele><time>2014-06-11T10:06:28Z</time></trkpt><trkpt lat="51.7507786117" lon="-2.0280386880"><ele>154.91</ele><time>2014-06-11T10:06:31Z</time></trkpt><trkpt lat="51.7507783603" lon="-2.0280376822"><ele>158.75</ele><time>2014-06-11T10:06:33Z</time></trkpt><trkpt lat="51.7507791985" lon="-2.0280381013"><ele>154.91</ele><time>2014-06-11T10:06:35Z</time></trkpt><trkpt lat="51.7507799529" lon="-2.0280404482"><ele>153.47</ele><time>2014-06-11T10:06:52Z</time></trkpt><trkpt lat="51.7508019973" lon="-2.0280924160"><ele>150.10</ele><time>2014-06-11T10:06:57Z</time></trkpt><trkpt lat="51.7508059368" lon="-2.0281089284"><ele>153.95</ele><time>2014-06-11T10:06:58Z</time></trkpt><trkpt lat="51.7508172523" lon="-2.0281415340"><ele>152.03</ele><time>2014-06-11T10:07:00Z</time></trkpt><trkpt lat="51.7508593295" lon="-2.0282689389"><ele>153.47</ele><time>2014-06-11T10:07:09Z</time></trkpt><trkpt lat="51.7508897558" lon="-2.0283105131"><ele>149.62</ele><time>2014-06-11T10:07:14Z</time></trkpt><trkpt lat="51.7508937791" lon="-2.0283185598"><ele>150.10</ele><time>2014-06-11T10:07:15Z</time></trkpt><trkpt lat="51.7509061843" lon="-2.0283407718"><ele>145.78</ele><time>2014-06-11T10:07:18Z</time></trkpt><trkpt lat="51.7509097047" lon="-2.0283498242"><ele>150.58</ele><time>2014-06-11T10:07:19Z</time></trkpt><trkpt lat="51.7509429809" lon="-2.0283777360"><ele>150.58</ele><time>2014-06-11T10:07:24Z</time></trkpt><trkpt lat="51.7510034144" lon="-2.0284442045"><ele>148.18</ele><time>2014-06-11T10:07:42Z</time></trkpt><trkpt lat="51.7510070186" lon="-2.0284485631"><ele>151.54</ele><time>2014-06-11T10:07:45Z</time></trkpt><trkpt lat="51.7510115448" lon="-2.0284529217"><ele>147.70</ele><time>2014-06-11T10:07:46Z</time></trkpt><trkpt lat="51.7510812823" lon="-2.0284621418"><ele>152.03</ele><time>2014-06-11T10:08:04Z</time></trkpt><trkpt lat="51.7510875687" lon="-2.0284570288"><ele>147.70</ele><time>2014-06-11T10:08:05Z</time></trkpt><trkpt lat="51.7511066794" lon="-2.0284548495"><ele>150.58</ele><time>2014-06-11T10:08:09Z</time></trkpt><trkpt lat="51.7511084396" lon="-2.0284571964"><ele>146.26</ele><time>2014-06-11T10:08:16Z</time></trkpt><trkpt lat="51.7511085235" lon="-2.0284575317"><ele>150.10</ele><time>2014-06-11T10:08:17Z</time></trkpt><trkpt lat="51.7511255387" lon="-2.0284659136"><ele>146.74</ele><time>2014-06-11T10:08:22Z</time></trkpt><trkpt lat="51.7511584796" lon="-2.0283680968"><ele>150.10</ele><time>2014-06-11T10:08:36Z</time></trkpt><trkpt lat="51.7511652689" lon="-2.0283513330"><ele>146.74</ele><time>2014-06-11T10:08:37Z</time></trkpt><trkpt lat="51.7511717230" lon="-2.0283342339"><ele>149.62</ele><time>2014-06-11T10:08:38Z</time></trkpt><trkpt lat="51.7511843797" lon="-2.0282803383"><ele>146.26</ele><time>2014-06-11T10:08:41Z</time></trkpt><trkpt lat="51.7511885706" lon="-2.0282561984"><ele>150.58</ele><time>2014-06-11T10:08:43Z</time></trkpt><trkpt lat="51.7511817813" lon="-2.0281941723"><ele>147.22</ele><time>2014-06-11T10:08:54Z</time></trkpt><trkpt lat="51.7512042448" lon="-2.0281453058"><ele>150.58</ele><time>2014-06-11T10:08:58Z</time></trkpt><trkpt lat="51.7512065917" lon="-2.0281236805"><ele>144.82</ele><time>2014-06-11T10:08:59Z</time></trkpt><trkpt lat="51.7512106150" lon="-2.0281060785"><ele>149.14</ele><time>2014-06-11T10:09:00Z</time></trkpt><trkpt lat="51.7512127943" lon="-2.0280819386"><ele>144.82</ele><time>2014-06-11T10:09:02Z</time></trkpt><trkpt lat="51.7512145545" lon="-2.0280700363"><ele>149.62</ele><time>2014-06-11T10:09:03Z</time></trkpt><trkpt lat="51.7512025684" lon="-2.0280179009"><ele>145.30</ele><time>2014-06-11T10:09:07Z</time></trkpt><trkpt lat="51.7511947732" lon="-2.0280065853"><ele>149.62</ele><time>2014-06-11T10:09:08Z</time></trkpt><trkpt lat="51.7511757463" lon="-2.0279519353"><ele>147.70</ele><time>2014-06-11T10:09:12Z</time></trkpt><trkpt lat="51.7511685379" lon="-2.0279227663"><ele>149.14</ele><time>2014-06-11T10:09:14Z</time></trkpt><trkpt lat="51.7511648498" lon="-2.0278831199"><ele>147.22</ele><time>2014-06-11T10:09:16Z</time></trkpt><trkpt lat="51.7511599883" lon="-2.0278495084"><ele>150.58</ele><time>2014-06-11T10:09:18Z</time></trkpt><trkpt lat="51.7511634249" lon="-2.0278163999"><ele>147.70</ele><time>2014-06-11T10:09:20Z</time></trkpt><trkpt lat="51.7511909176" lon="-2.0277400408"><ele>151.06</ele><time>2014-06-11T10:09:25Z</time></trkpt><trkpt lat="51.7512013949" lon="-2.0277008135"><ele>146.74</ele><time>2014-06-11T10:09:28Z</time></trkpt><trkpt lat="51.7511956953" lon="-2.0276730694"><ele>150.58</ele><time>2014-06-11T10:09:30Z</time></trkpt><trkpt lat="51.7511823680" lon="-2.0275970455"><ele>146.74</ele><time>2014-06-11T10:09:35Z</time></trkpt><trkpt lat="51.7511778418" lon="-2.0275553036"><ele>149.62</ele><time>2014-06-11T10:09:38Z</time></trkpt><trkpt lat="51.7511722259" lon="-2.0275179204"><ele>147.22</ele><time>2014-06-11T10:09:41Z</time></trkpt><trkpt lat="51.7511676159" lon="-2.0274936967"><ele>150.58</ele><time>2014-06-11T10:09:43Z</time></trkpt><trkpt lat="51.7511689570" lon="-2.0274803694"><ele>145.78</ele><time>2014-06-11T10:09:44Z</time></trkpt><trkpt lat="51.7511679512" lon="-2.0274674613"><ele>147.70</ele><time>2014-06-11T10:09:45Z</time></trkpt><trkpt lat="51.7511706334" lon="-2.0273253880"><ele>147.70</ele><time>2014-06-11T10:09:54Z</time></trkpt><trkpt lat="51.7511647660" lon="-2.0270922873"><ele>146.74</ele><time>2014-06-11T10:10:10Z</time></trkpt><trkpt lat="51.7511624191" lon="-2.0270174369"><ele>151.06</ele><time>2014-06-11T10:10:14Z</time></trkpt><trkpt lat="51.7511627544" lon="-2.0269999187"><ele>143.85</ele><time>2014-06-11T10:10:15Z</time></trkpt><trkpt lat="51.7511640955" lon="-2.0269853342"><ele>148.18</ele><time>2014-06-11T10:10:16Z</time></trkpt><trkpt lat="51.7511819489" lon="-2.0268297661"><ele>146.26</ele><time>2014-06-11T10:10:27Z</time></trkpt><trkpt lat="51.7511814460" lon="-2.0267861802"><ele>150.10</ele><time>2014-06-11T10:10:30Z</time></trkpt><trkpt lat="51.7511871457" lon="-2.0267710928"><ele>146.26</ele><time>2014-06-11T10:10:31Z</time></trkpt><trkpt lat="51.7511877324" lon="-2.0266048796"><ele>149.62</ele><time>2014-06-11T10:10:43Z</time></trkpt><trkpt lat="51.7511733156" lon="-2.0264724456"><ele>147.22</ele><time>2014-06-11T10:10:58Z</time></trkpt><trkpt lat="51.7511601560" lon="-2.0264080726"><ele>146.74</ele><time>2014-06-11T10:11:07Z</time></trkpt><trkpt lat="51.7511560488" lon="-2.0263426937"><ele>145.78</ele><time>2014-06-11T10:11:11Z</time></trkpt><trkpt lat="51.7511558812" lon="-2.0263143629"><ele>149.14</ele><time>2014-06-11T10:11:13Z</time></trkpt><trkpt lat="51.7511869781" lon="-2.0261849463"><ele>144.82</ele><time>2014-06-11T10:11:21Z</time></trkpt><trkpt lat="51.7511996347" lon="-2.0261343196"><ele>150.10</ele><time>2014-06-11T10:11:24Z</time></trkpt><trkpt lat="51.7512043286" lon="-2.0261178911"><ele>146.26</ele><time>2014-06-11T10:11:25Z</time></trkpt><trkpt lat="51.7512292229" lon="-2.0260380115"><ele>142.89</ele><time>2014-06-11T10:11:30Z</time></trkpt><trkpt lat="51.7512322403" lon="-2.0260230917"><ele>146.74</ele><time>2014-06-11T10:11:31Z</time></trkpt><trkpt lat="51.7512384430" lon="-2.0259300526"><ele>141.45</ele><time>2014-06-11T10:11:36Z</time></trkpt><trkpt lat="51.7512389459" lon="-2.0259121992"><ele>146.74</ele><time>2014-06-11T10:11:37Z</time></trkpt><trkpt lat="51.7512420472" lon="-2.0258842036"><ele>147.70</ele><time>2014-06-11T10:11:39Z</time></trkpt><trkpt lat="51.7512438912" lon="-2.0258709602"><ele>143.85</ele><time>2014-06-11T10:11:40Z</time></trkpt><trkpt lat="51.7512490880" lon="-2.0258577168"><ele>146.74</ele><time>2014-06-11T10:11:41Z</time></trkpt><trkpt lat="51.7512659356" lon="-2.0258307271"><ele>147.70</ele><time>2014-06-11T10:11:43Z</time></trkpt><trkpt lat="51.7512739822" lon="-2.0258188248"><ele>142.41</ele><time>2014-06-11T10:11:44Z</time></trkpt><trkpt lat="51.7512773350" lon="-2.0258033182"><ele>147.22</ele><time>2014-06-11T10:11:45Z</time></trkpt><trkpt lat="51.7512795981" lon="-2.0257872250"><ele>143.37</ele><time>2014-06-11T10:11:46Z</time></trkpt><trkpt lat="51.7512868065" lon="-2.0257659350"><ele>146.74</ele><time>2014-06-11T10:11:47Z</time></trkpt><trkpt lat="51.7513056658" lon="-2.0257132128"><ele>143.37</ele><time>2014-06-11T10:11:50Z</time></trkpt><trkpt lat="51.7513047438" lon="-2.0257013943"><ele>145.30</ele><time>2014-06-11T10:11:51Z</time></trkpt><trkpt lat="51.7512999661" lon="-2.0256949402"><ele>150.10</ele><time>2014-06-11T10:11:52Z</time></trkpt><trkpt lat="51.7512986250" lon="-2.0256886538"><ele>148.66</ele><time>2014-06-11T10:11:53Z</time></trkpt><trkpt lat="51.7512972001" lon="-2.0256819483"><ele>145.30</ele><time>2014-06-11T10:11:54Z</time></trkpt><trkpt lat="51.7512946855" lon="-2.0256706327"><ele>150.58</ele><time>2014-06-11T10:11:55Z</time></trkpt><trkpt lat="51.7512931768" lon="-2.0256610774"><ele>146.74</ele><time>2014-06-11T10:11:56Z</time></trkpt><trkpt lat="51.7512930930" lon="-2.0256242808"><ele>145.30</ele><time>2014-06-11T10:11:59Z</time></trkpt><trkpt lat="51.7513058335" lon="-2.0255793538"><ele>148.66</ele><time>2014-06-11T10:12:02Z</time></trkpt><trkpt lat="51.7513148021" lon="-2.0255491789"><ele>145.30</ele><time>2014-06-11T10:12:04Z</time></trkpt><trkpt lat="51.7513225973" lon="-2.0255348459"><ele>146.26</ele><time>2014-06-11T10:12:05Z</time></trkpt><trkpt lat="51.7513458151" lon="-2.0254563913"><ele>145.78</ele><time>2014-06-11T10:12:10Z</time></trkpt><trkpt lat="51.7513580527" lon="-2.0253939461"><ele>147.70</ele><time>2014-06-11T10:12:14Z</time></trkpt><trkpt lat="51.7513591424" lon="-2.0253766794"><ele>141.93</ele><time>2014-06-11T10:12:15Z</time></trkpt><trkpt lat="51.7513592262" lon="-2.0253588259"><ele>145.78</ele><time>2014-06-11T10:12:16Z</time></trkpt><trkpt lat="51.7513811868" lon="-2.0252870768"><ele>145.30</ele><time>2014-06-11T10:12:21Z</time></trkpt><trkpt lat="51.7514083441" lon="-2.0251955464"><ele>145.30</ele><time>2014-06-11T10:12:27Z</time></trkpt><trkpt lat="51.7514231801" lon="-2.0251126494"><ele>145.30</ele><time>2014-06-11T10:12:32Z</time></trkpt><trkpt lat="51.7514348309" lon="-2.0250645373"><ele>151.06</ele><time>2014-06-11T10:12:35Z</time></trkpt><trkpt lat="51.7514275387" lon="-2.0250584185"><ele>144.34</ele><time>2014-06-11T10:12:36Z</time></trkpt><trkpt lat="51.7514215037" lon="-2.0250475220"><ele>148.18</ele><time>2014-06-11T10:12:37Z</time></trkpt><trkpt lat="51.7514177319" lon="-2.0250340272"><ele>143.37</ele><time>2014-06-11T10:12:38Z</time></trkpt><trkpt lat="51.7514123674" lon="-2.0249931235"><ele>148.66</ele><time>2014-06-11T10:12:41Z</time></trkpt><trkpt lat="51.7514150497" lon="-2.0249802154"><ele>143.37</ele><time>2014-06-11T10:12:42Z</time></trkpt><trkpt lat="51.7514179833" lon="-2.0249651279"><ele>147.70</ele><time>2014-06-11T10:12:43Z</time></trkpt><trkpt lat="51.7514461465" lon="-2.0248791296"><ele>144.34</ele><time>2014-06-11T10:12:49Z</time></trkpt><trkpt lat="51.7514600605" lon="-2.0248346217"><ele>147.70</ele><time>2014-06-11T10:12:52Z</time></trkpt><trkpt lat="51.7514652573" lon="-2.0248223003"><ele>142.89</ele><time>2014-06-11T10:12:53Z</time></trkpt><trkpt lat="51.7514691968" lon="-2.0248066261"><ele>145.30</ele><time>2014-06-11T10:12:54Z</time></trkpt><trkpt lat="51.7515083402" lon="-2.0246125851"><ele>144.34</ele><time>2014-06-11T10:13:05Z</time></trkpt><trkpt lat="51.7515299655" lon="-2.0245241560"><ele>144.34</ele><time>2014-06-11T10:13:11Z</time></trkpt><trkpt lat="51.7515765689" lon="-2.0243866928"><ele>144.34</ele><time>2014-06-11T10:13:22Z</time></trkpt><trkpt lat="51.7515803408" lon="-2.0243316237"><ele>141.45</ele><time>2014-06-11T10:13:26Z</time></trkpt><trkpt lat="51.7515833583" lon="-2.0243120100"><ele>144.82</ele><time>2014-06-11T10:13:27Z</time></trkpt><trkpt lat="51.7515879683" lon="-2.0242259279"><ele>144.82</ele><time>2014-06-11T10:13:32Z</time></trkpt><trkpt lat="51.7516180594" lon="-2.0241227467"><ele>147.70</ele><time>2014-06-11T10:13:40Z</time></trkpt><trkpt lat="51.7516273633" lon="-2.0241097547"><ele>144.34</ele><time>2014-06-11T10:13:41Z</time></trkpt><trkpt lat="51.7516474798" lon="-2.0240541827"><ele>144.34</ele><time>2014-06-11T10:13:47Z</time></trkpt><trkpt lat="51.7516546883" lon="-2.0240328927"><ele>145.30</ele><time>2014-06-11T10:13:49Z</time></trkpt><trkpt lat="51.7517000344" lon="-2.0238362532"><ele>144.82</ele><time>2014-06-11T10:14:03Z</time></trkpt><trkpt lat="51.7517058179" lon="-2.0238137059"><ele>145.78</ele><time>2014-06-11T10:14:05Z</time></trkpt><trkpt lat="51.7517289519" lon="-2.0237276237"><ele>142.41</ele><time>2014-06-11T10:14:13Z</time></trkpt><trkpt lat="51.7517318018" lon="-2.0237161405"><ele>143.37</ele><time>2014-06-11T10:14:14Z</time></trkpt><trkpt lat="51.7517349869" lon="-2.0236778352"><ele>146.26</ele><time>2014-06-11T10:14:17Z</time></trkpt><trkpt lat="51.7517359927" lon="-2.0236664359"><ele>142.89</ele><time>2014-06-11T10:14:18Z</time></trkpt><trkpt lat="51.7517338973" lon="-2.0236407872"><ele>146.74</ele><time>2014-06-11T10:14:20Z</time></trkpt><trkpt lat="51.7517350707" lon="-2.0236291364"><ele>143.37</ele><time>2014-06-11T10:14:21Z</time></trkpt><trkpt lat="51.7517370824" lon="-2.0236184075"><ele>144.34</ele><time>2014-06-11T10:14:22Z</time></trkpt><trkpt lat="51.7517481465" lon="-2.0235828683"><ele>146.74</ele><time>2014-06-11T10:14:25Z</time></trkpt><trkpt lat="51.7517494038" lon="-2.0235718880"><ele>142.89</ele><time>2014-06-11T10:14:26Z</time></trkpt><trkpt lat="51.7517504934" lon="-2.0235593151"><ele>144.82</ele><time>2014-06-11T10:14:27Z</time></trkpt><trkpt lat="51.7517913133" lon="-2.0234221872"><ele>154.91</ele><time>2014-06-11T10:14:41Z</time></trkpt><trkpt lat="51.7517930735" lon="-2.0234073512"><ele>145.30</ele><time>2014-06-11T10:14:42Z</time></trkpt><trkpt lat="51.7518556025" lon="-2.0232877415"><ele>145.78</ele><time>2014-06-11T10:14:53Z</time></trkpt><trkpt lat="51.7518587038" lon="-2.0232758392"><ele>142.41</ele><time>2014-06-11T10:14:54Z</time></trkpt><trkpt lat="51.7518633977" lon="-2.0232667029"><ele>145.78</ele><time>2014-06-11T10:14:55Z</time></trkpt><trkpt lat="51.7518797424" lon="-2.0232203510"><ele>143.85</ele><time>2014-06-11T10:14:59Z</time></trkpt><trkpt lat="51.7518849391" lon="-2.0232066046"><ele>147.22</ele><time>2014-06-11T10:15:00Z</time></trkpt><trkpt lat="51.7518908903" lon="-2.0231946185"><ele>143.85</ele><time>2014-06-11T10:15:01Z</time></trkpt><trkpt lat="51.7519728653" lon="-2.0229290798"><ele>144.34</ele><time>2014-06-11T10:15:23Z</time></trkpt><trkpt lat="51.7520073149" lon="-2.0228725858"><ele>145.78</ele><time>2014-06-11T10:15:29Z</time></trkpt><trkpt lat="51.7520166188" lon="-2.0228510443"><ele>141.45</ele><time>2014-06-11T10:15:31Z</time></trkpt><trkpt lat="51.7520219833" lon="-2.0228384715"><ele>145.78</ele><time>2014-06-11T10:15:32Z</time></trkpt><trkpt lat="51.7520343047" lon="-2.0228186063"><ele>149.14</ele><time>2014-06-11T10:15:34Z</time></trkpt><trkpt lat="51.7520396691" lon="-2.0228104759"><ele>144.82</ele><time>2014-06-11T10:15:35Z</time></trkpt><trkpt lat="51.7520476319" lon="-2.0227749366"><ele>150.10</ele><time>2014-06-11T10:15:38Z</time></trkpt><trkpt lat="51.7520503141" lon="-2.0227622800"><ele>144.34</ele><time>2014-06-11T10:15:39Z</time></trkpt><trkpt lat="51.7520617973" lon="-2.0227437560"><ele>147.22</ele><time>2014-06-11T10:15:41Z</time></trkpt><trkpt lat="51.7520684190" lon="-2.0227335300"><ele>147.22</ele><time>2014-06-11T10:15:42Z</time></trkpt><trkpt lat="51.7520724423" lon="-2.0227259863"><ele>150.58</ele><time>2014-06-11T10:15:43Z</time></trkpt><trkpt lat="51.7520750407" lon="-2.0227181073"><ele>143.85</ele><time>2014-06-11T10:15:44Z</time></trkpt><trkpt lat="51.7520793993" lon="-2.0227089711"><ele>147.70</ele><time>2014-06-11T10:15:45Z</time></trkpt><trkpt lat="51.7520771362" lon="-2.0226611104"><ele>147.70</ele><time>2014-06-11T10:16:01Z</time></trkpt><trkpt lat="51.7520788964" lon="-2.0226581767"><ele>142.89</ele><time>2014-06-11T10:16:24Z</time></trkpt><trkpt lat="51.7520788126" lon="-2.0226580091"><ele>146.74</ele><time>2014-06-11T10:16:25Z</time></trkpt><trkpt lat="51.7520787288" lon="-2.0226668101"><ele>143.37</ele><time>2014-06-11T10:16:37Z</time></trkpt><trkpt lat="51.7520788126" lon="-2.0226668939"><ele>149.14</ele><time>2014-06-11T10:16:38Z</time></trkpt><trkpt lat="51.7520788964" lon="-2.0226669777"><ele>142.41</ele><time>2014-06-11T10:16:39Z</time></trkpt><trkpt lat="51.7520787288" lon="-2.0226673968"><ele>147.70</ele><time>2014-06-11T10:16:40Z</time></trkpt><trkpt lat="51.7520754598" lon="-2.0226673968"><ele>139.05</ele><time>2014-06-11T10:16:59Z</time></trkpt><trkpt lat="51.7520753760" lon="-2.0226670615"><ele>147.70</ele><time>2014-06-11T10:17:00Z</time></trkpt><trkpt lat="51.7520752084" lon="-2.0226664748"><ele>144.82</ele><time>2014-06-11T10:17:01Z</time></trkpt><trkpt lat="51.7520751245" lon="-2.0226660557"><ele>147.70</ele><time>2014-06-11T10:17:02Z</time></trkpt><trkpt lat="51.7521314509" lon="-2.0225007646"><ele>144.82</ele><time>2014-06-11T10:17:14Z</time></trkpt><trkpt lat="51.7521363962" lon="-2.0224922150"><ele>144.34</ele><time>2014-06-11T10:17:15Z</time></trkpt><trkpt lat="51.7521358933" lon="-2.0224839170"><ele>142.41</ele><time>2014-06-11T10:17:36Z</time></trkpt><trkpt lat="51.7521384079" lon="-2.0224811509"><ele>148.18</ele><time>2014-06-11T10:17:37Z</time></trkpt><trkpt lat="51.7521385755" lon="-2.0224813186"><ele>144.34</ele><time>2014-06-11T10:17:39Z</time></trkpt><trkpt lat="51.7521386594" lon="-2.0224814024"><ele>145.30</ele><time>2014-06-11T10:17:40Z</time></trkpt><trkpt lat="51.7521454487" lon="-2.0224837493"><ele>141.45</ele><time>2014-06-11T10:18:00Z</time></trkpt><trkpt lat="51.7521458678" lon="-2.0224840008"><ele>151.54</ele><time>2014-06-11T10:18:01Z</time></trkpt><trkpt lat="51.7521460354" lon="-2.0224840846"><ele>146.74</ele><time>2014-06-11T10:18:02Z</time></trkpt><trkpt lat="51.7521462031" lon="-2.0224840008"><ele>145.78</ele><time>2014-06-11T10:18:04Z</time></trkpt><trkpt lat="51.7521461193" lon="-2.0224897005"><ele>145.78</ele><time>2014-06-11T10:18:31Z</time></trkpt><trkpt lat="51.7521462869" lon="-2.0224906225"><ele>145.30</ele><time>2014-06-11T10:18:57Z</time></trkpt><trkpt lat="51.7521461193" lon="-2.0224905387"><ele>149.62</ele><time>2014-06-11T10:18:58Z</time></trkpt><trkpt lat="51.7521458678" lon="-2.0224907063"><ele>146.26</ele><time>2014-06-11T10:18:59Z</time></trkpt><trkpt lat="51.7521472089" lon="-2.0224640518"><ele>145.78</ele><time>2014-06-11T10:19:28Z</time></trkpt><trkpt lat="51.7521358933" lon="-2.0225112420"><ele>145.78</ele><time>2014-06-11T10:19:48Z</time></trkpt><trkpt lat="51.7521256674" lon="-2.0225114934"><ele>145.30</ele><time>2014-06-11T10:20:11Z</time></trkpt><trkpt lat="51.7521294393" lon="-2.0225171931"><ele>140.01</ele><time>2014-06-11T10:20:19Z</time></trkpt><trkpt lat="51.7521374859" lon="-2.0225171093"><ele>147.22</ele><time>2014-06-11T10:20:20Z</time></trkpt><trkpt lat="51.7521530762" lon="-2.0225156844"><ele>142.41</ele><time>2014-06-11T10:20:22Z</time></trkpt><trkpt lat="51.7521597818" lon="-2.0225121640"><ele>149.62</ele><time>2014-06-11T10:20:23Z</time></trkpt><trkpt lat="51.7521669064" lon="-2.0225093141"><ele>142.41</ele><time>2014-06-11T10:20:24Z</time></trkpt><trkpt lat="51.7521705944" lon="-2.0225017704"><ele>148.18</ele><time>2014-06-11T10:20:25Z</time></trkpt><trkpt lat="51.7521676607" lon="-2.0224909578"><ele>146.74</ele><time>2014-06-11T10:20:52Z</time></trkpt><trkpt lat="51.7521648947" lon="-2.0224928856"><ele>145.78</ele><time>2014-06-11T10:21:21Z</time></trkpt><trkpt lat="51.7521643918" lon="-2.0224923827"><ele>146.26</ele><time>2014-06-11T10:21:47Z</time></trkpt><trkpt lat="51.7521619610" lon="-2.0224932209"><ele>145.78</ele><time>2014-06-11T10:22:13Z</time></trkpt><trkpt lat="51.7521625478" lon="-2.0224866830"><ele>146.26</ele><time>2014-06-11T10:22:44Z</time></trkpt><trkpt lat="51.7521519028" lon="-2.0224865153"><ele>145.78</ele><time>2014-06-11T10:23:10Z</time></trkpt><trkpt lat="51.7521219794" lon="-2.0225162711"><ele>145.78</ele><time>2014-06-11T10:23:21Z</time></trkpt><trkpt lat="51.7521199677" lon="-2.0224795584"><ele>137.13</ele><time>2014-06-11T10:23:26Z</time></trkpt><trkpt lat="51.7521204706" lon="-2.0224670693"><ele>144.82</ele><time>2014-06-11T10:23:28Z</time></trkpt><trkpt lat="51.7521183752" lon="-2.0224628784"><ele>158.27</ele><time>2014-06-11T10:23:29Z</time></trkpt><trkpt lat="51.7521163635" lon="-2.0224575978"><ele>150.10</ele><time>2014-06-11T10:23:30Z</time></trkpt><trkpt lat="51.7521145195" lon="-2.0224525686"><ele>140.97</ele><time>2014-06-11T10:23:31Z</time></trkpt><trkpt lat="51.7521156091" lon="-2.0224521495"><ele>145.30</ele><time>2014-06-11T10:23:32Z</time></trkpt><trkpt lat="51.7521161120" lon="-2.0224520657"><ele>151.06</ele><time>2014-06-11T10:23:36Z</time></trkpt><trkpt lat="51.7521162797" lon="-2.0224518981"><ele>146.26</ele><time>2014-06-11T10:23:37Z</time></trkpt><trkpt lat="51.7521232367" lon="-2.0224702545"><ele>146.74</ele><time>2014-06-11T10:23:57Z</time></trkpt><trkpt lat="51.7521263380" lon="-2.0224722661"><ele>143.37</ele><time>2014-06-11T10:23:59Z</time></trkpt><trkpt lat="51.7521357257" lon="-2.0224702545"><ele>146.74</ele><time>2014-06-11T10:24:03Z</time></trkpt><trkpt lat="51.7521380726" lon="-2.0224737749"><ele>143.37</ele><time>2014-06-11T10:24:06Z</time></trkpt><trkpt lat="51.7521382403" lon="-2.0224744454"><ele>147.70</ele><time>2014-06-11T10:24:07Z</time></trkpt><trkpt lat="51.7521374859" lon="-2.0224767923"><ele>141.93</ele><time>2014-06-11T10:24:20Z</time></trkpt><trkpt lat="51.7521357257" lon="-2.0224825758"><ele>153.47</ele><time>2014-06-11T10:24:21Z</time></trkpt><trkpt lat="51.7521287687" lon="-2.0224923827"><ele>144.82</ele><time>2014-06-11T10:24:22Z</time></trkpt><trkpt lat="51.7521236558" lon="-2.0224981662"><ele>148.18</ele><time>2014-06-11T10:24:23Z</time></trkpt><trkpt lat="51.7521259189" lon="-2.0225099847"><ele>145.30</ele><time>2014-06-11T10:24:26Z</time></trkpt><trkpt lat="51.7521495558" lon="-2.0225306880"><ele>145.78</ele><time>2014-06-11T10:24:34Z</time></trkpt><trkpt lat="51.7521512322" lon="-2.0225291792"><ele>146.26</ele><time>2014-06-11T10:24:44Z</time></trkpt><trkpt lat="51.7521406710" lon="-2.0225167740"><ele>146.26</ele><time>2014-06-11T10:25:06Z</time></trkpt><trkpt lat="51.7521190457" lon="-2.0225248206"><ele>146.26</ele><time>2014-06-11T10:25:27Z</time></trkpt><trkpt lat="51.7521207221" lon="-2.0225254912"><ele>145.78</ele><time>2014-06-11T10:25:29Z</time></trkpt><trkpt lat="51.7521242425" lon="-2.0225266647"><ele>146.74</ele><time>2014-06-11T10:25:35Z</time></trkpt><trkpt lat="51.7521260865" lon="-2.0225216355"><ele>145.30</ele><time>2014-06-11T10:25:55Z</time></trkpt><trkpt lat="51.7521327082" lon="-2.0225230604"><ele>141.45</ele><time>2014-06-11T10:26:22Z</time></trkpt><trkpt lat="51.7521330435" lon="-2.0225223899"><ele>146.74</ele><time>2014-06-11T10:26:23Z</time></trkpt><trkpt lat="51.7521444429" lon="-2.0225331187"><ele>142.41</ele><time>2014-06-11T10:26:38Z</time></trkpt><trkpt lat="51.7521472927" lon="-2.0225322805"><ele>146.26</ele><time>2014-06-11T10:26:39Z</time></trkpt><trkpt lat="51.7521505617" lon="-2.0225092303"><ele>141.45</ele><time>2014-06-11T10:26:44Z</time></trkpt><trkpt lat="51.7521530762" lon="-2.0225025248"><ele>144.82</ele><time>2014-06-11T10:26:45Z</time></trkpt><trkpt lat="51.7521530762" lon="-2.0225021895"><ele>149.14</ele><time>2014-06-11T10:26:46Z</time></trkpt><trkpt lat="51.7521535791" lon="-2.0224966574"><ele>144.82</ele><time>2014-06-11T10:26:47Z</time></trkpt><trkpt lat="51.7521505617" lon="-2.0224960707"><ele>138.09</ele><time>2014-06-11T10:26:55Z</time></trkpt><trkpt lat="51.7521503940" lon="-2.0224959031"><ele>146.26</ele><time>2014-06-11T10:26:56Z</time></trkpt><trkpt lat="51.7521171179" lon="-2.0225399081"><ele>141.45</ele><time>2014-06-11T10:27:10Z</time></trkpt><trkpt lat="51.7521172017" lon="-2.0225475356"><ele>145.78</ele><time>2014-06-11T10:27:11Z</time></trkpt><trkpt lat="51.7521177046" lon="-2.0225489605"><ele>149.62</ele><time>2014-06-11T10:27:13Z</time></trkpt><trkpt lat="51.7521240748" lon="-2.0225441828"><ele>143.37</ele><time>2014-06-11T10:27:14Z</time></trkpt><trkpt lat="51.7521405034" lon="-2.0225244015"><ele>147.22</ele><time>2014-06-11T10:27:16Z</time></trkpt><trkpt lat="51.7521952372" lon="-2.0224265009"><ele>146.26</ele><time>2014-06-11T10:27:23Z</time></trkpt><trkpt lat="51.7523093987" lon="-2.0222617965"><ele>141.93</ele><time>2014-06-11T10:27:35Z</time></trkpt><trkpt lat="51.7523218039" lon="-2.0222452842"><ele>145.30</ele><time>2014-06-11T10:27:36Z</time></trkpt><trkpt lat="51.7523640487" lon="-2.0221861918"><ele>145.78</ele><time>2014-06-11T10:27:56Z</time></trkpt><trkpt lat="51.7523640487" lon="-2.0221854374"><ele>149.62</ele><time>2014-06-11T10:27:58Z</time></trkpt><trkpt lat="51.7523637135" lon="-2.0221858565"><ele>144.82</ele><time>2014-06-11T10:27:59Z</time></trkpt><trkpt lat="51.7523621209" lon="-2.0221923105"><ele>141.45</ele><time>2014-06-11T10:28:01Z</time></trkpt><trkpt lat="51.7523652222" lon="-2.0222012792"><ele>137.13</ele><time>2014-06-11T10:28:02Z</time></trkpt><trkpt lat="51.7523688264" lon="-2.0222099964"><ele>147.22</ele><time>2014-06-11T10:28:03Z</time></trkpt><trkpt lat="51.7523720954" lon="-2.0222196355"><ele>141.93</ele><time>2014-06-11T10:28:04Z</time></trkpt><trkpt lat="51.7523756996" lon="-2.0222293586"><ele>150.10</ele><time>2014-06-11T10:28:05Z</time></trkpt><trkpt lat="51.7523855902" lon="-2.0222412609"><ele>145.78</ele><time>2014-06-11T10:28:07Z</time></trkpt><trkpt lat="51.7523941398" lon="-2.0222475473"><ele>147.22</ele><time>2014-06-11T10:28:08Z</time></trkpt><trkpt lat="51.7524037790" lon="-2.0222507324"><ele>152.51</ele><time>2014-06-11T10:28:09Z</time></trkpt><trkpt lat="51.7524113227" lon="-2.0222568512"><ele>148.18</ele><time>2014-06-11T10:28:10Z</time></trkpt><trkpt lat="51.7524139211" lon="-2.0222512353"><ele>152.03</ele><time>2014-06-11T10:28:16Z</time></trkpt><trkpt lat="51.7524134181" lon="-2.0222518221"><ele>148.18</ele><time>2014-06-11T10:28:18Z</time></trkpt><trkpt lat="51.7524130829" lon="-2.0222514030"><ele>149.14</ele><time>2014-06-11T10:28:19Z</time></trkpt><trkpt lat="51.7523897812" lon="-2.0222052187"><ele>143.37</ele><time>2014-06-11T10:28:36Z</time></trkpt><trkpt lat="51.7523910385" lon="-2.0221826714"><ele>144.34</ele><time>2014-06-11T10:28:37Z</time></trkpt><trkpt lat="51.7523923796" lon="-2.0221560169"><ele>146.26</ele><time>2014-06-11T10:28:38Z</time></trkpt><trkpt lat="51.7524493765" lon="-2.0219597127"><ele>145.78</ele><time>2014-06-11T10:28:47Z</time></trkpt><trkpt lat="51.7525508814" lon="-2.0218055695"><ele>142.41</ele><time>2014-06-11T10:28:56Z</time></trkpt><trkpt lat="51.7525591794" lon="-2.0217857044"><ele>145.30</ele><time>2014-06-11T10:28:57Z</time></trkpt><trkpt lat="51.7526108120" lon="-2.0217345748"><ele>142.41</ele><time>2014-06-11T10:29:02Z</time></trkpt><trkpt lat="51.7526295036" lon="-2.0217268635"><ele>141.45</ele><time>2014-06-11T10:29:04Z</time></trkpt><trkpt lat="51.7526808009" lon="-2.0216750633"><ele>143.37</ele><time>2014-06-11T10:29:08Z</time></trkpt><trkpt lat="51.7527082935" lon="-2.0216045715"><ele>139.05</ele><time>2014-06-11T10:29:11Z</time></trkpt><trkpt lat="51.7527232133" lon="-2.0215592254"><ele>142.41</ele><time>2014-06-11T10:29:13Z</time></trkpt><trkpt lat="51.7527465150" lon="-2.0215048268"><ele>145.78</ele><time>2014-06-11T10:29:17Z</time></trkpt><trkpt lat="51.7527599260" lon="-2.0214645937"><ele>142.41</ele><time>2014-06-11T10:29:19Z</time></trkpt><trkpt lat="51.7527531367" lon="-2.0213740692"><ele>141.93</ele><time>2014-06-11T10:29:24Z</time></trkpt><trkpt lat="51.7527025938" lon="-2.0213563833"><ele>145.78</ele><time>2014-06-11T10:29:36Z</time></trkpt><trkpt lat="51.7526903562" lon="-2.0213524438"><ele>144.82</ele><time>2014-06-11T10:29:37Z</time></trkpt><trkpt lat="51.7526600137" lon="-2.0213175751"><ele>140.01</ele><time>2014-06-11T10:29:42Z</time></trkpt><trkpt lat="51.7526516318" lon="-2.0212765038"><ele>143.37</ele><time>2014-06-11T10:29:44Z</time></trkpt><trkpt lat="51.7526240554" lon="-2.0211645216"><ele>139.53</ele><time>2014-06-11T10:29:49Z</time></trkpt><trkpt lat="51.7526205350" lon="-2.0211435668"><ele>142.89</ele><time>2014-06-11T10:29:50Z</time></trkpt><trkpt lat="51.7525854986" lon="-2.0208603423"><ele>141.93</ele><time>2014-06-11T10:30:06Z</time></trkpt><trkpt lat="51.7525783740" lon="-2.0208026748"><ele>145.30</ele><time>2014-06-11T10:30:09Z</time></trkpt><trkpt lat="51.7525757756" lon="-2.0207791217"><ele>141.45</ele><time>2014-06-11T10:30:10Z</time></trkpt><trkpt lat="51.7525757756" lon="-2.0207278244"><ele>148.66</ele><time>2014-06-11T10:30:13Z</time></trkpt><trkpt lat="51.7525802180" lon="-2.0207085460"><ele>141.93</ele><time>2014-06-11T10:30:14Z</time></trkpt><trkpt lat="51.7525961436" lon="-2.0206480287"><ele>145.30</ele><time>2014-06-11T10:30:18Z</time></trkpt><trkpt lat="51.7525917850" lon="-2.0206146687"><ele>141.45</ele><time>2014-06-11T10:30:20Z</time></trkpt><trkpt lat="51.7525895219" lon="-2.0205989107"><ele>142.41</ele><time>2014-06-11T10:30:21Z</time></trkpt><trkpt lat="51.7525922041" lon="-2.0205691550"><ele>146.74</ele><time>2014-06-11T10:30:23Z</time></trkpt><trkpt lat="51.7525953054" lon="-2.0205546543"><ele>143.85</ele><time>2014-06-11T10:30:24Z</time></trkpt><trkpt lat="51.7526132427" lon="-2.0204769541"><ele>140.01</ele><time>2014-06-11T10:30:31Z</time></trkpt><trkpt lat="51.7526110634" lon="-2.0204635430"><ele>140.97</ele><time>2014-06-11T10:30:32Z</time></trkpt><trkpt lat="51.7526103090" lon="-2.0204505511"><ele>145.78</ele><time>2014-06-11T10:30:33Z</time></trkpt><trkpt lat="51.7526099738" lon="-2.0204439294"><ele>150.10</ele><time>2014-06-11T10:30:34Z</time></trkpt><trkpt lat="51.7526113149" lon="-2.0204347093"><ele>140.97</ele><time>2014-06-11T10:30:35Z</time></trkpt><trkpt lat="51.7526149191" lon="-2.0204244833"><ele>145.30</ele><time>2014-06-11T10:30:36Z</time></trkpt><trkpt lat="51.7526257318" lon="-2.0204124972"><ele>149.62</ele><time>2014-06-11T10:30:38Z</time></trkpt><trkpt lat="51.7526336946" lon="-2.0204145089"><ele>144.34</ele><time>2014-06-11T10:30:39Z</time></trkpt><trkpt lat="51.7526405677" lon="-2.0204182807"><ele>140.49</ele><time>2014-06-11T10:30:40Z</time></trkpt><trkpt lat="51.7526472732" lon="-2.0204205438"><ele>143.85</ele><time>2014-06-11T10:30:41Z</time></trkpt><trkpt lat="51.7526665516" lon="-2.0204191189"><ele>146.26</ele><time>2014-06-11T10:30:44Z</time></trkpt><trkpt lat="51.7527265660" lon="-2.0203259960"><ele>150.58</ele><time>2014-06-11T10:30:52Z</time></trkpt><trkpt lat="51.7527309246" lon="-2.0203092322"><ele>145.30</ele><time>2014-06-11T10:30:53Z</time></trkpt><trkpt lat="51.7527980637" lon="-2.0201922208"><ele>146.26</ele><time>2014-06-11T10:30:59Z</time></trkpt><trkpt lat="51.7528242990" lon="-2.0201612078"><ele>149.62</ele><time>2014-06-11T10:31:01Z</time></trkpt><trkpt lat="51.7528598383" lon="-2.0201323740"><ele>142.41</ele><time>2014-06-11T10:31:03Z</time></trkpt><trkpt lat="51.7528699804" lon="-2.0201196335"><ele>145.78</ele><time>2014-06-11T10:31:04Z</time></trkpt><trkpt lat="51.7528994847" lon="-2.0200705994"><ele>150.10</ele><time>2014-06-11T10:31:08Z</time></trkpt><trkpt lat="51.7529057711" lon="-2.0200575236"><ele>143.37</ele><time>2014-06-11T10:31:09Z</time></trkpt><trkpt lat="51.7529162485" lon="-2.0200486388"><ele>147.70</ele><time>2014-06-11T10:31:10Z</time></trkpt><trkpt lat="51.7529348563" lon="-2.0200275164"><ele>144.34</ele><time>2014-06-11T10:31:13Z</time></trkpt><trkpt lat="51.7529350240" lon="-2.0200265944"><ele>148.18</ele><time>2014-06-11T10:31:14Z</time></trkpt><trkpt lat="51.7529353593" lon="-2.0200240798"><ele>143.85</ele><time>2014-06-11T10:31:16Z</time></trkpt><trkpt lat="51.7529353593" lon="-2.0200235769"><ele>144.82</ele><time>2014-06-11T10:31:17Z</time></trkpt><trkpt lat="51.7529351078" lon="-2.0200229902"><ele>148.18</ele><time>2014-06-11T10:31:18Z</time></trkpt><trkpt lat="51.7529544700" lon="-2.0199987665"><ele>151.54</ele><time>2014-06-11T10:31:22Z</time></trkpt><trkpt lat="51.7529649474" lon="-2.0199886244"><ele>143.85</ele><time>2014-06-11T10:31:23Z</time></trkpt><trkpt lat="51.7529762629" lon="-2.0199790690"><ele>149.62</ele><time>2014-06-11T10:31:24Z</time></trkpt><trkpt lat="51.7529838067" lon="-2.0199724473"><ele>144.34</ele><time>2014-06-11T10:31:25Z</time></trkpt><trkpt lat="51.7529971339" lon="-2.0199488103"><ele>148.66</ele><time>2014-06-11T10:31:27Z</time></trkpt><trkpt lat="51.7530068569" lon="-2.0199357346"><ele>147.22</ele><time>2014-06-11T10:31:28Z</time></trkpt><trkpt lat="51.7530548014" lon="-2.0198409352"><ele>150.10</ele><time>2014-06-11T10:31:35Z</time></trkpt><trkpt lat="51.7530598305" lon="-2.0198352356"><ele>146.26</ele><time>2014-06-11T10:31:38Z</time></trkpt><trkpt lat="51.7530596629" lon="-2.0198352356"><ele>150.10</ele><time>2014-06-11T10:31:40Z</time></trkpt><trkpt lat="51.7530595791" lon="-2.0198355708"><ele>146.26</ele><time>2014-06-11T10:31:41Z</time></trkpt><trkpt lat="51.7530600820" lon="-2.0198280271"><ele>150.10</ele><time>2014-06-11T10:31:42Z</time></trkpt><trkpt lat="51.7530677095" lon="-2.0198117662"><ele>143.37</ele><time>2014-06-11T10:31:44Z</time></trkpt><trkpt lat="51.7530739959" lon="-2.0198030490"><ele>149.14</ele><time>2014-06-11T10:31:45Z</time></trkpt><trkpt lat="51.7531146482" lon="-2.0197237562"><ele>153.47</ele><time>2014-06-11T10:31:51Z</time></trkpt><trkpt lat="51.7531242874" lon="-2.0197067410"><ele>145.78</ele><time>2014-06-11T10:31:52Z</time></trkpt><trkpt lat="51.7531352676" lon="-2.0196859539"><ele>150.10</ele><time>2014-06-11T10:31:53Z</time></trkpt><trkpt lat="51.7531553842" lon="-2.0196676813"><ele>156.35</ele><time>2014-06-11T10:31:58Z</time></trkpt><trkpt lat="51.7531574797" lon="-2.0196639933"><ele>141.45</ele><time>2014-06-11T10:31:59Z</time></trkpt><trkpt lat="51.7531577311" lon="-2.0196639933"><ele>150.58</ele><time>2014-06-11T10:32:00Z</time></trkpt><trkpt lat="51.7531578988" lon="-2.0196640771"><ele>152.51</ele><time>2014-06-11T10:32:02Z</time></trkpt><trkpt lat="51.7531581502" lon="-2.0196638256"><ele>148.66</ele><time>2014-06-11T10:32:03Z</time></trkpt><trkpt lat="51.7531666998" lon="-2.0196535159"><ele>149.14</ele><time>2014-06-11T10:32:04Z</time></trkpt><trkpt lat="51.7531835474" lon="-2.0196339022"><ele>152.51</ele><time>2014-06-11T10:32:06Z</time></trkpt><trkpt lat="51.7531909235" lon="-2.0196263585"><ele>146.74</ele><time>2014-06-11T10:32:07Z</time></trkpt><trkpt lat="51.7531996407" lon="-2.0196178090"><ele>151.06</ele><time>2014-06-11T10:32:08Z</time></trkpt><trkpt lat="51.7532465793" lon="-2.0195955969"><ele>156.83</ele><time>2014-06-11T10:32:17Z</time></trkpt><trkpt lat="51.7532526143" lon="-2.0195946749"><ele>149.14</ele><time>2014-06-11T10:32:18Z</time></trkpt><trkpt lat="51.7532652710" lon="-2.0195954293"><ele>154.91</ele><time>2014-06-11T10:32:20Z</time></trkpt><trkpt lat="51.7532706354" lon="-2.0195955131"><ele>149.14</ele><time>2014-06-11T10:32:21Z</time></trkpt><trkpt lat="51.7532832921" lon="-2.0195917413"><ele>153.95</ele><time>2014-06-11T10:32:22Z</time></trkpt><trkpt lat="51.7532884050" lon="-2.0195663441"><ele>151.54</ele><time>2014-06-11T10:32:25Z</time></trkpt><trkpt lat="51.7532853037" lon="-2.0195299666"><ele>147.70</ele><time>2014-06-11T10:32:27Z</time></trkpt><trkpt lat="51.7532879021" lon="-2.0195132867"><ele>152.99</ele><time>2014-06-11T10:32:28Z</time></trkpt><trkpt lat="51.7532902490" lon="-2.0195067488"><ele>147.70</ele><time>2014-06-11T10:32:29Z</time></trkpt><trkpt lat="51.7532910034" lon="-2.0194951817"><ele>152.99</ele><time>2014-06-11T10:32:30Z</time></trkpt><trkpt lat="51.7532977927" lon="-2.0194579661"><ele>147.70</ele><time>2014-06-11T10:32:32Z</time></trkpt><trkpt lat="51.7533036601" lon="-2.0194442198"><ele>148.18</ele><time>2014-06-11T10:32:33Z</time></trkpt><trkpt lat="51.7533110362" lon="-2.0194355864"><ele>153.47</ele><time>2014-06-11T10:32:34Z</time></trkpt><trkpt lat="51.7533140536" lon="-2.0194308087"><ele>152.99</ele><time>2014-06-11T10:32:35Z</time></trkpt><trkpt lat="51.7533189151" lon="-2.0194238517"><ele>152.03</ele><time>2014-06-11T10:32:37Z</time></trkpt><trkpt lat="51.7533021513" lon="-2.0194735564"><ele>151.54</ele><time>2014-06-11T10:32:58Z</time></trkpt><trkpt lat="51.7533006426" lon="-2.0195011329"><ele>150.10</ele><time>2014-06-11T10:33:00Z</time></trkpt><trkpt lat="51.7532998882" lon="-2.0195068326"><ele>151.54</ele><time>2014-06-11T10:33:01Z</time></trkpt><trkpt lat="51.7532905005" lon="-2.0195382647"><ele>147.22</ele><time>2014-06-11T10:33:08Z</time></trkpt><trkpt lat="51.7532936856" lon="-2.0195417851"><ele>152.99</ele><time>2014-06-11T10:33:09Z</time></trkpt><trkpt lat="51.7532954458" lon="-2.0195463952"><ele>149.14</ele><time>2014-06-11T10:33:10Z</time></trkpt><trkpt lat="51.7532961164" lon="-2.0195455570"><ele>155.39</ele><time>2014-06-11T10:33:11Z</time></trkpt><trkpt lat="51.7532972060" lon="-2.0195446350"><ele>149.62</ele><time>2014-06-11T10:33:12Z</time></trkpt><trkpt lat="51.7533136345" lon="-2.0195391029"><ele>156.83</ele><time>2014-06-11T10:33:17Z</time></trkpt><trkpt lat="51.7533205077" lon="-2.0195349958"><ele>147.22</ele><time>2014-06-11T10:33:18Z</time></trkpt><trkpt lat="51.7533393670" lon="-2.0195243508"><ele>152.51</ele><time>2014-06-11T10:33:19Z</time></trkpt><trkpt lat="51.7533773370" lon="-2.0195137896"><ele>150.10</ele><time>2014-06-11T10:33:22Z</time></trkpt><trkpt lat="51.7533801030" lon="-2.0195120294"><ele>154.43</ele><time>2014-06-11T10:33:24Z</time></trkpt><trkpt lat="51.7533811927" lon="-2.0195107721"><ele>147.22</ele><time>2014-06-11T10:33:25Z</time></trkpt><trkpt lat="51.7533968668" lon="-2.0194999594"><ele>149.62</ele><time>2014-06-11T10:33:26Z</time></trkpt><trkpt lat="51.7534164805" lon="-2.0194830280"><ele>157.31</ele><time>2014-06-11T10:33:28Z</time></trkpt><trkpt lat="51.7534334958" lon="-2.0194743946"><ele>148.18</ele><time>2014-06-11T10:33:29Z</time></trkpt><trkpt lat="51.7534349207" lon="-2.0194738079"><ele>152.99</ele><time>2014-06-11T10:33:30Z</time></trkpt><trkpt lat="51.7534593120" lon="-2.0194390230"><ele>153.95</ele><time>2014-06-11T10:33:35Z</time></trkpt><trkpt lat="51.7534912471" lon="-2.0193883963"><ele>149.14</ele><time>2014-06-11T10:33:39Z</time></trkpt><trkpt lat="51.7534912471" lon="-2.0193879772"><ele>152.03</ele><time>2014-06-11T10:33:40Z</time></trkpt><trkpt lat="51.7534901574" lon="-2.0193827804"><ele>153.47</ele><time>2014-06-11T10:33:42Z</time></trkpt><trkpt lat="51.7535190750" lon="-2.0193384402"><ele>151.54</ele><time>2014-06-11T10:33:46Z</time></trkpt><trkpt lat="51.7535541952" lon="-2.0193136297"><ele>157.31</ele><time>2014-06-11T10:33:49Z</time></trkpt><trkpt lat="51.7535609007" lon="-2.0193061698"><ele>148.66</ele><time>2014-06-11T10:33:50Z</time></trkpt><trkpt lat="51.7535671871" lon="-2.0193000510"><ele>155.87</ele><time>2014-06-11T10:33:51Z</time></trkpt><trkpt lat="51.7535816040" lon="-2.0192749891"><ele>146.74</ele><time>2014-06-11T10:33:53Z</time></trkpt><trkpt lat="51.7535884771" lon="-2.0192666911"><ele>158.75</ele><time>2014-06-11T10:33:54Z</time></trkpt><trkpt lat="51.7535960209" lon="-2.0192554593"><ele>153.47</ele><time>2014-06-11T10:33:55Z</time></trkpt><trkpt lat="51.7536018044" lon="-2.0192467421"><ele>149.62</ele><time>2014-06-11T10:33:56Z</time></trkpt><trkpt lat="51.7536070012" lon="-2.0192402881"><ele>154.43</ele><time>2014-06-11T10:33:57Z</time></trkpt><trkpt lat="51.7536206637" lon="-2.0192379411"><ele>150.58</ele><time>2014-06-11T10:34:08Z</time></trkpt><trkpt lat="51.7536240164" lon="-2.0192397013"><ele>155.39</ele><time>2014-06-11T10:34:09Z</time></trkpt><trkpt lat="51.7536770739" lon="-2.0192412939"><ele>153.95</ele><time>2014-06-11T10:34:14Z</time></trkpt><trkpt lat="51.7537025549" lon="-2.0192427188"><ele>154.43</ele><time>2014-06-11T10:34:16Z</time></trkpt><trkpt lat="51.7537494097" lon="-2.0191896614"><ele>154.43</ele><time>2014-06-11T10:34:21Z</time></trkpt><trkpt lat="51.7537641618" lon="-2.0191582292"><ele>147.22</ele><time>2014-06-11T10:34:23Z</time></trkpt><trkpt lat="51.7537660059" lon="-2.0191409625"><ele>153.95</ele><time>2014-06-11T10:34:24Z</time></trkpt><trkpt lat="51.7537681013" lon="-2.0191187505"><ele>156.83</ele><time>2014-06-11T10:34:25Z</time></trkpt><trkpt lat="51.7537742201" lon="-2.0191013161"><ele>149.62</ele><time>2014-06-11T10:34:26Z</time></trkpt><trkpt lat="51.7537808418" lon="-2.0190836303"><ele>155.87</ele><time>2014-06-11T10:34:27Z</time></trkpt><trkpt lat="51.7537991982" lon="-2.0190249570"><ele>151.06</ele><time>2014-06-11T10:34:30Z</time></trkpt><trkpt lat="51.7538025510" lon="-2.0190121327"><ele>152.03</ele><time>2014-06-11T10:34:31Z</time></trkpt><trkpt lat="51.7538026348" lon="-2.0189996436"><ele>155.39</ele><time>2014-06-11T10:34:32Z</time></trkpt><trkpt lat="51.7538043950" lon="-2.0189850591"><ele>159.24</ele><time>2014-06-11T10:34:33Z</time></trkpt><trkpt lat="51.7538064905" lon="-2.0189686306"><ele>155.39</ele><time>2014-06-11T10:34:34Z</time></trkpt><trkpt lat="51.7537979409" lon="-2.0189485140"><ele>150.10</ele><time>2014-06-11T10:34:36Z</time></trkpt><trkpt lat="51.7537852842" lon="-2.0189401321"><ele>152.99</ele><time>2014-06-11T10:34:37Z</time></trkpt><trkpt lat="51.7537775729" lon="-2.0189304929"><ele>139.53</ele><time>2014-06-11T10:34:38Z</time></trkpt><trkpt lat="51.7537724599" lon="-2.0189247932"><ele>163.56</ele><time>2014-06-11T10:34:39Z</time></trkpt><trkpt lat="51.7537750583" lon="-2.0189214405"><ele>157.79</ele><time>2014-06-11T10:34:40Z</time></trkpt><trkpt lat="51.7537757289" lon="-2.0189216081"><ele>155.39</ele><time>2014-06-11T10:34:42Z</time></trkpt><trkpt lat="51.7538013775" lon="-2.0189040061"><ele>164.04</ele><time>2014-06-11T10:34:52Z</time></trkpt><trkpt lat="51.7538010422" lon="-2.0189053472"><ele>148.66</ele><time>2014-06-11T10:34:53Z</time></trkpt><trkpt lat="51.7538011260" lon="-2.0189067721"><ele>156.35</ele><time>2014-06-11T10:34:54Z</time></trkpt><trkpt lat="51.7539421935" lon="-2.0189678762"><ele>161.16</ele><time>2014-06-11T10:35:08Z</time></trkpt><trkpt lat="51.7539495695" lon="-2.0189674571"><ele>156.83</ele><time>2014-06-11T10:35:09Z</time></trkpt><trkpt lat="51.7539694346" lon="-2.0189665351"><ele>155.87</ele><time>2014-06-11T10:35:11Z</time></trkpt><trkpt lat="51.7539794091" lon="-2.0189627632"><ele>160.68</ele><time>2014-06-11T10:35:12Z</time></trkpt><trkpt lat="51.7539864499" lon="-2.0189557225"><ele>157.31</ele><time>2014-06-11T10:35:13Z</time></trkpt><trkpt lat="51.7539887130" lon="-2.0189834666"><ele>157.79</ele><time>2014-06-11T10:35:19Z</time></trkpt><trkpt lat="51.7539809179" lon="-2.0190248732"><ele>160.20</ele><time>2014-06-11T10:35:21Z</time></trkpt><trkpt lat="51.7539609689" lon="-2.0190715604"><ele>151.06</ele><time>2014-06-11T10:35:23Z</time></trkpt><trkpt lat="51.7539525870" lon="-2.0190925151"><ele>158.27</ele><time>2014-06-11T10:35:24Z</time></trkpt><trkpt lat="51.7539204843" lon="-2.0192454848"><ele>170.77</ele><time>2014-06-11T10:35:34Z</time></trkpt><trkpt lat="51.7539197300" lon="-2.0192526095"><ele>157.79</ele><time>2014-06-11T10:35:35Z</time></trkpt><trkpt lat="51.7539180536" lon="-2.0192595664"><ele>154.91</ele><time>2014-06-11T10:35:36Z</time></trkpt><trkpt lat="51.7539174668" lon="-2.0192616619"><ele>158.75</ele><time>2014-06-11T10:35:37Z</time></trkpt><trkpt lat="51.7539200652" lon="-2.0192525256"><ele>152.99</ele><time>2014-06-11T10:35:39Z</time></trkpt><trkpt lat="51.7539220769" lon="-2.0192472450"><ele>158.75</ele><time>2014-06-11T10:35:40Z</time></trkpt><trkpt lat="51.7539245915" lon="-2.0192412101"><ele>153.95</ele><time>2014-06-11T10:35:42Z</time></trkpt><trkpt lat="51.7539265193" lon="-2.0192380250"><ele>158.75</ele><time>2014-06-11T10:35:43Z</time></trkpt><trkpt lat="51.7540188879" lon="-2.0190325007"><ele>148.18</ele><time>2014-06-11T10:35:48Z</time></trkpt><trkpt lat="51.7540367413" lon="-2.0190059301"><ele>165.48</ele><time>2014-06-11T10:35:49Z</time></trkpt><trkpt lat="51.7540536728" lon="-2.0189773478"><ele>160.20</ele><time>2014-06-11T10:35:50Z</time></trkpt><trkpt lat="51.7540649045" lon="-2.0189595781"><ele>154.91</ele><time>2014-06-11T10:35:52Z</time></trkpt><trkpt lat="51.7540714424" lon="-2.0189517830"><ele>158.75</ele><time>2014-06-11T10:35:53Z</time></trkpt><trkpt lat="51.7541095801" lon="-2.0188716520"><ele>154.43</ele><time>2014-06-11T10:35:56Z</time></trkpt><trkpt lat="51.7541158665" lon="-2.0188590791"><ele>155.87</ele><time>2014-06-11T10:35:57Z</time></trkpt><trkpt lat="51.7541369051" lon="-2.0187959634"><ele>160.20</ele><time>2014-06-11T10:36:00Z</time></trkpt><trkpt lat="51.7541473825" lon="-2.0187662914"><ele>157.31</ele><time>2014-06-11T10:36:02Z</time></trkpt><trkpt lat="51.7541598715" lon="-2.0187403914"><ele>162.60</ele><time>2014-06-11T10:36:04Z</time></trkpt><trkpt lat="51.7541671637" lon="-2.0187256392"><ele>156.35</ele><time>2014-06-11T10:36:05Z</time></trkpt><trkpt lat="51.7541854363" lon="-2.0186915249"><ele>160.20</ele><time>2014-06-11T10:36:07Z</time></trkpt><trkpt lat="51.7541988473" lon="-2.0186773594"><ele>159.24</ele><time>2014-06-11T10:36:08Z</time></trkpt><trkpt lat="51.7542310338" lon="-2.0186421555"><ele>155.39</ele><time>2014-06-11T10:36:11Z</time></trkpt><trkpt lat="51.7542363983" lon="-2.0186319295"><ele>159.24</ele><time>2014-06-11T10:36:12Z</time></trkpt><trkpt lat="51.7542406730" lon="-2.0186269004"><ele>165.48</ele><time>2014-06-11T10:36:13Z</time></trkpt><trkpt lat="51.7542411759" lon="-2.0186269842"><ele>158.75</ele><time>2014-06-11T10:36:14Z</time></trkpt><trkpt lat="51.7542421818" lon="-2.0186277386"><ele>153.95</ele><time>2014-06-11T10:36:18Z</time></trkpt><trkpt lat="51.7542426847" lon="-2.0186279062"><ele>161.16</ele><time>2014-06-11T10:36:19Z</time></trkpt><trkpt lat="51.7542726919" lon="-2.0186555665"><ele>156.83</ele><time>2014-06-11T10:36:23Z</time></trkpt><trkpt lat="51.7542840075" lon="-2.0186617691"><ele>159.72</ele><time>2014-06-11T10:36:24Z</time></trkpt><trkpt lat="51.7542850133" lon="-2.0186621882"><ele>163.08</ele><time>2014-06-11T10:36:25Z</time></trkpt><trkpt lat="51.7543022800" lon="-2.0186696481"><ele>154.91</ele><time>2014-06-11T10:36:26Z</time></trkpt><trkpt lat="51.7543159425" lon="-2.0186760183"><ele>161.64</ele><time>2014-06-11T10:36:27Z</time></trkpt><trkpt lat="51.7543425970" lon="-2.0186875015"><ele>157.31</ele><time>2014-06-11T10:36:29Z</time></trkpt><trkpt lat="51.7543569300" lon="-2.0186777785"><ele>162.12</ele><time>2014-06-11T10:36:30Z</time></trkpt><trkpt lat="51.7543843389" lon="-2.0186532196"><ele>155.87</ele><time>2014-06-11T10:36:32Z</time></trkpt><trkpt lat="51.7543961573" lon="-2.0186454244"><ele>156.35</ele><time>2014-06-11T10:36:33Z</time></trkpt><trkpt lat="51.7544038687" lon="-2.0186424907"><ele>161.16</ele><time>2014-06-11T10:36:34Z</time></trkpt><trkpt lat="51.7544109095" lon="-2.0186425745"><ele>165.00</ele><time>2014-06-11T10:36:35Z</time></trkpt><trkpt lat="51.7544152681" lon="-2.0186463464"><ele>154.91</ele><time>2014-06-11T10:36:36Z</time></trkpt><trkpt lat="51.7544154357" lon="-2.0186465979"><ele>161.64</ele><time>2014-06-11T10:36:37Z</time></trkpt><trkpt lat="51.7544347979" lon="-2.0186470170"><ele>158.75</ele><time>2014-06-11T10:36:40Z</time></trkpt><trkpt lat="51.7544571776" lon="-2.0186360367"><ele>164.52</ele><time>2014-06-11T10:36:42Z</time></trkpt><trkpt lat="51.7544712592" lon="-2.0186274033"><ele>153.47</ele><time>2014-06-11T10:36:43Z</time></trkpt><trkpt lat="51.7544858437" lon="-2.0186179318"><ele>161.16</ele><time>2014-06-11T10:36:44Z</time></trkpt><trkpt lat="51.7545169406" lon="-2.0185931213"><ele>165.00</ele><time>2014-06-11T10:36:46Z</time></trkpt><trkpt lat="51.7545353808" lon="-2.0185882598"><ele>153.95</ele><time>2014-06-11T10:36:47Z</time></trkpt><trkpt lat="51.7545528151" lon="-2.0185849071"><ele>163.08</ele><time>2014-06-11T10:36:48Z</time></trkpt><trkpt lat="51.7545886058" lon="-2.0185761899"><ele>160.20</ele><time>2014-06-11T10:36:50Z</time></trkpt><trkpt lat="51.7546025198" lon="-2.0185682271"><ele>161.16</ele><time>2014-06-11T10:36:51Z</time></trkpt><trkpt lat="51.7546595167" lon="-2.0185418241"><ele>165.48</ele><time>2014-06-11T10:37:00Z</time></trkpt><trkpt lat="51.7546596006" lon="-2.0185417403"><ele>159.72</ele><time>2014-06-11T10:37:01Z</time></trkpt><trkpt lat="51.7546597682" lon="-2.0185414888"><ele>163.56</ele><time>2014-06-11T10:37:02Z</time></trkpt><trkpt lat="51.7546600197" lon="-2.0185414888"><ele>167.89</ele><time>2014-06-11T10:37:03Z</time></trkpt><trkpt lat="51.7546600197" lon="-2.0185411535"><ele>157.79</ele><time>2014-06-11T10:37:04Z</time></trkpt><trkpt lat="51.7546657193" lon="-2.0185300056"><ele>163.56</ele><time>2014-06-11T10:37:05Z</time></trkpt><trkpt lat="51.7547090538" lon="-2.0184913650"><ele>156.35</ele><time>2014-06-11T10:37:12Z</time></trkpt><trkpt lat="51.7547244765" lon="-2.0184874255"><ele>164.52</ele><time>2014-06-11T10:37:13Z</time></trkpt><trkpt lat="51.7547656316" lon="-2.0184694044"><ele>160.68</ele><time>2014-06-11T10:37:24Z</time></trkpt><trkpt lat="51.7547777016" lon="-2.0184609387"><ele>165.48</ele><time>2014-06-11T10:37:25Z</time></trkpt><trkpt lat="51.7548439186" lon="-2.0184248127"><ele>161.64</ele><time>2014-06-11T10:37:36Z</time></trkpt><trkpt lat="51.7548590899" lon="-2.0184204541"><ele>165.00</ele><time>2014-06-11T10:37:37Z</time></trkpt><trkpt lat="51.7548709083" lon="-2.0184088033"><ele>168.85</ele><time>2014-06-11T10:37:38Z</time></trkpt><trkpt lat="51.7548787035" lon="-2.0184006728"><ele>161.16</ele><time>2014-06-11T10:37:39Z</time></trkpt><trkpt lat="51.7548792064" lon="-2.0184000861"><ele>165.48</ele><time>2014-06-11T10:37:40Z</time></trkpt><trkpt lat="51.7550590821" lon="-2.0182881039"><ele>169.33</ele><time>2014-06-11T10:37:52Z</time></trkpt><trkpt lat="51.7550695594" lon="-2.0182860084"><ele>161.16</ele><time>2014-06-11T10:37:53Z</time></trkpt><trkpt lat="51.7550826352" lon="-2.0182822365"><ele>166.45</ele><time>2014-06-11T10:37:54Z</time></trkpt><trkpt lat="51.7550918553" lon="-2.0182800572"><ele>170.29</ele><time>2014-06-11T10:37:55Z</time></trkpt><trkpt lat="51.7550942861" lon="-2.0182804763"><ele>161.64</ele><time>2014-06-11T10:37:56Z</time></trkpt><trkpt lat="51.7550947890" lon="-2.0182800572"><ele>166.45</ele><time>2014-06-11T10:37:57Z</time></trkpt><trkpt lat="51.7551552225" lon="-2.0182197075"><ele>169.81</ele><time>2014-06-11T10:38:13Z</time></trkpt><trkpt lat="51.7551662028" lon="-2.0182053745"><ele>166.45</ele><time>2014-06-11T10:38:14Z</time></trkpt><trkpt lat="51.7551908456" lon="-2.0181726012"><ele>169.81</ele><time>2014-06-11T10:38:16Z</time></trkpt><trkpt lat="51.7552014906" lon="-2.0181549154"><ele>163.08</ele><time>2014-06-11T10:38:17Z</time></trkpt><trkpt lat="51.7552124709" lon="-2.0181467850"><ele>168.37</ele><time>2014-06-11T10:38:18Z</time></trkpt><trkpt lat="51.7552258819" lon="-2.0181363914"><ele>172.69</ele><time>2014-06-11T10:38:19Z</time></trkpt><trkpt lat="51.7552390415" lon="-2.0181233156"><ele>165.48</ele><time>2014-06-11T10:38:20Z</time></trkpt><trkpt lat="51.7552473396" lon="-2.0181145985"><ele>168.37</ele><time>2014-06-11T10:38:21Z</time></trkpt><trkpt lat="51.7552660313" lon="-2.0180950686"><ele>173.66</ele><time>2014-06-11T10:38:23Z</time></trkpt><trkpt lat="51.7552757543" lon="-2.0180840883"><ele>165.96</ele><time>2014-06-11T10:38:24Z</time></trkpt><trkpt lat="51.7552853934" lon="-2.0180769637"><ele>168.85</ele><time>2014-06-11T10:38:25Z</time></trkpt><trkpt lat="51.7552979663" lon="-2.0180667378"><ele>171.73</ele><time>2014-06-11T10:38:26Z</time></trkpt><trkpt lat="51.7553089466" lon="-2.0180612057"><ele>167.41</ele><time>2014-06-11T10:38:27Z</time></trkpt><trkpt lat="51.7553297337" lon="-2.0180478785"><ele>170.77</ele><time>2014-06-11T10:38:29Z</time></trkpt><trkpt lat="51.7553426418" lon="-2.0180612896"><ele>168.85</ele><time>2014-06-11T10:38:51Z</time></trkpt><trkpt lat="51.7553227767" lon="-2.0180705097"><ele>168.85</ele><time>2014-06-11T10:39:16Z</time></trkpt><trkpt lat="51.7553263810" lon="-2.0180804841"><ele>166.45</ele><time>2014-06-11T10:39:33Z</time></trkpt><trkpt lat="51.7553303204" lon="-2.0180715993"><ele>169.81</ele><time>2014-06-11T10:39:38Z</time></trkpt><trkpt lat="51.7553316616" lon="-2.0180702582"><ele>166.45</ele><time>2014-06-11T10:39:44Z</time></trkpt><trkpt lat="51.7553331703" lon="-2.0180659834"><ele>170.29</ele><time>2014-06-11T10:39:49Z</time></trkpt><trkpt lat="51.7553438153" lon="-2.0180490520"><ele>167.41</ele><time>2014-06-11T10:39:52Z</time></trkpt><trkpt lat="51.7553555500" lon="-2.0180367306"><ele>171.25</ele><time>2014-06-11T10:39:53Z</time></trkpt><trkpt lat="51.7553637642" lon="-2.0180238225"><ele>166.45</ele><time>2014-06-11T10:39:54Z</time></trkpt><trkpt lat="51.7553894967" lon="-2.0179835893"><ele>169.81</ele><time>2014-06-11T10:39:57Z</time></trkpt><trkpt lat="51.7554174084" lon="-2.0179263409"><ele>165.48</ele><time>2014-06-11T10:40:02Z</time></trkpt><trkpt lat="51.7554266285" lon="-2.0179091580"><ele>169.81</ele><time>2014-06-11T10:40:03Z</time></trkpt><trkpt lat="51.7554330826" lon="-2.0178436954"><ele>170.29</ele><time>2014-06-11T10:40:07Z</time></trkpt><trkpt lat="51.7554679513" lon="-2.0177949965"><ele>167.89</ele><time>2014-06-11T10:40:13Z</time></trkpt><trkpt lat="51.7554750759" lon="-2.0177949965"><ele>172.21</ele><time>2014-06-11T10:40:14Z</time></trkpt><trkpt lat="51.7554831225" lon="-2.0177862793"><ele>167.89</ele><time>2014-06-11T10:40:16Z</time></trkpt><trkpt lat="51.7554860562" lon="-2.0177756343"><ele>169.33</ele><time>2014-06-11T10:40:17Z</time></trkpt><trkpt lat="51.7554855533" lon="-2.0177548472"><ele>173.66</ele><time>2014-06-11T10:40:19Z</time></trkpt><trkpt lat="51.7554925941" lon="-2.0177455433"><ele>171.25</ele><time>2014-06-11T10:40:20Z</time></trkpt><trkpt lat="51.7555283848" lon="-2.0177061483"><ele>174.62</ele><time>2014-06-11T10:40:24Z</time></trkpt><trkpt lat="51.7555386946" lon="-2.0176962577"><ele>168.85</ele><time>2014-06-11T10:40:25Z</time></trkpt><trkpt lat="51.7555748206" lon="-2.0176610537"><ele>172.21</ele><time>2014-06-11T10:40:29Z</time></trkpt><trkpt lat="51.7556274589" lon="-2.0176101755"><ele>170.77</ele><time>2014-06-11T10:40:35Z</time></trkpt><trkpt lat="51.7556449771" lon="-2.0175842755"><ele>174.62</ele><time>2014-06-11T10:40:37Z</time></trkpt><trkpt lat="51.7556633335" lon="-2.0175544359"><ele>170.77</ele><time>2014-06-11T10:40:40Z</time></trkpt><trkpt lat="51.7556755710" lon="-2.0175394323"><ele>173.66</ele><time>2014-06-11T10:40:42Z</time></trkpt><trkpt lat="51.7556928378" lon="-2.0175231714"><ele>169.81</ele><time>2014-06-11T10:40:45Z</time></trkpt><trkpt lat="51.7556992918" lon="-2.0175156277"><ele>173.17</ele><time>2014-06-11T10:40:46Z</time></trkpt><trkpt lat="51.7557498347" lon="-2.0174497459"><ele>172.69</ele><time>2014-06-11T10:40:53Z</time></trkpt><trkpt lat="51.7558565363" lon="-2.0173008833"><ele>172.69</ele><time>2014-06-11T10:41:11Z</time></trkpt><trkpt lat="51.7559302133" lon="-2.0172474068"><ele>176.06</ele><time>2014-06-11T10:41:19Z</time></trkpt><trkpt lat="51.7559570353" lon="-2.0172357559"><ele>169.33</ele><time>2014-06-11T10:41:21Z</time></trkpt><trkpt lat="51.7559691053" lon="-2.0172300562"><ele>175.58</ele><time>2014-06-11T10:41:22Z</time></trkpt><trkpt lat="51.7559768166" lon="-2.0172251947"><ele>179.42</ele><time>2014-06-11T10:41:23Z</time></trkpt><trkpt lat="51.7559808400" lon="-2.0172177348"><ele>172.21</ele><time>2014-06-11T10:41:24Z</time></trkpt><trkpt lat="51.7559974361" lon="-2.0172025636"><ele>177.98</ele><time>2014-06-11T10:41:26Z</time></trkpt><trkpt lat="51.7560048122" lon="-2.0171971992"><ele>173.17</ele><time>2014-06-11T10:41:27Z</time></trkpt><trkpt lat="51.7560139485" lon="-2.0171632525"><ele>177.98</ele><time>2014-06-11T10:41:30Z</time></trkpt><trkpt lat="51.7560278624" lon="-2.0171460696"><ele>173.17</ele><time>2014-06-11T10:41:32Z</time></trkpt><trkpt lat="51.7560359091" lon="-2.0171397831"><ele>176.06</ele><time>2014-06-11T10:41:33Z</time></trkpt><trkpt lat="51.7560909782" lon="-2.0170689560"><ele>178.94</ele><time>2014-06-11T10:41:42Z</time></trkpt><trkpt lat="51.7560986895" lon="-2.0170619152"><ele>173.17</ele><time>2014-06-11T10:41:43Z</time></trkpt><trkpt lat="51.7561085802" lon="-2.0170544554"><ele>177.02</ele><time>2014-06-11T10:41:44Z</time></trkpt><trkpt lat="51.7561519146" lon="-2.0170334168"><ele>180.38</ele><time>2014-06-11T10:41:50Z</time></trkpt><trkpt lat="51.7561561894" lon="-2.0170263760"><ele>174.62</ele><time>2014-06-11T10:41:51Z</time></trkpt><trkpt lat="51.7561608832" lon="-2.0170056727"><ele>181.35</ele><time>2014-06-11T10:41:53Z</time></trkpt><trkpt lat="51.7561634816" lon="-2.0169955306"><ele>172.69</ele><time>2014-06-11T10:41:54Z</time></trkpt><trkpt lat="51.7561656609" lon="-2.0169823710"><ele>173.17</ele><time>2014-06-11T10:41:55Z</time></trkpt><trkpt lat="51.7561685946" lon="-2.0169701334"><ele>177.50</ele><time>2014-06-11T10:41:56Z</time></trkpt><trkpt lat="51.7562125158" lon="-2.0169195905"><ele>182.79</ele><time>2014-06-11T10:42:04Z</time></trkpt><trkpt lat="51.7562198080" lon="-2.0169114601"><ele>174.14</ele><time>2014-06-11T10:42:05Z</time></trkpt><trkpt lat="51.7562262621" lon="-2.0169080235"><ele>175.58</ele><time>2014-06-11T10:42:06Z</time></trkpt><trkpt lat="51.7562312912" lon="-2.0169037487"><ele>180.87</ele><time>2014-06-11T10:42:07Z</time></trkpt><trkpt lat="51.7562366556" lon="-2.0169043355"><ele>180.38</ele><time>2014-06-11T10:42:08Z</time></trkpt><trkpt lat="51.7562492285" lon="-2.0169011503"><ele>178.46</ele><time>2014-06-11T10:42:10Z</time></trkpt><trkpt lat="51.7562621366" lon="-2.0168939419"><ele>179.90</ele><time>2014-06-11T10:42:12Z</time></trkpt><trkpt lat="51.7562941555" lon="-2.0168910921"><ele>174.62</ele><time>2014-06-11T10:42:16Z</time></trkpt><trkpt lat="51.7563036270" lon="-2.0168927684"><ele>180.38</ele><time>2014-06-11T10:42:17Z</time></trkpt><trkpt lat="51.7563767172" lon="-2.0168877393"><ele>177.02</ele><time>2014-06-11T10:42:27Z</time></trkpt><trkpt lat="51.7563822493" lon="-2.0168843027"><ele>180.38</ele><time>2014-06-11T10:42:28Z</time></trkpt><trkpt lat="51.7563946545" lon="-2.0168682095"><ele>176.06</ele><time>2014-06-11T10:42:31Z</time></trkpt><trkpt lat="51.7564016115" lon="-2.0168647729"><ele>180.87</ele><time>2014-06-11T10:42:32Z</time></trkpt><trkpt lat="51.7564100772" lon="-2.0168596599"><ele>177.50</ele><time>2014-06-11T10:42:34Z</time></trkpt><trkpt lat="51.7564148549" lon="-2.0168593246"><ele>180.87</ele><time>2014-06-11T10:42:35Z</time></trkpt><trkpt lat="51.7564967461" lon="-2.0168077759"><ele>184.71</ele><time>2014-06-11T10:42:46Z</time></trkpt><trkpt lat="51.7565057985" lon="-2.0167986397"><ele>178.94</ele><time>2014-06-11T10:42:47Z</time></trkpt><trkpt lat="51.7565157730" lon="-2.0167862345"><ele>181.83</ele><time>2014-06-11T10:42:48Z</time></trkpt><trkpt lat="51.7566064652" lon="-2.0166961290"><ele>185.19</ele><time>2014-06-11T10:43:00Z</time></trkpt><trkpt lat="51.7566109914" lon="-2.0166901778"><ele>180.87</ele><time>2014-06-11T10:43:01Z</time></trkpt><trkpt lat="51.7566251568" lon="-2.0166772697"><ele>186.15</ele><time>2014-06-11T10:43:04Z</time></trkpt><trkpt lat="51.7566339578" lon="-2.0166726597"><ele>179.42</ele><time>2014-06-11T10:43:05Z</time></trkpt><trkpt lat="51.7566424236" lon="-2.0166687202"><ele>183.27</ele><time>2014-06-11T10:43:06Z</time></trkpt><trkpt lat="51.7566827405" lon="-2.0166399702"><ele>179.90</ele><time>2014-06-11T10:43:11Z</time></trkpt><trkpt lat="51.7566917930" lon="-2.0166335162"><ele>183.27</ele><time>2014-06-11T10:43:12Z</time></trkpt><trkpt lat="51.7567367200" lon="-2.0165829733"><ele>183.27</ele><time>2014-06-11T10:43:30Z</time></trkpt><trkpt lat="51.7567366362" lon="-2.0165817160"><ele>180.38</ele><time>2014-06-11T10:43:31Z</time></trkpt><trkpt lat="51.7567382287" lon="-2.0165685564"><ele>183.75</ele><time>2014-06-11T10:43:32Z</time></trkpt><trkpt lat="51.7567463592" lon="-2.0165587496"><ele>187.59</ele><time>2014-06-11T10:43:33Z</time></trkpt><trkpt lat="51.7567559984" lon="-2.0165473502"><ele>185.19</ele><time>2014-06-11T10:43:34Z</time></trkpt><trkpt lat="51.7567642126" lon="-2.0165363699"><ele>189.04</ele><time>2014-06-11T10:43:35Z</time></trkpt><trkpt lat="51.7567699961" lon="-2.0165221207"><ele>179.42</ele><time>2014-06-11T10:43:36Z</time></trkpt><trkpt lat="51.7567758635" lon="-2.0165078714"><ele>183.75</ele><time>2014-06-11T10:43:37Z</time></trkpt><trkpt lat="51.7568273284" lon="-2.0164541434"><ele>180.87</ele><time>2014-06-11T10:43:43Z</time></trkpt><trkpt lat="51.7568352073" lon="-2.0164445043"><ele>184.71</ele><time>2014-06-11T10:43:44Z</time></trkpt><trkpt lat="51.7568420805" lon="-2.0164360385"><ele>189.04</ele><time>2014-06-11T10:43:45Z</time></trkpt><trkpt lat="51.7568468582" lon="-2.0164252259"><ele>178.46</ele><time>2014-06-11T10:43:46Z</time></trkpt><trkpt lat="51.7568514682" lon="-2.0164105576"><ele>182.31</ele><time>2014-06-11T10:43:47Z</time></trkpt><trkpt lat="51.7568571679" lon="-2.0163946319"><ele>185.19</ele><time>2014-06-11T10:43:48Z</time></trkpt><trkpt lat="51.7569019273" lon="-2.0163209550"><ele>188.56</ele><time>2014-06-11T10:43:55Z</time></trkpt><trkpt lat="51.7569043580" lon="-2.0163112320"><ele>179.90</ele><time>2014-06-11T10:43:56Z</time></trkpt><trkpt lat="51.7569104768" lon="-2.0163065381"><ele>185.67</ele><time>2014-06-11T10:43:57Z</time></trkpt><trkpt lat="51.7569180205" lon="-2.0162781235"><ele>182.31</ele><time>2014-06-11T10:44:00Z</time></trkpt><trkpt lat="51.7569200322" lon="-2.0162697416"><ele>185.67</ele><time>2014-06-11T10:44:01Z</time></trkpt><trkpt lat="51.7569855787" lon="-2.0161963161"><ele>182.31</ele><time>2014-06-11T10:44:10Z</time></trkpt><trkpt lat="51.7569944635" lon="-2.0161883533"><ele>184.23</ele><time>2014-06-11T10:44:11Z</time></trkpt><trkpt lat="51.7570168432" lon="-2.0161756128"><ele>187.11</ele><time>2014-06-11T10:44:13Z</time></trkpt><trkpt lat="51.7570310924" lon="-2.0161555801"><ele>183.27</ele><time>2014-06-11T10:44:15Z</time></trkpt><trkpt lat="51.7570384685" lon="-2.0161440969"><ele>186.63</ele><time>2014-06-11T10:44:16Z</time></trkpt><trkpt lat="51.7570471019" lon="-2.0161363855"><ele>191.92</ele><time>2014-06-11T10:44:17Z</time></trkpt><trkpt lat="51.7570534721" lon="-2.0161286741"><ele>183.75</ele><time>2014-06-11T10:44:18Z</time></trkpt><trkpt lat="51.7570627760" lon="-2.0161088929"><ele>188.56</ele><time>2014-06-11T10:44:20Z</time></trkpt><trkpt lat="51.7570669670" lon="-2.0160968229"><ele>187.59</ele><time>2014-06-11T10:44:21Z</time></trkpt><trkpt lat="51.7570748460" lon="-2.0160877705"><ele>183.27</ele><time>2014-06-11T10:44:22Z</time></trkpt><trkpt lat="51.7570944596" lon="-2.0160686597"><ele>186.63</ele><time>2014-06-11T10:44:24Z</time></trkpt><trkpt lat="51.7571096309" lon="-2.0160601940"><ele>188.08</ele><time>2014-06-11T10:44:26Z</time></trkpt><trkpt lat="51.7571130674" lon="-2.0160532370"><ele>183.27</ele><time>2014-06-11T10:44:27Z</time></trkpt><trkpt lat="51.7571156658" lon="-2.0160443522"><ele>187.59</ele><time>2014-06-11T10:44:28Z</time></trkpt><trkpt lat="51.7571379617" lon="-2.0160020236"><ele>187.59</ele><time>2014-06-11T10:44:33Z</time></trkpt><trkpt lat="51.7571653705" lon="-2.0159535762"><ele>191.92</ele><time>2014-06-11T10:44:37Z</time></trkpt><trkpt lat="51.7571747582" lon="-2.0159449428"><ele>185.67</ele><time>2014-06-11T10:44:38Z</time></trkpt><trkpt lat="51.7571922764" lon="-2.0159267541"><ele>189.04</ele><time>2014-06-11T10:44:40Z</time></trkpt><trkpt lat="51.7571992334" lon="-2.0159174502"><ele>185.19</ele><time>2014-06-11T10:44:41Z</time></trkpt><trkpt lat="51.7572150752" lon="-2.0159002673"><ele>188.08</ele><time>2014-06-11T10:44:43Z</time></trkpt><trkpt lat="51.7572564818" lon="-2.0158571843"><ele>191.92</ele><time>2014-06-11T10:44:48Z</time></trkpt><trkpt lat="51.7572650313" lon="-2.0158490539"><ele>183.75</ele><time>2014-06-11T10:44:49Z</time></trkpt><trkpt lat="51.7572712339" lon="-2.0158407558"><ele>188.08</ele><time>2014-06-11T10:44:50Z</time></trkpt><trkpt lat="51.7572933622" lon="-2.0158024505"><ele>193.36</ele><time>2014-06-11T10:44:55Z</time></trkpt><trkpt lat="51.7572953738" lon="-2.0157919731"><ele>188.56</ele><time>2014-06-11T10:44:56Z</time></trkpt><trkpt lat="51.7573201843" lon="-2.0157603733"><ele>190.48</ele><time>2014-06-11T10:45:00Z</time></trkpt><trkpt lat="51.7573252972" lon="-2.0157512370"><ele>189.52</ele><time>2014-06-11T10:45:02Z</time></trkpt><trkpt lat="51.7573299911" lon="-2.0157219842"><ele>184.23</ele><time>2014-06-11T10:45:08Z</time></trkpt><trkpt lat="51.7573506106" lon="-2.0156732854"><ele>195.77</ele><time>2014-06-11T10:45:12Z</time></trkpt><trkpt lat="51.7573580705" lon="-2.0156653225"><ele>184.71</ele><time>2014-06-11T10:45:13Z</time></trkpt><trkpt lat="51.7573648598" lon="-2.0156578626"><ele>189.04</ele><time>2014-06-11T10:45:14Z</time></trkpt><trkpt lat="51.7573773488" lon="-2.0156347286"><ele>192.40</ele><time>2014-06-11T10:45:16Z</time></trkpt><trkpt lat="51.7573827133" lon="-2.0156266820"><ele>189.52</ele><time>2014-06-11T10:45:17Z</time></trkpt><trkpt lat="51.7574005667" lon="-2.0155967586"><ele>193.36</ele><time>2014-06-11T10:45:20Z</time></trkpt><trkpt lat="51.7574067693" lon="-2.0155841857"><ele>187.11</ele><time>2014-06-11T10:45:21Z</time></trkpt><trkpt lat="51.7574104574" lon="-2.0155740436"><ele>188.56</ele><time>2014-06-11T10:45:22Z</time></trkpt><trkpt lat="51.7574242037" lon="-2.0155487303"><ele>190.00</ele><time>2014-06-11T10:45:24Z</time></trkpt><trkpt lat="51.7574336752" lon="-2.0155054796"><ele>189.04</ele><time>2014-06-11T10:45:33Z</time></trkpt><trkpt lat="51.7574262992" lon="-2.0155098382"><ele>190.00</ele><time>2014-06-11T10:45:55Z</time></trkpt><trkpt lat="51.7574226949" lon="-2.0155106764"><ele>189.52</ele><time>2014-06-11T10:46:16Z</time></trkpt><trkpt lat="51.7574573122" lon="-2.0155215729"><ele>189.52</ele><time>2014-06-11T10:46:44Z</time></trkpt><trkpt lat="51.7575101182" lon="-2.0155193098"><ele>190.48</ele><time>2014-06-11T10:46:55Z</time></trkpt><trkpt lat="51.7575641815" lon="-2.0154704433"><ele>191.44</ele><time>2014-06-11T10:47:05Z</time></trkpt><trkpt lat="51.7575703003" lon="-2.0154269412"><ele>190.96</ele><time>2014-06-11T10:47:20Z</time></trkpt><trkpt lat="51.7575984634" lon="-2.0154127758"><ele>190.96</ele><time>2014-06-11T10:47:35Z</time></trkpt><trkpt lat="51.7576003075" lon="-2.0154130273"><ele>190.96</ele><time>2014-06-11T10:47:52Z</time></trkpt><trkpt lat="51.7577122059" lon="-2.0153288729"><ele>191.92</ele><time>2014-06-11T10:48:07Z</time></trkpt><trkpt lat="51.7578548659" lon="-2.0152769051"><ele>192.88</ele><time>2014-06-11T10:48:22Z</time></trkpt><trkpt lat="51.7579238489" lon="-2.0152905677"><ele>192.88</ele><time>2014-06-11T10:48:28Z</time></trkpt><trkpt lat="51.7580885533" lon="-2.0152992848"><ele>193.36</ele><time>2014-06-11T10:48:43Z</time></trkpt><trkpt lat="51.7582571134" lon="-2.0153010450"><ele>194.32</ele><time>2014-06-11T10:48:59Z</time></trkpt><trkpt lat="51.7584053893" lon="-2.0153124444"><ele>194.80</ele><time>2014-06-11T10:49:13Z</time></trkpt><trkpt lat="51.7585036252" lon="-2.0152991172"><ele>194.80</ele><time>2014-06-11T10:49:22Z</time></trkpt><trkpt lat="51.7586001009" lon="-2.0152955968"><ele>194.80</ele><time>2014-06-11T10:49:31Z</time></trkpt><trkpt lat="51.7587340437" lon="-2.0153059065"><ele>194.80</ele><time>2014-06-11T10:49:45Z</time></trkpt><trkpt lat="51.7588420026" lon="-2.0152952615"><ele>195.28</ele><time>2014-06-11T10:49:57Z</time></trkpt><trkpt lat="51.7589596007" lon="-2.0153134502"><ele>195.28</ele><time>2014-06-11T10:50:11Z</time></trkpt><trkpt lat="51.7590626981" lon="-2.0153072476"><ele>195.77</ele><time>2014-06-11T10:50:26Z</time></trkpt><trkpt lat="51.7590687331" lon="-2.0152852871"><ele>195.77</ele><time>2014-06-11T10:50:51Z</time></trkpt><trkpt lat="51.7590817250" lon="-2.0152740553"><ele>195.77</ele><time>2014-06-11T10:50:53Z</time></trkpt><trkpt lat="51.7591945454" lon="-2.0152909029"><ele>195.77</ele><time>2014-06-11T10:51:02Z</time></trkpt><trkpt lat="51.7593675479" lon="-2.0152546931"><ele>196.73</ele><time>2014-06-11T10:51:17Z</time></trkpt><trkpt lat="51.7595122196" lon="-2.0152352471"><ele>195.77</ele><time>2014-06-11T10:51:30Z</time></trkpt><trkpt lat="51.7596268002" lon="-2.0152046531"><ele>196.25</ele><time>2014-06-11T10:51:42Z</time></trkpt><trkpt lat="51.7597032432" lon="-2.0152215008"><ele>196.25</ele><time>2014-06-11T10:51:51Z</time></trkpt><trkpt lat="51.7599047441" lon="-2.0152236801"><ele>196.73</ele><time>2014-06-11T10:52:06Z</time></trkpt><trkpt lat="51.7600374296" lon="-2.0152056590"><ele>196.25</ele><time>2014-06-11T10:52:18Z</time></trkpt><trkpt lat="51.7601701152" lon="-2.0151725505"><ele>196.73</ele><time>2014-06-11T10:52:32Z</time></trkpt><trkpt lat="51.7602964304" lon="-2.0151702873"><ele>196.73</ele><time>2014-06-11T10:52:46Z</time></trkpt><trkpt lat="51.7604264338" lon="-2.0151671022"><ele>196.73</ele><time>2014-06-11T10:53:00Z</time></trkpt><trkpt lat="51.7605353147" lon="-2.0151708741"><ele>196.25</ele><time>2014-06-11T10:53:13Z</time></trkpt><trkpt lat="51.7606234085" lon="-2.0151385199"><ele>196.25</ele><time>2014-06-11T10:53:25Z</time></trkpt><trkpt lat="51.7606848478" lon="-2.0151308924"><ele>196.25</ele><time>2014-06-11T10:53:38Z</time></trkpt><trkpt lat="51.7607343011" lon="-2.0151038188"><ele>196.25</ele><time>2014-06-11T10:53:46Z</time></trkpt><trkpt lat="51.7607906274" lon="-2.0150978677"><ele>195.77</ele><time>2014-06-11T10:53:51Z</time></trkpt><trkpt lat="51.7608665675" lon="-2.0150919165"><ele>196.25</ele><time>2014-06-11T10:53:57Z</time></trkpt><trkpt lat="51.7609819025" lon="-2.0151028130"><ele>196.25</ele><time>2014-06-11T10:54:12Z</time></trkpt><trkpt lat="51.7610197049" lon="-2.0151084289"><ele>195.77</ele><time>2014-06-11T10:54:17Z</time></trkpt><trkpt lat="51.7610538192" lon="-2.0151493326"><ele>195.77</ele><time>2014-06-11T10:54:29Z</time></trkpt><trkpt lat="51.7610795517" lon="-2.0151649229"><ele>196.25</ele><time>2014-06-11T10:54:34Z</time></trkpt><trkpt lat="51.7611134984" lon="-2.0151498355"><ele>196.25</ele><time>2014-06-11T10:54:47Z</time></trkpt><trkpt lat="51.7611159291" lon="-2.0151393581"><ele>197.21</ele><time>2014-06-11T10:54:55Z</time></trkpt><trkpt lat="51.7611158453" lon="-2.0151392743"><ele>191.92</ele><time>2014-06-11T10:54:56Z</time></trkpt><trkpt lat="51.7611156777" lon="-2.0151392743"><ele>193.84</ele><time>2014-06-11T10:54:57Z</time></trkpt><trkpt lat="51.7611155100" lon="-2.0151391905"><ele>197.21</ele><time>2014-06-11T10:54:58Z</time></trkpt><trkpt lat="51.7611097265" lon="-2.0151361730"><ele>196.25</ele><time>2014-06-11T10:54:59Z</time></trkpt><trkpt lat="51.7610788811" lon="-2.0151137933"><ele>196.73</ele><time>2014-06-11T10:55:09Z</time></trkpt><trkpt lat="51.7610343732" lon="-2.0151451416"><ele>196.25</ele><time>2014-06-11T10:55:15Z</time></trkpt><trkpt lat="51.7610171903" lon="-2.0151835307"><ele>192.88</ele><time>2014-06-11T10:55:19Z</time></trkpt><trkpt lat="51.7610093951" lon="-2.0151956007"><ele>196.25</ele><time>2014-06-11T10:55:21Z</time></trkpt><trkpt lat="51.7610891908" lon="-2.0151665993"><ele>197.21</ele><time>2014-06-11T10:55:40Z</time></trkpt><trkpt lat="51.7611114029" lon="-2.0151615702"><ele>197.21</ele><time>2014-06-11T10:55:42Z</time></trkpt><trkpt lat="51.7611588445" lon="-2.0150619093"><ele>196.25</ele><time>2014-06-11T10:55:50Z</time></trkpt><trkpt lat="51.7612909433" lon="-2.0148535352"><ele>196.25</ele><time>2014-06-11T10:56:09Z</time></trkpt><trkpt lat="51.7614500318" lon="-2.0146403834"><ele>193.36</ele><time>2014-06-11T10:56:27Z</time></trkpt><trkpt lat="51.7614652030" lon="-2.0146207698"><ele>194.80</ele><time>2014-06-11T10:56:29Z</time></trkpt><trkpt lat="51.7615863215" lon="-2.0144290756"><ele>194.80</ele><time>2014-06-11T10:56:46Z</time></trkpt><trkpt lat="51.7616888322" lon="-2.0142887626"><ele>195.28</ele><time>2014-06-11T10:56:57Z</time></trkpt><trkpt lat="51.7617789377" lon="-2.0142195281"><ele>191.92</ele><time>2014-06-11T10:57:07Z</time></trkpt><trkpt lat="51.7618638463" lon="-2.0142961387"><ele>194.32</ele><time>2014-06-11T10:57:14Z</time></trkpt><trkpt lat="51.7620857153" lon="-2.0145799499"><ele>192.40</ele><time>2014-06-11T10:57:38Z</time></trkpt><trkpt lat="51.7621832807" lon="-2.0146762580"><ele>189.04</ele><time>2014-06-11T10:57:47Z</time></trkpt><trkpt lat="51.7624369171" lon="-2.0148612466"><ele>188.08</ele><time>2014-06-11T10:58:09Z</time></trkpt><trkpt lat="51.7625419423" lon="-2.0149835385"><ele>186.63</ele><time>2014-06-11T10:58:21Z</time></trkpt><trkpt lat="51.7625651602" lon="-2.0150587242"><ele>187.59</ele><time>2014-06-11T10:58:25Z</time></trkpt><trkpt lat="51.7625716142" lon="-2.0151272882"><ele>189.04</ele><time>2014-06-11T10:58:28Z</time></trkpt><trkpt lat="51.7625258490" lon="-2.0153137017"><ele>187.59</ele><time>2014-06-11T10:58:39Z</time></trkpt><trkpt lat="51.7625087500" lon="-2.0154320542"><ele>189.04</ele><time>2014-06-11T10:58:45Z</time></trkpt><trkpt lat="51.7624344863" lon="-2.0158452820"><ele>189.52</ele><time>2014-06-11T10:59:04Z</time></trkpt><trkpt lat="51.7624318879" lon="-2.0158788934"><ele>186.15</ele><time>2014-06-11T10:59:06Z</time></trkpt><trkpt lat="51.7624194827" lon="-2.0159990899"><ele>190.48</ele><time>2014-06-11T10:59:13Z</time></trkpt><trkpt lat="51.7624182254" lon="-2.0160310250"><ele>186.15</ele><time>2014-06-11T10:59:15Z</time></trkpt><trkpt lat="51.7624030542" lon="-2.0160938054"><ele>190.00</ele><time>2014-06-11T10:59:19Z</time></trkpt><trkpt lat="51.7623563670" lon="-2.0161770377"><ele>188.08</ele><time>2014-06-11T10:59:24Z</time></trkpt><trkpt lat="51.7623142060" lon="-2.0162641257"><ele>191.44</ele><time>2014-06-11T10:59:29Z</time></trkpt><trkpt lat="51.7623034772" lon="-2.0162911154"><ele>188.08</ele><time>2014-06-11T10:59:31Z</time></trkpt><trkpt lat="51.7622581311" lon="-2.0163820591"><ele>191.44</ele><time>2014-06-11T10:59:38Z</time></trkpt><trkpt lat="51.7622526828" lon="-2.0163927041"><ele>187.11</ele><time>2014-06-11T10:59:39Z</time></trkpt><trkpt lat="51.7622351646" lon="-2.0164288301"><ele>190.00</ele><time>2014-06-11T10:59:42Z</time></trkpt><trkpt lat="51.7621885613" lon="-2.0165283233"><ele>188.08</ele><time>2014-06-11T10:59:49Z</time></trkpt><trkpt lat="51.7621587217" lon="-2.0165891759"><ele>190.96</ele><time>2014-06-11T10:59:53Z</time></trkpt><trkpt lat="51.7621470708" lon="-2.0166148245"><ele>186.63</ele><time>2014-06-11T10:59:55Z</time></trkpt><trkpt lat="51.7621401977" lon="-2.0166284032"><ele>190.00</ele><time>2014-06-11T10:59:56Z</time></trkpt><trkpt lat="51.7620642576" lon="-2.0167972986"><ele>189.52</ele><time>2014-06-11T11:00:09Z</time></trkpt><trkpt lat="51.7620401178" lon="-2.0168801956"><ele>189.04</ele><time>2014-06-11T11:00:15Z</time></trkpt><trkpt lat="51.7620360944" lon="-2.0169482566"><ele>189.04</ele><time>2014-06-11T11:00:20Z</time></trkpt><trkpt lat="51.7620411236" lon="-2.0169783477"><ele>191.44</ele><time>2014-06-11T11:00:23Z</time></trkpt><trkpt lat="51.7620443925" lon="-2.0169958659"><ele>194.80</ele><time>2014-06-11T11:00:24Z</time></trkpt><trkpt lat="51.7620485835" lon="-2.0170073491"><ele>190.48</ele><time>2014-06-11T11:00:25Z</time></trkpt><trkpt lat="51.7620491702" lon="-2.0170184970"><ele>186.15</ele><time>2014-06-11T11:00:26Z</time></trkpt><trkpt lat="51.7620481644" lon="-2.0170303993"><ele>190.00</ele><time>2014-06-11T11:00:27Z</time></trkpt><trkpt lat="51.7619681172" lon="-2.0171996299"><ele>189.52</ele><time>2014-06-11T11:00:45Z</time></trkpt><trkpt lat="51.7619392835" lon="-2.0172650926"><ele>191.44</ele><time>2014-06-11T11:00:50Z</time></trkpt><trkpt lat="51.7619197536" lon="-2.0173020568"><ele>189.52</ele><time>2014-06-11T11:00:53Z</time></trkpt><trkpt lat="51.7618956137" lon="-2.0173474867"><ele>191.44</ele><time>2014-06-11T11:00:56Z</time></trkpt><trkpt lat="51.7618741561" lon="-2.0173839480"><ele>189.52</ele><time>2014-06-11T11:00:58Z</time></trkpt><trkpt lat="51.7618041672" lon="-2.0175297093"><ele>190.00</ele><time>2014-06-11T11:01:06Z</time></trkpt><trkpt lat="51.7617667001" lon="-2.0175910648"><ele>190.96</ele><time>2014-06-11T11:01:10Z</time></trkpt><trkpt lat="51.7617200967" lon="-2.0176438708"><ele>190.00</ele><time>2014-06-11T11:01:14Z</time></trkpt><trkpt lat="51.7616797797" lon="-2.0176951680"><ele>191.44</ele><time>2014-06-11T11:01:18Z</time></trkpt><trkpt lat="51.7614988144" lon="-2.0179597847"><ele>190.48</ele><time>2014-06-11T11:01:40Z</time></trkpt><trkpt lat="51.7614698131" lon="-2.0180135127"><ele>190.00</ele><time>2014-06-11T11:01:44Z</time></trkpt><trkpt lat="51.7614325974" lon="-2.0180574339"><ele>191.44</ele><time>2014-06-11T11:01:48Z</time></trkpt><trkpt lat="51.7613987345" lon="-2.0180926379"><ele>189.52</ele><time>2014-06-11T11:01:53Z</time></trkpt><trkpt lat="51.7613611836" lon="-2.0181675721"><ele>190.00</ele><time>2014-06-11T11:01:59Z</time></trkpt><trkpt lat="51.7613017559" lon="-2.0182639640"><ele>191.44</ele><time>2014-06-11T11:02:06Z</time></trkpt><trkpt lat="51.7612519674" lon="-2.0183385629"><ele>191.44</ele><time>2014-06-11T11:02:12Z</time></trkpt><trkpt lat="51.7612028494" lon="-2.0184074622"><ele>189.52</ele><time>2014-06-11T11:02:17Z</time></trkpt><trkpt lat="51.7611617781" lon="-2.0184530597"><ele>190.96</ele><time>2014-06-11T11:02:21Z</time></trkpt><trkpt lat="51.7611263227" lon="-2.0185028482"><ele>187.59</ele><time>2014-06-11T11:02:35Z</time></trkpt><trkpt lat="51.7611238081" lon="-2.0185093861"><ele>190.96</ele><time>2014-06-11T11:02:36Z</time></trkpt><trkpt lat="51.7609990016" lon="-2.0186963025"><ele>188.56</ele><time>2014-06-11T11:02:55Z</time></trkpt><trkpt lat="51.7608861811" lon="-2.0188396331"><ele>188.08</ele><time>2014-06-11T11:03:10Z</time></trkpt><trkpt lat="51.7607956566" lon="-2.0189561415"><ele>190.96</ele><time>2014-06-11T11:03:18Z</time></trkpt><trkpt lat="51.7607612908" lon="-2.0190033317"><ele>187.11</ele><time>2014-06-11T11:03:21Z</time></trkpt><trkpt lat="51.7605998553" lon="-2.0192360971"><ele>187.59</ele><time>2014-06-11T11:03:41Z</time></trkpt><trkpt lat="51.7605127674" lon="-2.0193684474"><ele>187.59</ele><time>2014-06-11T11:03:51Z</time></trkpt><trkpt lat="51.7603729572" lon="-2.0194494165"><ele>183.75</ele><time>2014-06-11T11:04:04Z</time></trkpt><trkpt lat="51.7603373341" lon="-2.0194698684"><ele>187.59</ele><time>2014-06-11T11:04:10Z</time></trkpt><trkpt lat="51.7603314668" lon="-2.0194726344"><ele>184.23</ele><time>2014-06-11T11:04:12Z</time></trkpt><trkpt lat="51.7603319697" lon="-2.0194795076"><ele>185.67</ele><time>2014-06-11T11:04:13Z</time></trkpt><trkpt lat="51.7603283655" lon="-2.0195001271"><ele>187.11</ele><time>2014-06-11T11:04:15Z</time></trkpt><trkpt lat="51.7601699475" lon="-2.0197617263"><ele>183.27</ele><time>2014-06-11T11:04:34Z</time></trkpt><trkpt lat="51.7600928340" lon="-2.0199525822"><ele>182.31</ele><time>2014-06-11T11:04:53Z</time></trkpt><trkpt lat="51.7600472365" lon="-2.0200623013"><ele>182.31</ele><time>2014-06-11T11:05:01Z</time></trkpt><trkpt lat="51.7598270439" lon="-2.0202706754"><ele>179.42</ele><time>2014-06-11T11:05:22Z</time></trkpt><trkpt lat="51.7597989645" lon="-2.0203489624"><ele>179.42</ele><time>2014-06-11T11:05:28Z</time></trkpt><trkpt lat="51.7597126309" lon="-2.0205940492"><ele>177.02</ele><time>2014-06-11T11:05:49Z</time></trkpt><trkpt lat="51.7597642634" lon="-2.0209139865"><ele>174.62</ele><time>2014-06-11T11:06:10Z</time></trkpt><trkpt lat="51.7597776745" lon="-2.0209023356"><ele>177.98</ele><time>2014-06-11T11:06:14Z</time></trkpt><trkpt lat="51.7597840447" lon="-2.0208812132"><ele>172.69</ele><time>2014-06-11T11:06:16Z</time></trkpt><trkpt lat="51.7597863916" lon="-2.0208698139"><ele>175.58</ele><time>2014-06-11T11:06:17Z</time></trkpt><trkpt lat="51.7595530394" lon="-2.0210044272"><ele>172.69</ele><time>2014-06-11T11:06:32Z</time></trkpt><trkpt lat="51.7594660353" lon="-2.0211333409"><ele>171.25</ele><time>2014-06-11T11:06:50Z</time></trkpt><trkpt lat="51.7592937034" lon="-2.0214075968"><ele>170.77</ele><time>2014-06-11T11:06:59Z</time></trkpt><trkpt lat="51.7592191882" lon="-2.0215532742"><ele>169.33</ele><time>2014-06-11T11:07:05Z</time></trkpt><trkpt lat="51.7590580881" lon="-2.0218562800"><ele>166.45</ele><time>2014-06-11T11:07:27Z</time></trkpt><trkpt lat="51.7590010911" lon="-2.0219558571"><ele>167.41</ele><time>2014-06-11T11:07:37Z</time></trkpt><trkpt lat="51.7589829862" lon="-2.0219740458"><ele>167.41</ele><time>2014-06-11T11:07:46Z</time></trkpt><trkpt lat="51.7589634564" lon="-2.0220139436"><ele>163.56</ele><time>2014-06-11T11:07:56Z</time></trkpt><trkpt lat="51.7589011788" lon="-2.0220999420"><ele>165.96</ele><time>2014-06-11T11:07:59Z</time></trkpt><trkpt lat="51.7588348780" lon="-2.0222379919"><ele>163.08</ele><time>2014-06-11T11:08:04Z</time></trkpt><trkpt lat="51.7587822396" lon="-2.0223293547"><ele>166.45</ele><time>2014-06-11T11:08:08Z</time></trkpt><trkpt lat="51.7587593570" lon="-2.0224073902"><ele>164.04</ele><time>2014-06-11T11:08:11Z</time></trkpt><trkpt lat="51.7586716823" lon="-2.0225811470"><ele>165.00</ele><time>2014-06-11T11:08:22Z</time></trkpt><trkpt lat="51.7586499732" lon="-2.0226622000"><ele>161.64</ele><time>2014-06-11T11:08:31Z</time></trkpt><trkpt lat="51.7586304434" lon="-2.0228353702"><ele>160.68</ele><time>2014-06-11T11:08:43Z</time></trkpt><trkpt lat="51.7585721891" lon="-2.0230103005"><ele>161.16</ele><time>2014-06-11T11:08:56Z</time></trkpt><trkpt lat="51.7585716862" lon="-2.0230471808"><ele>157.31</ele><time>2014-06-11T11:09:00Z</time></trkpt><trkpt lat="51.7585313693" lon="-2.0231615100"><ele>158.27</ele><time>2014-06-11T11:09:08Z</time></trkpt><trkpt lat="51.7584312055" lon="-2.0234477520"><ele>154.43</ele><time>2014-06-11T11:09:24Z</time></trkpt><trkpt lat="51.7584058922" lon="-2.0235314034"><ele>157.31</ele><time>2014-06-11T11:09:29Z</time></trkpt><trkpt lat="51.7583960015" lon="-2.0235809404"><ele>154.43</ele><time>2014-06-11T11:09:32Z</time></trkpt><trkpt lat="51.7583600432" lon="-2.0237691142"><ele>156.83</ele><time>2014-06-11T11:09:43Z</time></trkpt><trkpt lat="51.7583420221" lon="-2.0238415338"><ele>152.51</ele><time>2014-06-11T11:09:48Z</time></trkpt><trkpt lat="51.7583240010" lon="-2.0238877181"><ele>155.87</ele><time>2014-06-11T11:09:51Z</time></trkpt><trkpt lat="51.7582571134" lon="-2.0240518358"><ele>152.51</ele><time>2014-06-11T11:10:02Z</time></trkpt><trkpt lat="51.7582509946" lon="-2.0240703598"><ele>152.99</ele><time>2014-06-11T11:10:03Z</time></trkpt><trkpt lat="51.7582370806" lon="-2.0241139457"><ele>156.35</ele><time>2014-06-11T11:10:06Z</time></trkpt><trkpt lat="51.7582307942" lon="-2.0241248421"><ele>152.99</ele><time>2014-06-11T11:10:07Z</time></trkpt><trkpt lat="51.7582271062" lon="-2.0241412707"><ele>152.99</ele><time>2014-06-11T11:10:08Z</time></trkpt><trkpt lat="51.7582057323" lon="-2.0242328849"><ele>156.35</ele><time>2014-06-11T11:10:15Z</time></trkpt><trkpt lat="51.7582002841" lon="-2.0242589526"><ele>151.06</ele><time>2014-06-11T11:10:17Z</time></trkpt><trkpt lat="51.7581996974" lon="-2.0242715254"><ele>152.03</ele><time>2014-06-11T11:10:18Z</time></trkpt><trkpt lat="51.7581706122" lon="-2.0243355632"><ele>154.91</ele><time>2014-06-11T11:10:24Z</time></trkpt><trkpt lat="51.7581675947" lon="-2.0243690070"><ele>150.10</ele><time>2014-06-11T11:10:26Z</time></trkpt><trkpt lat="51.7581655830" lon="-2.0243913028"><ele>151.06</ele><time>2014-06-11T11:10:27Z</time></trkpt><trkpt lat="51.7581160460" lon="-2.0246317796"><ele>150.58</ele><time>2014-06-11T11:10:45Z</time></trkpt><trkpt lat="51.7580987792" lon="-2.0247243997"><ele>150.58</ele><time>2014-06-11T11:10:51Z</time></trkpt><trkpt lat="51.7580720410" lon="-2.0248829853"><ele>149.62</ele><time>2014-06-11T11:11:02Z</time></trkpt><trkpt lat="51.7579881381" lon="-2.0251903497"><ele>148.18</ele><time>2014-06-11T11:11:21Z</time></trkpt><trkpt lat="51.7579228431" lon="-2.0253511146"><ele>150.10</ele><time>2014-06-11T11:11:38Z</time></trkpt><trkpt lat="51.7578909919" lon="-2.0254126377"><ele>146.74</ele><time>2014-06-11T11:11:50Z</time></trkpt><trkpt lat="51.7578735575" lon="-2.0254630130"><ele>148.66</ele><time>2014-06-11T11:11:56Z</time></trkpt><trkpt lat="51.7578580510" lon="-2.0254857279"><ele>145.78</ele><time>2014-06-11T11:11:58Z</time></trkpt><trkpt lat="51.7578239366" lon="-2.0255203452"><ele>149.62</ele><time>2014-06-11T11:12:01Z</time></trkpt><trkpt lat="51.7578030657" lon="-2.0255341753"><ele>146.26</ele><time>2014-06-11T11:12:03Z</time></trkpt><trkpt lat="51.7577426322" lon="-2.0256396197"><ele>146.74</ele><time>2014-06-11T11:12:12Z</time></trkpt><trkpt lat="51.7576905806" lon="-2.0256613288"><ele>145.78</ele><time>2014-06-11T11:12:19Z</time></trkpt><trkpt lat="51.7576438095" lon="-2.0256700460"><ele>151.06</ele><time>2014-06-11T11:12:23Z</time></trkpt><trkpt lat="51.7576328292" lon="-2.0256718062"><ele>146.26</ele><time>2014-06-11T11:12:24Z</time></trkpt><trkpt lat="51.7575396225" lon="-2.0257724728"><ele>147.22</ele><time>2014-06-11T11:12:43Z</time></trkpt><trkpt lat="51.7575150635" lon="-2.0258916635"><ele>147.70</ele><time>2014-06-11T11:12:57Z</time></trkpt><trkpt lat="51.7575330008" lon="-2.0258777495"><ele>142.41</ele><time>2014-06-11T11:13:07Z</time></trkpt><trkpt lat="51.7575335875" lon="-2.0258768275"><ele>147.70</ele><time>2014-06-11T11:13:08Z</time></trkpt><trkpt lat="51.7575283907" lon="-2.0258388575"><ele>146.74</ele><time>2014-06-11T11:13:30Z</time></trkpt><trkpt lat="51.7574567255" lon="-2.0257848781"><ele>146.74</ele><time>2014-06-11T11:13:48Z</time></trkpt><trkpt lat="51.7574760038" lon="-2.0258382708"><ele>146.26</ele><time>2014-06-11T11:14:09Z</time></trkpt><trkpt lat="51.7574780993" lon="-2.0258375164"><ele>149.62</ele><time>2014-06-11T11:14:12Z</time></trkpt><trkpt lat="51.7574782670" lon="-2.0258386061"><ele>145.30</ele><time>2014-06-11T11:14:13Z</time></trkpt><trkpt lat="51.7574924324" lon="-2.0259442180"><ele>149.62</ele><time>2014-06-11T11:14:30Z</time></trkpt><trkpt lat="51.7574936897" lon="-2.0259498339"><ele>147.22</ele><time>2014-06-11T11:14:34Z</time></trkpt><trkpt lat="51.7574705556" lon="-2.0259525161"><ele>148.66</ele><time>2014-06-11T11:14:55Z</time></trkpt><trkpt lat="51.7574412189" lon="-2.0259911567"><ele>145.30</ele><time>2014-06-11T11:15:04Z</time></trkpt><trkpt lat="51.7574409675" lon="-2.0259918272"><ele>148.66</ele><time>2014-06-11T11:15:05Z</time></trkpt><trkpt lat="51.7574382015" lon="-2.0260065794"><ele>148.66</ele><time>2014-06-11T11:15:06Z</time></trkpt><trkpt lat="51.7574314121" lon="-2.0260348264"><ele>142.41</ele><time>2014-06-11T11:15:09Z</time></trkpt><trkpt lat="51.7574291490" lon="-2.0260411128"><ele>148.66</ele><time>2014-06-11T11:15:10Z</time></trkpt><trkpt lat="51.7574275564" lon="-2.0260509197"><ele>152.51</ele><time>2014-06-11T11:15:11Z</time></trkpt><trkpt lat="51.7574301548" lon="-2.0260606427"><ele>144.82</ele><time>2014-06-11T11:15:12Z</time></trkpt><trkpt lat="51.7574360222" lon="-2.0260712039"><ele>148.66</ele><time>2014-06-11T11:15:13Z</time></trkpt><trkpt lat="51.7574485950" lon="-2.0260983612"><ele>146.26</ele><time>2014-06-11T11:15:15Z</time></trkpt><trkpt lat="51.7574560549" lon="-2.0261316374"><ele>149.62</ele><time>2014-06-11T11:15:17Z</time></trkpt><trkpt lat="51.7574398778" lon="-2.0262318011"><ele>146.26</ele><time>2014-06-11T11:15:23Z</time></trkpt><trkpt lat="51.7574214377" lon="-2.0262690168"><ele>152.03</ele><time>2014-06-11T11:15:25Z</time></trkpt><trkpt lat="51.7574107926" lon="-2.0262972638"><ele>145.30</ele><time>2014-06-11T11:15:26Z</time></trkpt><trkpt lat="51.7574026622" lon="-2.0263228286"><ele>150.10</ele><time>2014-06-11T11:15:27Z</time></trkpt><trkpt lat="51.7574022431" lon="-2.0263422746"><ele>153.95</ele><time>2014-06-11T11:15:28Z</time></trkpt><trkpt lat="51.7574033327" lon="-2.0263593737"><ele>143.37</ele><time>2014-06-11T11:15:29Z</time></trkpt><trkpt lat="51.7574041709" lon="-2.0263752993"><ele>150.58</ele><time>2014-06-11T11:15:30Z</time></trkpt><trkpt lat="51.7573915143" lon="-2.0264817495"><ele>145.78</ele><time>2014-06-11T11:15:38Z</time></trkpt><trkpt lat="51.7573900893" lon="-2.0264923107"><ele>151.54</ele><time>2014-06-11T11:15:39Z</time></trkpt><trkpt lat="51.7573901732" lon="-2.0265595336"><ele>147.22</ele><time>2014-06-11T11:15:46Z</time></trkpt><trkpt lat="51.7573941126" lon="-2.0265622158"><ele>152.51</ele><time>2014-06-11T11:15:47Z</time></trkpt><trkpt lat="51.7573921010" lon="-2.0265663229"><ele>149.14</ele><time>2014-06-11T11:15:52Z</time></trkpt><trkpt lat="51.7573846411" lon="-2.0265894569"><ele>153.47</ele><time>2014-06-11T11:15:53Z</time></trkpt><trkpt lat="51.7573754210" lon="-2.0266509801"><ele>148.66</ele><time>2014-06-11T11:15:56Z</time></trkpt><trkpt lat="51.7573751695" lon="-2.0266709290"><ele>153.95</ele><time>2014-06-11T11:15:57Z</time></trkpt><trkpt lat="51.7573723197" lon="-2.0267523173"><ele>157.31</ele><time>2014-06-11T11:16:01Z</time></trkpt><trkpt lat="51.7573721521" lon="-2.0267671533"><ele>153.47</ele><time>2014-06-11T11:16:02Z</time></trkpt><trkpt lat="51.7574294005" lon="-2.0269834902"><ele>152.03</ele><time>2014-06-11T11:16:22Z</time></trkpt><trkpt lat="51.7574355192" lon="-2.0269844122"><ele>155.39</ele><time>2014-06-11T11:16:24Z</time></trkpt><trkpt lat="51.7574106250" lon="-2.0269190334"><ele>148.66</ele><time>2014-06-11T11:16:32Z</time></trkpt><trkpt lat="51.7574050929" lon="-2.0269106515"><ele>152.99</ele><time>2014-06-11T11:16:33Z</time></trkpt><trkpt lat="51.7573905084" lon="-2.0268981624"><ele>155.87</ele><time>2014-06-11T11:16:35Z</time></trkpt><trkpt lat="51.7573406361" lon="-2.0268481225"><ele>152.99</ele><time>2014-06-11T11:16:38Z</time></trkpt><trkpt lat="51.7573253810" lon="-2.0268284250"><ele>152.99</ele><time>2014-06-11T11:16:39Z</time></trkpt><trkpt lat="51.7573110480" lon="-2.0268093981"><ele>156.35</ele><time>2014-06-11T11:16:40Z</time></trkpt><trkpt lat="51.7572587449" lon="-2.0267512277"><ele>151.06</ele><time>2014-06-11T11:16:43Z</time></trkpt><trkpt lat="51.7572395504" lon="-2.0267317817"><ele>156.83</ele><time>2014-06-11T11:16:44Z</time></trkpt><trkpt lat="51.7572221160" lon="-2.0267120842"><ele>156.83</ele><time>2014-06-11T11:16:45Z</time></trkpt><trkpt lat="51.7571771052" lon="-2.0266587753"><ele>151.54</ele><time>2014-06-11T11:16:48Z</time></trkpt><trkpt lat="51.7571650352" lon="-2.0266399160"><ele>156.35</ele><time>2014-06-11T11:16:49Z</time></trkpt><trkpt lat="51.7570984829" lon="-2.0265731961"><ele>153.47</ele><time>2014-06-11T11:16:55Z</time></trkpt><trkpt lat="51.7570885923" lon="-2.0265650656"><ele>157.79</ele><time>2014-06-11T11:16:56Z</time></trkpt><trkpt lat="51.7570781149" lon="-2.0265616290"><ele>158.27</ele><time>2014-06-11T11:16:57Z</time></trkpt><trkpt lat="51.7570533045" lon="-2.0265676640"><ele>153.95</ele><time>2014-06-11T11:17:00Z</time></trkpt><trkpt lat="51.7570455931" lon="-2.0265690051"><ele>156.83</ele><time>2014-06-11T11:17:01Z</time></trkpt><trkpt lat="51.7570170108" lon="-2.0265665743"><ele>158.75</ele><time>2014-06-11T11:17:04Z</time></trkpt><trkpt lat="51.7569725867" lon="-2.0265731961"><ele>159.72</ele><time>2014-06-11T11:17:09Z</time></trkpt><trkpt lat="51.7569542304" lon="-2.0265876129"><ele>155.87</ele><time>2014-06-11T11:17:11Z</time></trkpt><trkpt lat="51.7569460161" lon="-2.0265926421"><ele>160.20</ele><time>2014-06-11T11:17:12Z</time></trkpt><trkpt lat="51.7569235526" lon="-2.0266116690"><ele>155.87</ele><time>2014-06-11T11:17:20Z</time></trkpt><trkpt lat="51.7569230497" lon="-2.0266120881"><ele>161.16</ele><time>2014-06-11T11:17:21Z</time></trkpt><trkpt lat="51.7569295038" lon="-2.0266099088"><ele>156.83</ele><time>2014-06-11T11:17:38Z</time></trkpt><trkpt lat="51.7569296714" lon="-2.0266074780"><ele>161.16</ele><time>2014-06-11T11:17:39Z</time></trkpt><trkpt lat="51.7569245584" lon="-2.0266175363"><ele>159.24</ele><time>2014-06-11T11:18:00Z</time></trkpt><trkpt lat="51.7568690702" lon="-2.0267253276"><ele>160.20</ele><time>2014-06-11T11:18:14Z</time></trkpt><trkpt lat="51.7568610236" lon="-2.0267337095"><ele>157.79</ele><time>2014-06-11T11:18:15Z</time></trkpt><trkpt lat="51.7568122409" lon="-2.0267638005"><ele>160.20</ele><time>2014-06-11T11:18:20Z</time></trkpt><trkpt lat="51.7567559145" lon="-2.0267973281"><ele>159.72</ele><time>2014-06-11T11:18:27Z</time></trkpt><trkpt lat="51.7566985823" lon="-2.0268075541"><ele>159.24</ele><time>2014-06-11T11:18:33Z</time></trkpt><trkpt lat="51.7566760350" lon="-2.0267906226"><ele>160.68</ele><time>2014-06-11T11:18:35Z</time></trkpt><trkpt lat="51.7565260828" lon="-2.0267373137"><ele>159.72</ele><time>2014-06-11T11:18:48Z</time></trkpt><trkpt lat="51.7564081494" lon="-2.0267045405"><ele>159.72</ele><time>2014-06-11T11:19:00Z</time></trkpt><trkpt lat="51.7563019507" lon="-2.0266557578"><ele>163.56</ele><time>2014-06-11T11:19:14Z</time></trkpt><trkpt lat="51.7562915571" lon="-2.0266451128"><ele>161.16</ele><time>2014-06-11T11:19:15Z</time></trkpt><trkpt lat="51.7562855221" lon="-2.0266343839"><ele>156.83</ele><time>2014-06-11T11:19:16Z</time></trkpt><trkpt lat="51.7562794872" lon="-2.0266320370"><ele>160.68</ele><time>2014-06-11T11:19:17Z</time></trkpt><trkpt lat="51.7562201433" lon="-2.0266226493"><ele>159.72</ele><time>2014-06-11T11:19:24Z</time></trkpt><trkpt lat="51.7561730370" lon="-2.0266121719"><ele>160.20</ele><time>2014-06-11T11:19:29Z</time></trkpt><trkpt lat="51.7559649982" lon="-2.0264012832"><ele>159.72</ele><time>2014-06-11T11:19:50Z</time></trkpt><trkpt lat="51.7559318896" lon="-2.0263754670"><ele>159.24</ele><time>2014-06-11T11:19:56Z</time></trkpt><trkpt lat="51.7558909021" lon="-2.0263446216"><ele>159.72</ele><time>2014-06-11T11:20:00Z</time></trkpt><trkpt lat="51.7558583803" lon="-2.0263057295"><ele>160.68</ele><time>2014-06-11T11:20:02Z</time></trkpt><trkpt lat="51.7557600606" lon="-2.0262387581"><ele>159.24</ele><time>2014-06-11T11:20:10Z</time></trkpt><trkpt lat="51.7556593101" lon="-2.0261156280"><ele>157.31</ele><time>2014-06-11T11:20:18Z</time></trkpt><trkpt lat="51.7554923426" lon="-2.0260583796"><ele>155.39</ele><time>2014-06-11T11:20:39Z</time></trkpt><trkpt lat="51.7554605752" lon="-2.0260383468"><ele>156.35</ele><time>2014-06-11T11:20:42Z</time></trkpt><trkpt lat="51.7554505169" lon="-2.0260319766"><ele>152.99</ele><time>2014-06-11T11:20:44Z</time></trkpt><trkpt lat="51.7554356810" lon="-2.0260331500"><ele>153.95</ele><time>2014-06-11T11:20:46Z</time></trkpt><trkpt lat="51.7552577332" lon="-2.0259529352"><ele>153.95</ele><time>2014-06-11T11:21:06Z</time></trkpt><trkpt lat="51.7550941184" lon="-2.0259386860"><ele>155.39</ele><time>2014-06-11T11:21:23Z</time></trkpt><trkpt lat="51.7550926935" lon="-2.0259435475"><ele>154.91</ele><time>2014-06-11T11:21:42Z</time></trkpt><trkpt lat="51.7550796177" lon="-2.0259378478"><ele>154.91</ele><time>2014-06-11T11:21:53Z</time></trkpt><trkpt lat="51.7549411487" lon="-2.0257842913"><ele>156.35</ele><time>2014-06-11T11:22:10Z</time></trkpt><trkpt lat="51.7546750233" lon="-2.0256423019"><ele>157.79</ele><time>2014-06-11T11:22:35Z</time></trkpt><trkpt lat="51.7544860113" lon="-2.0255357679"><ele>157.31</ele><time>2014-06-11T11:22:55Z</time></trkpt><trkpt lat="51.7543761246" lon="-2.0255063474"><ele>158.27</ele><time>2014-06-11T11:23:07Z</time></trkpt><trkpt lat="51.7542954907" lon="-2.0253887493"><ele>159.72</ele><time>2014-06-11T11:23:17Z</time></trkpt><trkpt lat="51.7541740369" lon="-2.0252213627"><ele>161.64</ele><time>2014-06-11T11:23:27Z</time></trkpt><trkpt lat="51.7541706841" lon="-2.0252159145"><ele>161.16</ele><time>2014-06-11T11:23:28Z</time></trkpt><trkpt lat="51.7541601229" lon="-2.0252035931"><ele>159.72</ele><time>2014-06-11T11:23:30Z</time></trkpt><trkpt lat="51.7540793214" lon="-2.0252542198"><ele>159.72</ele><time>2014-06-11T11:23:44Z</time></trkpt><trkpt lat="51.7540203966" lon="-2.0252079517"><ele>161.64</ele><time>2014-06-11T11:23:52Z</time></trkpt><trkpt lat="51.7538432870" lon="-2.0250268187"><ele>160.68</ele><time>2014-06-11T11:24:13Z</time></trkpt><trkpt lat="51.7536325660" lon="-2.0246939734"><ele>160.68</ele><time>2014-06-11T11:24:34Z</time></trkpt><trkpt lat="51.7535230145" lon="-2.0244148560"><ele>156.83</ele><time>2014-06-11T11:24:50Z</time></trkpt><trkpt lat="51.7535225954" lon="-2.0244141016"><ele>160.20</ele><time>2014-06-11T11:24:51Z</time></trkpt><trkpt lat="51.7534588929" lon="-2.0241731219"><ele>157.31</ele><time>2014-06-11T11:25:05Z</time></trkpt><trkpt lat="51.7534436379" lon="-2.0242292807"><ele>157.79</ele><time>2014-06-11T11:25:23Z</time></trkpt><trkpt lat="51.7533722240" lon="-2.0241554361"><ele>156.83</ele><time>2014-06-11T11:25:34Z</time></trkpt><trkpt lat="51.7531664483" lon="-2.0237805974"><ele>155.39</ele><time>2014-06-11T11:25:50Z</time></trkpt><trkpt lat="51.7531224433" lon="-2.0237341616"><ele>155.39</ele><time>2014-06-11T11:25:56Z</time></trkpt><trkpt lat="51.7530739121" lon="-2.0235920046"><ele>151.06</ele><time>2014-06-11T11:26:05Z</time></trkpt><trkpt lat="51.7530614231" lon="-2.0235497598"><ele>156.83</ele><time>2014-06-11T11:26:06Z</time></trkpt><trkpt lat="51.7530544661" lon="-2.0235249493"><ele>156.83</ele><time>2014-06-11T11:26:07Z</time></trkpt><trkpt lat="51.7530531250" lon="-2.0235170703"><ele>152.99</ele><time>2014-06-11T11:26:08Z</time></trkpt><trkpt lat="51.7530522868" lon="-2.0235115383"><ele>152.51</ele><time>2014-06-11T11:26:09Z</time></trkpt><trkpt lat="51.7530507781" lon="-2.0234998036"><ele>157.79</ele><time>2014-06-11T11:26:11Z</time></trkpt><trkpt lat="51.7530496046" lon="-2.0234900806"><ele>155.87</ele><time>2014-06-11T11:26:12Z</time></trkpt><trkpt lat="51.7530224472" lon="-2.0233546291"><ele>152.99</ele><time>2014-06-11T11:26:29Z</time></trkpt><trkpt lat="51.7530215252" lon="-2.0233517792"><ele>155.87</ele><time>2014-06-11T11:26:30Z</time></trkpt><trkpt lat="51.7530201003" lon="-2.0233444870"><ele>154.43</ele><time>2014-06-11T11:26:33Z</time></trkpt><trkpt lat="51.7530535441" lon="-2.0232423954"><ele>154.43</ele><time>2014-06-11T11:26:39Z</time></trkpt><trkpt lat="51.7530678771" lon="-2.0231913496"><ele>155.39</ele><time>2014-06-11T11:26:42Z</time></trkpt><trkpt lat="51.7530915979" lon="-2.0230555627"><ele>151.06</ele><time>2014-06-11T11:26:48Z</time></trkpt><trkpt lat="51.7531211860" lon="-2.0229851548"><ele>154.43</ele><time>2014-06-11T11:26:52Z</time></trkpt><trkpt lat="51.7531672027" lon="-2.0228072908"><ele>152.99</ele><time>2014-06-11T11:27:11Z</time></trkpt><trkpt lat="51.7531634308" lon="-2.0228492841"><ele>153.95</ele><time>2014-06-11T11:27:29Z</time></trkpt><trkpt lat="51.7531681247" lon="-2.0228219591"><ele>152.99</ele><time>2014-06-11T11:27:31Z</time></trkpt><trkpt lat="51.7531910073" lon="-2.0227434207"><ele>151.06</ele><time>2014-06-11T11:27:48Z</time></trkpt><trkpt lat="51.7531775124" lon="-2.0226274151"><ele>148.18</ele><time>2014-06-11T11:28:03Z</time></trkpt><trkpt lat="51.7531235330" lon="-2.0226097293"><ele>149.62</ele><time>2014-06-11T11:28:25Z</time></trkpt><trkpt lat="51.7531278078" lon="-2.0226109028"><ele>145.78</ele><time>2014-06-11T11:28:28Z</time></trkpt><trkpt lat="51.7531288136" lon="-2.0226117410"><ele>150.10</ele><time>2014-06-11T11:28:29Z</time></trkpt><trkpt lat="51.7531393748" lon="-2.0224638842"><ele>149.62</ele><time>2014-06-11T11:28:53Z</time></trkpt></trkseg><trkseg><trkpt lat="51.7530478444" lon="-2.0233746618"><ele>151.06</ele><time>2014-06-11T11:35:40Z</time></trkpt><trkpt lat="51.7530397978" lon="-2.0233456604"><ele>154.91</ele><time>2014-06-11T11:35:41Z</time></trkpt><trkpt lat="51.7530176695" lon="-2.0233028289"><ele>152.99</ele><time>2014-06-11T11:35:43Z</time></trkpt><trkpt lat="51.7529961281" lon="-2.0232672058"><ele>154.43</ele><time>2014-06-11T11:35:45Z</time></trkpt><trkpt lat="51.7529587448" lon="-2.0232247934"><ele>149.62</ele><time>2014-06-11T11:35:48Z</time></trkpt><trkpt lat="51.7529496085" lon="-2.0232125558"><ele>152.51</ele><time>2014-06-11T11:35:49Z</time></trkpt><trkpt lat="51.7529295757" lon="-2.0231926907"><ele>153.95</ele><time>2014-06-11T11:35:51Z</time></trkpt><trkpt lat="51.7528802063" lon="-2.0231196843"><ele>152.51</ele><time>2014-06-11T11:35:56Z</time></trkpt><trkpt lat="51.7527321819" lon="-2.0229642000"><ele>149.62</ele><time>2014-06-11T11:36:09Z</time></trkpt><trkpt lat="51.7527131550" lon="-2.0229444187"><ele>151.54</ele><time>2014-06-11T11:36:11Z</time></trkpt><trkpt lat="51.7526391428" lon="-2.0228719991"><ele>148.66</ele><time>2014-06-11T11:36:19Z</time></trkpt><trkpt lat="51.7526278272" lon="-2.0228702389"><ele>149.62</ele><time>2014-06-11T11:36:20Z</time></trkpt><trkpt lat="51.7526154220" lon="-2.0228673052"><ele>150.58</ele><time>2014-06-11T11:36:21Z</time></trkpt><trkpt lat="51.7524566688" lon="-2.0228181873"><ele>147.22</ele><time>2014-06-11T11:36:35Z</time></trkpt><trkpt lat="51.7522611190" lon="-2.0226730965"><ele>142.89</ele><time>2014-06-11T11:36:52Z</time></trkpt><trkpt lat="51.7521524895" lon="-2.0225885231"><ele>143.85</ele><time>2014-06-11T11:36:58Z</time></trkpt><trkpt lat="51.7521064728" lon="-2.0225966536"><ele>139.05</ele><time>2014-06-11T11:37:03Z</time></trkpt><trkpt lat="51.7520978395" lon="-2.0226018503"><ele>142.89</ele><time>2014-06-11T11:37:04Z</time></trkpt><trkpt lat="51.7519961670" lon="-2.0225613657"><ele>139.53</ele><time>2014-06-11T11:37:13Z</time></trkpt><trkpt lat="51.7519865278" lon="-2.0225593541"><ele>140.01</ele><time>2014-06-11T11:37:14Z</time></trkpt><trkpt lat="51.7519577779" lon="-2.0225520618"><ele>143.85</ele><time>2014-06-11T11:37:17Z</time></trkpt><trkpt lat="51.7519234959" lon="-2.0225037821"><ele>140.49</ele><time>2014-06-11T11:37:22Z</time></trkpt><trkpt lat="51.7518768087" lon="-2.0224792231"><ele>144.82</ele><time>2014-06-11T11:37:27Z</time></trkpt><trkpt lat="51.7518703546" lon="-2.0224737749"><ele>140.97</ele><time>2014-06-11T11:37:28Z</time></trkpt><trkpt lat="51.7518084962" lon="-2.0223597810"><ele>143.85</ele><time>2014-06-11T11:37:37Z</time></trkpt><trkpt lat="51.7517966777" lon="-2.0223157760"><ele>140.01</ele><time>2014-06-11T11:37:39Z</time></trkpt><trkpt lat="51.7517919838" lon="-2.0223008562"><ele>140.49</ele><time>2014-06-11T11:37:40Z</time></trkpt><trkpt lat="51.7517806683" lon="-2.0222402550"><ele>143.85</ele><time>2014-06-11T11:37:43Z</time></trkpt><trkpt lat="51.7517748009" lon="-2.0222118404"><ele>141.45</ele><time>2014-06-11T11:37:46Z</time></trkpt><trkpt lat="51.7517529242" lon="-2.0221847668"><ele>141.93</ele><time>2014-06-11T11:37:50Z</time></trkpt><trkpt lat="51.7516764812" lon="-2.0219262689"><ele>144.82</ele><time>2014-06-11T11:38:09Z</time></trkpt><trkpt lat="51.7516609747" lon="-2.0218669251"><ele>139.05</ele><time>2014-06-11T11:38:12Z</time></trkpt><trkpt lat="51.7516554426" lon="-2.0218472276"><ele>141.93</ele><time>2014-06-11T11:38:13Z</time></trkpt><trkpt lat="51.7515774909" lon="-2.0216279570"><ele>141.45</ele><time>2014-06-11T11:38:25Z</time></trkpt><trkpt lat="51.7515708692" lon="-2.0215272903"><ele>137.61</ele><time>2014-06-11T11:38:30Z</time></trkpt><trkpt lat="51.7515655886" lon="-2.0215113647"><ele>139.05</ele><time>2014-06-11T11:38:31Z</time></trkpt><trkpt lat="51.7514914088" lon="-2.0213649329"><ele>139.53</ele><time>2014-06-11T11:38:42Z</time></trkpt><trkpt lat="51.7512692045" lon="-2.0210643578"><ele>141.45</ele><time>2014-06-11T11:39:05Z</time></trkpt><trkpt lat="51.7512685340" lon="-2.0210455824"><ele>141.45</ele><time>2014-06-11T11:39:06Z</time></trkpt><trkpt lat="51.7512635887" lon="-2.0210114680"><ele>137.61</ele><time>2014-06-11T11:39:08Z</time></trkpt><trkpt lat="51.7512226850" lon="-2.0209509507"><ele>142.41</ele><time>2014-06-11T11:39:15Z</time></trkpt><trkpt lat="51.7512119561" lon="-2.0209272299"><ele>138.57</ele><time>2014-06-11T11:39:17Z</time></trkpt><trkpt lat="51.7511857208" lon="-2.0208567381"><ele>142.41</ele><time>2014-06-11T11:39:22Z</time></trkpt><trkpt lat="51.7511631735" lon="-2.0207974780"><ele>138.09</ele><time>2014-06-11T11:39:27Z</time></trkpt><trkpt lat="51.7511560488" lon="-2.0207887609"><ele>138.09</ele><time>2014-06-11T11:39:28Z</time></trkpt><trkpt lat="51.7511361837" lon="-2.0207465161"><ele>140.01</ele><time>2014-06-11T11:39:30Z</time></trkpt><trkpt lat="51.7510898318" lon="-2.0206797961"><ele>137.61</ele><time>2014-06-11T11:39:34Z</time></trkpt><trkpt lat="51.7510556336" lon="-2.0205905288"><ele>137.61</ele><time>2014-06-11T11:39:38Z</time></trkpt><trkpt lat="51.7510501854" lon="-2.0205728430"><ele>138.57</ele><time>2014-06-11T11:39:39Z</time></trkpt><trkpt lat="51.7510380317" lon="-2.0205251500"><ele>141.93</ele><time>2014-06-11T11:39:42Z</time></trkpt><trkpt lat="51.7510309070" lon="-2.0205039438"><ele>138.57</ele><time>2014-06-11T11:39:44Z</time></trkpt><trkpt lat="51.7510071862" lon="-2.0204594359"><ele>140.97</ele><time>2014-06-11T11:39:49Z</time></trkpt><trkpt lat="51.7509843875" lon="-2.0204211306"><ele>137.61</ele><time>2014-06-11T11:39:53Z</time></trkpt><trkpt lat="51.7509782687" lon="-2.0204137545"><ele>138.57</ele><time>2014-06-11T11:39:54Z</time></trkpt><trkpt lat="51.7509289831" lon="-2.0203815680"><ele>138.09</ele><time>2014-06-11T11:40:00Z</time></trkpt><trkpt lat="51.7508730758" lon="-2.0203402452"><ele>140.01</ele><time>2014-06-11T11:40:05Z</time></trkpt><trkpt lat="51.7508335970" lon="-2.0202120859"><ele>137.61</ele><time>2014-06-11T11:40:10Z</time></trkpt><trkpt lat="51.7507151607" lon="-2.0199247543"><ele>140.97</ele><time>2014-06-11T11:40:24Z</time></trkpt><trkpt lat="51.7506600078" lon="-2.0198291168"><ele>137.13</ele><time>2014-06-11T11:40:29Z</time></trkpt><trkpt lat="51.7506517936" lon="-2.0198183879"><ele>137.61</ele><time>2014-06-11T11:40:30Z</time></trkpt><trkpt lat="51.7506128177" lon="-2.0197595470"><ele>140.49</ele><time>2014-06-11T11:40:34Z</time></trkpt><trkpt lat="51.7505716626" lon="-2.0196601376"><ele>136.64</ele><time>2014-06-11T11:40:40Z</time></trkpt><trkpt lat="51.7505609337" lon="-2.0195888914"><ele>138.57</ele><time>2014-06-11T11:40:45Z</time></trkpt><trkpt lat="51.7505351175" lon="-2.0195463952"><ele>134.72</ele><time>2014-06-11T11:40:49Z</time></trkpt><trkpt lat="51.7505310941" lon="-2.0195334870"><ele>139.53</ele><time>2014-06-11T11:40:50Z</time></trkpt><trkpt lat="51.7505199462" lon="-2.0194993727"><ele>134.72</ele><time>2014-06-11T11:40:52Z</time></trkpt><trkpt lat="51.7504963931" lon="-2.0194366761"><ele>138.09</ele><time>2014-06-11T11:40:55Z</time></trkpt><trkpt lat="51.7504835688" lon="-2.0193934254"><ele>139.05</ele><time>2014-06-11T11:40:57Z</time></trkpt><trkpt lat="51.7504786234" lon="-2.0193593949"><ele>134.72</ele><time>2014-06-11T11:40:59Z</time></trkpt><trkpt lat="51.7504673917" lon="-2.0192763302"><ele>137.61</ele><time>2014-06-11T11:41:03Z</time></trkpt><trkpt lat="51.7503844108" lon="-2.0189685468"><ele>137.61</ele><time>2014-06-11T11:41:22Z</time></trkpt><trkpt lat="51.7503052019" lon="-2.0188148227"><ele>137.61</ele><time>2014-06-11T11:41:33Z</time></trkpt><trkpt lat="51.7502934672" lon="-2.0187810436"><ele>139.05</ele><time>2014-06-11T11:41:35Z</time></trkpt><trkpt lat="51.7502755299" lon="-2.0187346078"><ele>134.24</ele><time>2014-06-11T11:41:38Z</time></trkpt><trkpt lat="51.7502607778" lon="-2.0186986495"><ele>137.61</ele><time>2014-06-11T11:41:40Z</time></trkpt><trkpt lat="51.7502289265" lon="-2.0185375493"><ele>135.20</ele><time>2014-06-11T11:41:49Z</time></trkpt><trkpt lat="51.7502275854" lon="-2.0184702426"><ele>138.57</ele><time>2014-06-11T11:41:52Z</time></trkpt><trkpt lat="51.7502226401" lon="-2.0184273273"><ele>134.72</ele><time>2014-06-11T11:41:59Z</time></trkpt><trkpt lat="51.7501894478" lon="-2.0183692407"><ele>137.61</ele><time>2014-06-11T11:42:02Z</time></trkpt><trkpt lat="51.7501420900" lon="-2.0182403270"><ele>134.24</ele><time>2014-06-11T11:42:09Z</time></trkpt><trkpt lat="51.7501418386" lon="-2.0182394050"><ele>137.61</ele><time>2014-06-11T11:42:11Z</time></trkpt><trkpt lat="51.7501209676" lon="-2.0182033628"><ele>137.13</ele><time>2014-06-11T11:42:21Z</time></trkpt><trkpt lat="51.7501077242" lon="-2.0181577653"><ele>136.16</ele><time>2014-06-11T11:42:26Z</time></trkpt><trkpt lat="51.7501072213" lon="-2.0181558374"><ele>137.61</ele><time>2014-06-11T11:42:28Z</time></trkpt><trkpt lat="51.7500943132" lon="-2.0180855133"><ele>139.05</ele><time>2014-06-11T11:42:48Z</time></trkpt><trkpt lat="51.7500866856" lon="-2.0180368982"><ele>135.68</ele><time>2014-06-11T11:42:50Z</time></trkpt><trkpt lat="51.7499606218" lon="-2.0175827667"><ele>136.64</ele><time>2014-06-11T11:42:58Z</time></trkpt><trkpt lat="51.7498917226" lon="-2.0173480734"><ele>138.09</ele><time>2014-06-11T11:43:02Z</time></trkpt><trkpt lat="51.7498159502" lon="-2.0170248672"><ele>137.61</ele><time>2014-06-11T11:43:15Z</time></trkpt><trkpt lat="51.7497943249" lon="-2.0169393718"><ele>139.53</ele><time>2014-06-11T11:43:20Z</time></trkpt><trkpt lat="51.7498015333" lon="-2.0167189278"><ele>138.09</ele><time>2014-06-11T11:43:39Z</time></trkpt><trkpt lat="51.7496938258" lon="-2.0164672192"><ele>137.61</ele><time>2014-06-11T11:43:54Z</time></trkpt><trkpt lat="51.7496680096" lon="-2.0163981523"><ele>138.57</ele><time>2014-06-11T11:43:56Z</time></trkpt><trkpt lat="51.7496048100" lon="-2.0162245631"><ele>138.09</ele><time>2014-06-11T11:44:03Z</time></trkpt><trkpt lat="51.7495566141" lon="-2.0161477849"><ele>138.09</ele><time>2014-06-11T11:44:11Z</time></trkpt><trkpt lat="51.7495109327" lon="-2.0161049534"><ele>138.09</ele><time>2014-06-11T11:44:17Z</time></trkpt><trkpt lat="51.7494163010" lon="-2.0158842579"><ele>137.61</ele><time>2014-06-11T11:44:31Z</time></trkpt><trkpt lat="51.7493499164" lon="-2.0158085693"><ele>140.97</ele><time>2014-06-11T11:44:36Z</time></trkpt><trkpt lat="51.7493292131" lon="-2.0157781430"><ele>137.61</ele><time>2014-06-11T11:44:38Z</time></trkpt><trkpt lat="51.7493237648" lon="-2.0157626364"><ele>138.09</ele><time>2014-06-11T11:44:39Z</time></trkpt><trkpt lat="51.7492520995" lon="-2.0156612992"><ele>142.89</ele><time>2014-06-11T11:44:49Z</time></trkpt><trkpt lat="51.7492479086" lon="-2.0156569406"><ele>142.89</ele><time>2014-06-11T11:44:50Z</time></trkpt><trkpt lat="51.7492409516" lon="-2.0156489778"><ele>138.57</ele><time>2014-06-11T11:44:52Z</time></trkpt><trkpt lat="51.7492139619" lon="-2.0156531688"><ele>140.01</ele><time>2014-06-11T11:44:57Z</time></trkpt><trkpt lat="51.7492013890" lon="-2.0156607125"><ele>136.64</ele><time>2014-06-11T11:45:02Z</time></trkpt><trkpt lat="51.7492010538" lon="-2.0156597905"><ele>140.97</ele><time>2014-06-11T11:45:03Z</time></trkpt><trkpt lat="51.7491950188" lon="-2.0156583656"><ele>140.97</ele><time>2014-06-11T11:45:04Z</time></trkpt><trkpt lat="51.7491672747" lon="-2.0156552643"><ele>138.09</ele><time>2014-06-11T11:45:07Z</time></trkpt><trkpt lat="51.7490233574" lon="-2.0155769773"><ele>140.49</ele><time>2014-06-11T11:45:19Z</time></trkpt><trkpt lat="51.7489206791" lon="-2.0155148674"><ele>139.53</ele><time>2014-06-11T11:45:27Z</time></trkpt><trkpt lat="51.7488808651" lon="-2.0154915657"><ele>140.97</ele><time>2014-06-11T11:45:30Z</time></trkpt><trkpt lat="51.7488408834" lon="-2.0154770650"><ele>138.57</ele><time>2014-06-11T11:45:34Z</time></trkpt><trkpt lat="51.7487936094" lon="-2.0154128596"><ele>141.93</ele><time>2014-06-11T11:45:41Z</time></trkpt><trkpt lat="51.7487664521" lon="-2.0154029690"><ele>137.61</ele><time>2014-06-11T11:45:44Z</time></trkpt><trkpt lat="51.7487564776" lon="-2.0154055674"><ele>138.57</ele><time>2014-06-11T11:45:45Z</time></trkpt><trkpt lat="51.7486935295" lon="-2.0154402684"><ele>141.93</ele><time>2014-06-11T11:45:49Z</time></trkpt><trkpt lat="51.7484218720" lon="-2.0155109279"><ele>139.53</ele><time>2014-06-11T11:46:08Z</time></trkpt><trkpt lat="51.7483913619" lon="-2.0155153703"><ele>139.53</ele><time>2014-06-11T11:46:25Z</time></trkpt><trkpt lat="51.7484174296" lon="-2.0155680925"><ele>139.53</ele><time>2014-06-11T11:46:48Z</time></trkpt><trkpt lat="51.7484096345" lon="-2.0155649073"><ele>139.53</ele><time>2014-06-11T11:46:56Z</time></trkpt><trkpt lat="51.7483587563" lon="-2.0155395940"><ele>137.13</ele><time>2014-06-11T11:47:01Z</time></trkpt><trkpt lat="51.7482736800" lon="-2.0155172981"><ele>141.45</ele><time>2014-06-11T11:47:08Z</time></trkpt><trkpt lat="51.7482466903" lon="-2.0155230816"><ele>137.61</ele><time>2014-06-11T11:47:11Z</time></trkpt><trkpt lat="51.7481572554" lon="-2.0155022107"><ele>141.45</ele><time>2014-06-11T11:47:18Z</time></trkpt><trkpt lat="51.7481478676" lon="-2.0154956728"><ele>140.49</ele><time>2014-06-11T11:47:19Z</time></trkpt><trkpt lat="51.7481176089" lon="-2.0154855307"><ele>137.13</ele><time>2014-06-11T11:47:21Z</time></trkpt><trkpt lat="51.7480883561" lon="-2.0154815074"><ele>139.53</ele><time>2014-06-11T11:47:23Z</time></trkpt><trkpt lat="51.7479439359" lon="-2.0155009534"><ele>139.53</ele><time>2014-06-11T11:47:39Z</time></trkpt><trkpt lat="51.7479482107" lon="-2.0154749695"><ele>138.09</ele><time>2014-06-11T11:47:52Z</time></trkpt><trkpt lat="51.7479461990" lon="-2.0154825971"><ele>140.01</ele><time>2014-06-11T11:47:54Z</time></trkpt><trkpt lat="51.7479680758" lon="-2.0155354869"><ele>140.49</ele><time>2014-06-11T11:48:11Z</time></trkpt><trkpt lat="51.7479991727" lon="-2.0156605449"><ele>139.05</ele><time>2014-06-11T11:48:31Z</time></trkpt><trkpt lat="51.7480027769" lon="-2.0156640653"><ele>133.28</ele><time>2014-06-11T11:48:32Z</time></trkpt><trkpt lat="51.7480043694" lon="-2.0156660769"><ele>143.37</ele><time>2014-06-11T11:48:33Z</time></trkpt><trkpt lat="51.7480119970" lon="-2.0156672504"><ele>140.01</ele><time>2014-06-11T11:48:34Z</time></trkpt><trkpt lat="51.7480864283" lon="-2.0157214813"><ele>138.09</ele><time>2014-06-11T11:48:51Z</time></trkpt><trkpt lat="51.7480162717" lon="-2.0156793203"><ele>139.53</ele><time>2014-06-11T11:48:59Z</time></trkpt><trkpt lat="51.7478990089" lon="-2.0156188868"><ele>133.76</ele><time>2014-06-11T11:49:16Z</time></trkpt><trkpt lat="51.7478936445" lon="-2.0156265981"><ele>138.57</ele><time>2014-06-11T11:49:17Z</time></trkpt><trkpt lat="51.7478953209" lon="-2.0156188030"><ele>141.93</ele><time>2014-06-11T11:49:23Z</time></trkpt><trkpt lat="51.7479126714" lon="-2.0155815873"><ele>139.05</ele><time>2014-06-11T11:49:26Z</time></trkpt><trkpt lat="51.7478921358" lon="-2.0155467186"><ele>139.05</ele><time>2014-06-11T11:49:33Z</time></trkpt><trkpt lat="51.7477455363" lon="-2.0155369118"><ele>140.97</ele><time>2014-06-11T11:49:49Z</time></trkpt><trkpt lat="51.7476302013" lon="-2.0154758915"><ele>137.61</ele><time>2014-06-11T11:49:57Z</time></trkpt><trkpt lat="51.7476166226" lon="-2.0154606365"><ele>141.93</ele><time>2014-06-11T11:49:58Z</time></trkpt><trkpt lat="51.7475562729" lon="-2.0154069923"><ele>138.57</ele><time>2014-06-11T11:50:03Z</time></trkpt><trkpt lat="51.7475112621" lon="-2.0153732132"><ele>136.64</ele><time>2014-06-11T11:50:14Z</time></trkpt><trkpt lat="51.7474783212" lon="-2.0153430384"><ele>139.05</ele><time>2014-06-11T11:50:17Z</time></trkpt><trkpt lat="51.7474694364" lon="-2.0153352432"><ele>139.53</ele><time>2014-06-11T11:50:18Z</time></trkpt><trkpt lat="51.7474279460" lon="-2.0153104328"><ele>140.97</ele><time>2014-06-11T11:50:21Z</time></trkpt><trkpt lat="51.7473867070" lon="-2.0152770728"><ele>139.53</ele><time>2014-06-11T11:50:24Z</time></trkpt><trkpt lat="51.7472803406" lon="-2.0152316429"><ele>136.64</ele><time>2014-06-11T11:50:33Z</time></trkpt><trkpt lat="51.7472565360" lon="-2.0151950140"><ele>139.05</ele><time>2014-06-11T11:50:34Z</time></trkpt><trkpt lat="51.7470409535" lon="-2.0150023978"><ele>134.72</ele><time>2014-06-11T11:50:52Z</time></trkpt><trkpt lat="51.7470280454" lon="-2.0149901602"><ele>124.15</ele><time>2014-06-11T11:50:53Z</time></trkpt><trkpt lat="51.7470152210" lon="-2.0149790123"><ele>140.49</ele><time>2014-06-11T11:50:54Z</time></trkpt><trkpt lat="51.7470036540" lon="-2.0149674453"><ele>135.68</ele><time>2014-06-11T11:50:55Z</time></trkpt><trkpt lat="51.7469180748" lon="-2.0148863923"><ele>132.80</ele><time>2014-06-11T11:51:04Z</time></trkpt><trkpt lat="51.7468919232" lon="-2.0148309879"><ele>129.92</ele><time>2014-06-11T11:51:08Z</time></trkpt><trkpt lat="51.7468819488" lon="-2.0147298183"><ele>131.36</ele><time>2014-06-11T11:51:12Z</time></trkpt><trkpt lat="51.7468804400" lon="-2.0146015752"><ele>132.80</ele><time>2014-06-11T11:51:16Z</time></trkpt><trkpt lat="51.7469106149" lon="-2.0144154970"><ele>131.84</ele><time>2014-06-11T11:51:24Z</time></trkpt><trkpt lat="51.7468755785" lon="-2.0142025966"><ele>131.36</ele><time>2014-06-11T11:51:34Z</time></trkpt><trkpt lat="51.7468060087" lon="-2.0141176041"><ele>132.32</ele><time>2014-06-11T11:51:42Z</time></trkpt><trkpt lat="51.7467280570" lon="-2.0140315220"><ele>129.92</ele><time>2014-06-11T11:51:47Z</time></trkpt><trkpt lat="51.7466081120" lon="-2.0138881076"><ele>133.76</ele><time>2014-06-11T11:51:58Z</time></trkpt><trkpt lat="51.7465793621" lon="-2.0138731040"><ele>130.40</ele><time>2014-06-11T11:52:01Z</time></trkpt><trkpt lat="51.7465676274" lon="-2.0138513111"><ele>134.72</ele><time>2014-06-11T11:52:03Z</time></trkpt><trkpt lat="51.7465651128" lon="-2.0138411690"><ele>131.36</ele><time>2014-06-11T11:52:04Z</time></trkpt><trkpt lat="51.7465239577" lon="-2.0137430169"><ele>131.36</ele><time>2014-06-11T11:52:10Z</time></trkpt><trkpt lat="51.7464418989" lon="-2.0134100877"><ele>131.84</ele><time>2014-06-11T11:52:26Z</time></trkpt><trkpt lat="51.7464258056" lon="-2.0133738779"><ele>128.95</ele><time>2014-06-11T11:52:29Z</time></trkpt><trkpt lat="51.7464193515" lon="-2.0133615565"><ele>128.95</ele><time>2014-06-11T11:52:30Z</time></trkpt><trkpt lat="51.7464111373" lon="-2.0133467205"><ele>130.88</ele><time>2014-06-11T11:52:31Z</time></trkpt><trkpt lat="51.7463458423" lon="-2.0132577885"><ele>133.76</ele><time>2014-06-11T11:52:37Z</time></trkpt><trkpt lat="51.7463413160" lon="-2.0132469758"><ele>130.40</ele><time>2014-06-11T11:52:38Z</time></trkpt><trkpt lat="51.7463087942" lon="-2.0131748077"><ele>128.95</ele><time>2014-06-11T11:52:42Z</time></trkpt><trkpt lat="51.7462897673" lon="-2.0131317247"><ele>132.80</ele><time>2014-06-11T11:52:45Z</time></trkpt><trkpt lat="51.7462826427" lon="-2.0131153800"><ele>132.80</ele><time>2014-06-11T11:52:46Z</time></trkpt><trkpt lat="51.7462648731" lon="-2.0130733028"><ele>131.36</ele><time>2014-06-11T11:52:48Z</time></trkpt><trkpt lat="51.7462381348" lon="-2.0129961055"><ele>127.99</ele><time>2014-06-11T11:52:51Z</time></trkpt><trkpt lat="51.7462349497" lon="-2.0129883941"><ele>133.28</ele><time>2014-06-11T11:52:52Z</time></trkpt><trkpt lat="51.7462301720" lon="-2.0129737258"><ele>132.80</ele><time>2014-06-11T11:52:53Z</time></trkpt><trkpt lat="51.7462186050" lon="-2.0129150525"><ele>130.40</ele><time>2014-06-11T11:52:56Z</time></trkpt><trkpt lat="51.7462061159" lon="-2.0128633361"><ele>133.76</ele><time>2014-06-11T11:52:59Z</time></trkpt><trkpt lat="51.7462046072" lon="-2.0128574688"><ele>129.92</ele><time>2014-06-11T11:53:00Z</time></trkpt><trkpt lat="51.7461234704" lon="-2.0126255415"><ele>132.32</ele><time>2014-06-11T11:53:12Z</time></trkpt><trkpt lat="51.7460011784" lon="-2.0124928560"><ele>130.88</ele><time>2014-06-11T11:53:16Z</time></trkpt><trkpt lat="51.7459668126" lon="-2.0124702249"><ele>132.80</ele><time>2014-06-11T11:53:18Z</time></trkpt><trkpt lat="51.7459316924" lon="-2.0124285668"><ele>128.95</ele><time>2014-06-11T11:53:21Z</time></trkpt><trkpt lat="51.7459079716" lon="-2.0124030858"><ele>127.99</ele><time>2014-06-11T11:53:23Z</time></trkpt><trkpt lat="51.7458734382" lon="-2.0123759285"><ele>130.40</ele><time>2014-06-11T11:53:26Z</time></trkpt><trkpt lat="51.7458524834" lon="-2.0123478491"><ele>127.03</ele><time>2014-06-11T11:53:28Z</time></trkpt><trkpt lat="51.7458321154" lon="-2.0123181771"><ele>130.40</ele><time>2014-06-11T11:53:30Z</time></trkpt><trkpt lat="51.7458233982" lon="-2.0123022515"><ele>130.40</ele><time>2014-06-11T11:53:31Z</time></trkpt><trkpt lat="51.7457218934" lon="-2.0121724997"><ele>131.84</ele><time>2014-06-11T11:53:42Z</time></trkpt><trkpt lat="51.7457147688" lon="-2.0121444203"><ele>128.47</ele><time>2014-06-11T11:53:44Z</time></trkpt><trkpt lat="51.7456921376" lon="-2.0121299196"><ele>127.99</ele><time>2014-06-11T11:53:46Z</time></trkpt><trkpt lat="51.7456593644" lon="-2.0121123176"><ele>129.92</ele><time>2014-06-11T11:53:48Z</time></trkpt><trkpt lat="51.7456049658" lon="-2.0120913628"><ele>131.84</ele><time>2014-06-11T11:53:52Z</time></trkpt><trkpt lat="51.7455876153" lon="-2.0120942965"><ele>130.40</ele><time>2014-06-11T11:53:54Z</time></trkpt><trkpt lat="51.7454447877" lon="-2.0118960645"><ele>129.43</ele><time>2014-06-11T11:54:09Z</time></trkpt><trkpt lat="51.7454362381" lon="-2.0115226507"><ele>129.43</ele><time>2014-06-11T11:54:23Z</time></trkpt><trkpt lat="51.7454392556" lon="-2.0114682522"><ele>132.80</ele><time>2014-06-11T11:54:26Z</time></trkpt><trkpt lat="51.7454503197" lon="-2.0114297792"><ele>128.47</ele><time>2014-06-11T11:54:28Z</time></trkpt><trkpt lat="51.7454510741" lon="-2.0113757160"><ele>130.88</ele><time>2014-06-11T11:54:31Z</time></trkpt><trkpt lat="51.7454585340" lon="-2.0113242511"><ele>128.47</ele><time>2014-06-11T11:54:34Z</time></trkpt><trkpt lat="51.7454687599" lon="-2.0112954173"><ele>129.43</ele><time>2014-06-11T11:54:36Z</time></trkpt><trkpt lat="51.7455407605" lon="-2.0112851076"><ele>129.92</ele><time>2014-06-11T11:54:44Z</time></trkpt><trkpt lat="51.7455750424" lon="-2.0112820901"><ele>129.92</ele><time>2014-06-11T11:54:49Z</time></trkpt><trkpt lat="51.7456273455" lon="-2.0113261789"><ele>129.92</ele><time>2014-06-11T11:54:54Z</time></trkpt><trkpt lat="51.7456784751" lon="-2.0113428589"><ele>126.55</ele><time>2014-06-11T11:54:58Z</time></trkpt><trkpt lat="51.7456860188" lon="-2.0113562699"><ele>127.99</ele><time>2014-06-11T11:54:59Z</time></trkpt><trkpt lat="51.7457026150" lon="-2.0113745425"><ele>129.43</ele><time>2014-06-11T11:55:01Z</time></trkpt><trkpt lat="51.7458037008" lon="-2.0115679130"><ele>130.40</ele><time>2014-06-11T11:55:14Z</time></trkpt><trkpt lat="51.7458365578" lon="-2.0115497243"><ele>129.92</ele><time>2014-06-11T11:55:26Z</time></trkpt></trkseg></trk></gpx>